<?xml version="1.0" encoding="UTF-8" standalone="no" ?>
<gpx xmlns="http://www.topografix.com/GPX/1/1" xmlns:xsi="http://www.w3.org/2001/XMLSchema-instance" xsi:schemaLocation="http://www.topografix.com/GPX/1/1 http://www.topografix.com/GPX/1/1/gpx.xsd" version="1.1" creator="VisuGPX - https://www.visugpx.com">
  <metadata>
    <name>Cyclo - Le Razal et les Gorges de l\'Ardèche</name>
    <desc><![CDATA[Petite virée sympa autour de vallon Pont d\'Arc]]></desc>
  </metadata>
  <trk>
    <name><![CDATA[23-MARS-14 13:56:29]]></name>
    <trkseg>
      <trkpt lat="44.40584" lon="4.39148">
        <ele>114.05</ele>
        <time>2014-03-23T09:15:22Z</time>
      </trkpt>
      <trkpt lat="44.40585" lon="4.39149">
        <ele>114.05</ele>
        <time>2014-03-23T09:15:23Z</time>
      </trkpt>
      <trkpt lat="44.40582" lon="4.39146">
        <ele>111.17</ele>
        <time>2014-03-23T09:15:36Z</time>
      </trkpt>
      <trkpt lat="44.40583" lon="4.39146">
        <ele>108.29</ele>
        <time>2014-03-23T09:15:51Z</time>
      </trkpt>
      <trkpt lat="44.40583" lon="4.39148">
        <ele>104.92</ele>
        <time>2014-03-23T09:16:09Z</time>
      </trkpt>
      <trkpt lat="44.40584" lon="4.39148">
        <ele>103</ele>
        <time>2014-03-23T09:16:24Z</time>
      </trkpt>
      <trkpt lat="44.40576" lon="4.39132">
        <ele>101.56</ele>
        <time>2014-03-23T09:16:32Z</time>
      </trkpt>
      <trkpt lat="44.40579" lon="4.39128">
        <ele>101.08</ele>
        <time>2014-03-23T09:16:33Z</time>
      </trkpt>
      <trkpt lat="44.40583" lon="4.39124">
        <ele>100.6</ele>
        <time>2014-03-23T09:16:34Z</time>
      </trkpt>
      <trkpt lat="44.40586" lon="4.39121">
        <ele>100.11</ele>
        <time>2014-03-23T09:16:35Z</time>
      </trkpt>
      <trkpt lat="44.40593" lon="4.39115">
        <ele>101.56</ele>
        <time>2014-03-23T09:16:37Z</time>
      </trkpt>
      <trkpt lat="44.40594" lon="4.39111">
        <ele>101.56</ele>
        <time>2014-03-23T09:16:38Z</time>
      </trkpt>
      <trkpt lat="44.40594" lon="4.39109">
        <ele>102.52</ele>
        <time>2014-03-23T09:16:43Z</time>
      </trkpt>
      <trkpt lat="44.40593" lon="4.39109">
        <ele>102.52</ele>
        <time>2014-03-23T09:16:50Z</time>
      </trkpt>
      <trkpt lat="44.40592" lon="4.3911">
        <ele>102.04</ele>
        <time>2014-03-23T09:16:52Z</time>
      </trkpt>
      <trkpt lat="44.4059" lon="4.39114">
        <ele>102.04</ele>
        <time>2014-03-23T09:16:54Z</time>
      </trkpt>
      <trkpt lat="44.40582" lon="4.39147">
        <ele>102.52</ele>
        <time>2014-03-23T09:17:05Z</time>
      </trkpt>
      <trkpt lat="44.40582" lon="4.39148">
        <ele>102.52</ele>
        <time>2014-03-23T09:17:16Z</time>
      </trkpt>
      <trkpt lat="44.40577" lon="4.39157">
        <ele>102.52</ele>
        <time>2014-03-23T09:17:20Z</time>
      </trkpt>
      <trkpt lat="44.40566" lon="4.39178">
        <ele>105.88</ele>
        <time>2014-03-23T09:17:28Z</time>
      </trkpt>
      <trkpt lat="44.40561" lon="4.39188">
        <ele>106.84</ele>
        <time>2014-03-23T09:17:32Z</time>
      </trkpt>
      <trkpt lat="44.40562" lon="4.39196">
        <ele>106.84</ele>
        <time>2014-03-23T09:17:35Z</time>
      </trkpt>
      <trkpt lat="44.40565" lon="4.39202">
        <ele>106.84</ele>
        <time>2014-03-23T09:17:39Z</time>
      </trkpt>
      <trkpt lat="44.40574" lon="4.39203">
        <ele>107.32</ele>
        <time>2014-03-23T09:17:45Z</time>
      </trkpt>
      <trkpt lat="44.40592" lon="4.39199">
        <ele>107.81</ele>
        <time>2014-03-23T09:17:55Z</time>
      </trkpt>
      <trkpt lat="44.406" lon="4.39214">
        <ele>108.29</ele>
        <time>2014-03-23T09:18:02Z</time>
      </trkpt>
      <trkpt lat="44.40601" lon="4.3926">
        <ele>110.21</ele>
        <time>2014-03-23T09:18:15Z</time>
      </trkpt>
      <trkpt lat="44.40619" lon="4.393">
        <ele>111.17</ele>
        <time>2014-03-23T09:18:28Z</time>
      </trkpt>
      <trkpt lat="44.40625" lon="4.39315">
        <ele>113.57</ele>
        <time>2014-03-23T09:18:33Z</time>
      </trkpt>
      <trkpt lat="44.40637" lon="4.39342">
        <ele>116.46</ele>
        <time>2014-03-23T09:18:41Z</time>
      </trkpt>
      <trkpt lat="44.40638" lon="4.39346">
        <ele>115.98</ele>
        <time>2014-03-23T09:18:42Z</time>
      </trkpt>
      <trkpt lat="44.40642" lon="4.39362">
        <ele>117.9</ele>
        <time>2014-03-23T09:18:47Z</time>
      </trkpt>
      <trkpt lat="44.40621" lon="4.39404">
        <ele>117.42</ele>
        <time>2014-03-23T09:19:00Z</time>
      </trkpt>
      <trkpt lat="44.40637" lon="4.39425">
        <ele>116.94</ele>
        <time>2014-03-23T09:19:09Z</time>
      </trkpt>
      <trkpt lat="44.40644" lon="4.39437">
        <ele>116.94</ele>
        <time>2014-03-23T09:19:13Z</time>
      </trkpt>
      <trkpt lat="44.40672" lon="4.39474">
        <ele>118.38</ele>
        <time>2014-03-23T09:19:27Z</time>
      </trkpt>
      <trkpt lat="44.40691" lon="4.39497">
        <ele>119.82</ele>
        <time>2014-03-23T09:19:37Z</time>
      </trkpt>
      <trkpt lat="44.40698" lon="4.39504">
        <ele>119.82</ele>
        <time>2014-03-23T09:19:42Z</time>
      </trkpt>
      <trkpt lat="44.407" lon="4.39481">
        <ele>120.3</ele>
        <time>2014-03-23T09:19:54Z</time>
      </trkpt>
      <trkpt lat="44.40703" lon="4.39478">
        <ele>120.3</ele>
        <time>2014-03-23T09:19:56Z</time>
      </trkpt>
      <trkpt lat="44.40715" lon="4.39452">
        <ele>120.78</ele>
        <time>2014-03-23T09:20:09Z</time>
      </trkpt>
      <trkpt lat="44.40722" lon="4.39441">
        <ele>121.74</ele>
        <time>2014-03-23T09:20:15Z</time>
      </trkpt>
      <trkpt lat="44.40716" lon="4.3945">
        <ele>121.26</ele>
        <time>2014-03-23T09:20:21Z</time>
      </trkpt>
      <trkpt lat="44.40696" lon="4.39485">
        <ele>119.34</ele>
        <time>2014-03-23T09:20:30Z</time>
      </trkpt>
      <trkpt lat="44.40698" lon="4.39498">
        <ele>119.82</ele>
        <time>2014-03-23T09:20:35Z</time>
      </trkpt>
      <trkpt lat="44.40714" lon="4.39519">
        <ele>119.82</ele>
        <time>2014-03-23T09:20:44Z</time>
      </trkpt>
      <trkpt lat="44.40722" lon="4.39514">
        <ele>119.82</ele>
        <time>2014-03-23T09:20:53Z</time>
      </trkpt>
      <trkpt lat="44.40722" lon="4.39514">
        <ele>120.3</ele>
        <time>2014-03-23T09:21:09Z</time>
      </trkpt>
      <trkpt lat="44.40722" lon="4.39514">
        <ele>120.3</ele>
        <time>2014-03-23T09:21:35Z</time>
      </trkpt>
      <trkpt lat="44.40722" lon="4.39514">
        <ele>120.3</ele>
        <time>2014-03-23T09:21:47Z</time>
      </trkpt>
      <trkpt lat="44.4072" lon="4.39519">
        <ele>119.82</ele>
        <time>2014-03-23T09:21:51Z</time>
      </trkpt>
      <trkpt lat="44.40717" lon="4.39521">
        <ele>119.82</ele>
        <time>2014-03-23T09:21:53Z</time>
      </trkpt>
      <trkpt lat="44.40716" lon="4.39549">
        <ele>117.9</ele>
        <time>2014-03-23T09:21:59Z</time>
      </trkpt>
      <trkpt lat="44.40736" lon="4.39594">
        <ele>116.46</ele>
        <time>2014-03-23T09:22:09Z</time>
      </trkpt>
      <trkpt lat="44.40772" lon="4.39638">
        <ele>115.98</ele>
        <time>2014-03-23T09:22:20Z</time>
      </trkpt>
      <trkpt lat="44.40798" lon="4.39679">
        <ele>113.57</ele>
        <time>2014-03-23T09:22:27Z</time>
      </trkpt>
      <trkpt lat="44.40801" lon="4.39685">
        <ele>113.57</ele>
        <time>2014-03-23T09:22:28Z</time>
      </trkpt>
      <trkpt lat="44.40833" lon="4.39766">
        <ele>111.65</ele>
        <time>2014-03-23T09:22:39Z</time>
      </trkpt>
      <trkpt lat="44.40862" lon="4.39867">
        <ele>110.21</ele>
        <time>2014-03-23T09:22:53Z</time>
      </trkpt>
      <trkpt lat="44.40872" lon="4.39929">
        <ele>109.25</ele>
        <time>2014-03-23T09:23:01Z</time>
      </trkpt>
      <trkpt lat="44.40873" lon="4.39937">
        <ele>109.25</ele>
        <time>2014-03-23T09:23:02Z</time>
      </trkpt>
      <trkpt lat="44.40887" lon="4.40017">
        <ele>108.29</ele>
        <time>2014-03-23T09:23:12Z</time>
      </trkpt>
      <trkpt lat="44.40909" lon="4.40159">
        <ele>106.36</ele>
        <time>2014-03-23T09:23:29Z</time>
      </trkpt>
      <trkpt lat="44.40923" lon="4.40247">
        <ele>105.88</ele>
        <time>2014-03-23T09:23:40Z</time>
      </trkpt>
      <trkpt lat="44.40923" lon="4.40272">
        <ele>105.88</ele>
        <time>2014-03-23T09:23:43Z</time>
      </trkpt>
      <trkpt lat="44.40922" lon="4.4028">
        <ele>105.88</ele>
        <time>2014-03-23T09:23:44Z</time>
      </trkpt>
      <trkpt lat="44.40904" lon="4.40402">
        <ele>105.88</ele>
        <time>2014-03-23T09:24:00Z</time>
      </trkpt>
      <trkpt lat="44.40883" lon="4.40538">
        <ele>106.36</ele>
        <time>2014-03-23T09:24:18Z</time>
      </trkpt>
      <trkpt lat="44.40863" lon="4.40672">
        <ele>106.84</ele>
        <time>2014-03-23T09:24:36Z</time>
      </trkpt>
      <trkpt lat="44.40833" lon="4.40782">
        <ele>106.84</ele>
        <time>2014-03-23T09:24:52Z</time>
      </trkpt>
      <trkpt lat="44.4083" lon="4.40788">
        <ele>107.32</ele>
        <time>2014-03-23T09:24:53Z</time>
      </trkpt>
      <trkpt lat="44.4081" lon="4.40816">
        <ele>106.84</ele>
        <time>2014-03-23T09:24:58Z</time>
      </trkpt>
      <trkpt lat="44.40805" lon="4.40821">
        <ele>106.84</ele>
        <time>2014-03-23T09:24:59Z</time>
      </trkpt>
      <trkpt lat="44.40737" lon="4.4091">
        <ele>106.36</ele>
        <time>2014-03-23T09:25:14Z</time>
      </trkpt>
      <trkpt lat="44.4065" lon="4.41023">
        <ele>105.88</ele>
        <time>2014-03-23T09:25:33Z</time>
      </trkpt>
      <trkpt lat="44.40632" lon="4.41047">
        <ele>105.4</ele>
        <time>2014-03-23T09:25:37Z</time>
      </trkpt>
      <trkpt lat="44.40628" lon="4.41052">
        <ele>105.4</ele>
        <time>2014-03-23T09:25:38Z</time>
      </trkpt>
      <trkpt lat="44.40575" lon="4.41114">
        <ele>104.92</ele>
        <time>2014-03-23T09:25:49Z</time>
      </trkpt>
      <trkpt lat="44.40569" lon="4.41119">
        <ele>105.4</ele>
        <time>2014-03-23T09:25:50Z</time>
      </trkpt>
      <trkpt lat="44.40563" lon="4.41122">
        <ele>104.92</ele>
        <time>2014-03-23T09:25:51Z</time>
      </trkpt>
      <trkpt lat="44.4052" lon="4.41139">
        <ele>104.92</ele>
        <time>2014-03-23T09:25:58Z</time>
      </trkpt>
      <trkpt lat="44.40503" lon="4.41148">
        <ele>104.92</ele>
        <time>2014-03-23T09:26:01Z</time>
      </trkpt>
      <trkpt lat="44.40486" lon="4.4116">
        <ele>104.44</ele>
        <time>2014-03-23T09:26:04Z</time>
      </trkpt>
      <trkpt lat="44.40481" lon="4.41166">
        <ele>104.44</ele>
        <time>2014-03-23T09:26:05Z</time>
      </trkpt>
      <trkpt lat="44.40477" lon="4.41173">
        <ele>104.44</ele>
        <time>2014-03-23T09:26:06Z</time>
      </trkpt>
      <trkpt lat="44.40473" lon="4.4118">
        <ele>104.92</ele>
        <time>2014-03-23T09:26:07Z</time>
      </trkpt>
      <trkpt lat="44.4047" lon="4.41188">
        <ele>104.44</ele>
        <time>2014-03-23T09:26:08Z</time>
      </trkpt>
      <trkpt lat="44.40467" lon="4.41196">
        <ele>104.44</ele>
        <time>2014-03-23T09:26:09Z</time>
      </trkpt>
      <trkpt lat="44.40464" lon="4.41204">
        <ele>104.44</ele>
        <time>2014-03-23T09:26:10Z</time>
      </trkpt>
      <trkpt lat="44.40461" lon="4.41212">
        <ele>103.96</ele>
        <time>2014-03-23T09:26:11Z</time>
      </trkpt>
      <trkpt lat="44.40458" lon="4.4122">
        <ele>103.96</ele>
        <time>2014-03-23T09:26:12Z</time>
      </trkpt>
      <trkpt lat="44.40455" lon="4.41227">
        <ele>103.96</ele>
        <time>2014-03-23T09:26:13Z</time>
      </trkpt>
      <trkpt lat="44.40451" lon="4.41234">
        <ele>103.96</ele>
        <time>2014-03-23T09:26:14Z</time>
      </trkpt>
      <trkpt lat="44.40395" lon="4.41315">
        <ele>104.44</ele>
        <time>2014-03-23T09:26:28Z</time>
      </trkpt>
      <trkpt lat="44.4038" lon="4.41339">
        <ele>104.92</ele>
        <time>2014-03-23T09:26:32Z</time>
      </trkpt>
      <trkpt lat="44.40377" lon="4.41346">
        <ele>104.92</ele>
        <time>2014-03-23T09:26:33Z</time>
      </trkpt>
      <trkpt lat="44.40376" lon="4.41353">
        <ele>104.92</ele>
        <time>2014-03-23T09:26:34Z</time>
      </trkpt>
      <trkpt lat="44.40375" lon="4.41361">
        <ele>104.92</ele>
        <time>2014-03-23T09:26:35Z</time>
      </trkpt>
      <trkpt lat="44.40376" lon="4.41369">
        <ele>104.92</ele>
        <time>2014-03-23T09:26:36Z</time>
      </trkpt>
      <trkpt lat="44.40378" lon="4.41377">
        <ele>104.92</ele>
        <time>2014-03-23T09:26:37Z</time>
      </trkpt>
      <trkpt lat="44.4038" lon="4.41384">
        <ele>104.44</ele>
        <time>2014-03-23T09:26:38Z</time>
      </trkpt>
      <trkpt lat="44.40382" lon="4.41391">
        <ele>104.44</ele>
        <time>2014-03-23T09:26:39Z</time>
      </trkpt>
      <trkpt lat="44.40392" lon="4.41418">
        <ele>104.44</ele>
        <time>2014-03-23T09:26:43Z</time>
      </trkpt>
      <trkpt lat="44.40429" lon="4.41515">
        <ele>103.96</ele>
        <time>2014-03-23T09:26:58Z</time>
      </trkpt>
      <trkpt lat="44.40429" lon="4.41522">
        <ele>104.44</ele>
        <time>2014-03-23T09:26:59Z</time>
      </trkpt>
      <trkpt lat="44.40429" lon="4.41529">
        <ele>104.44</ele>
        <time>2014-03-23T09:27:00Z</time>
      </trkpt>
      <trkpt lat="44.40429" lon="4.41536">
        <ele>104.44</ele>
        <time>2014-03-23T09:27:01Z</time>
      </trkpt>
      <trkpt lat="44.40428" lon="4.41543">
        <ele>104.44</ele>
        <time>2014-03-23T09:27:02Z</time>
      </trkpt>
      <trkpt lat="44.40427" lon="4.4155">
        <ele>104.44</ele>
        <time>2014-03-23T09:27:03Z</time>
      </trkpt>
      <trkpt lat="44.40425" lon="4.41557">
        <ele>104.44</ele>
        <time>2014-03-23T09:27:04Z</time>
      </trkpt>
      <trkpt lat="44.40422" lon="4.41562">
        <ele>104.92</ele>
        <time>2014-03-23T09:27:05Z</time>
      </trkpt>
      <trkpt lat="44.40419" lon="4.41567">
        <ele>104.92</ele>
        <time>2014-03-23T09:27:06Z</time>
      </trkpt>
      <trkpt lat="44.40415" lon="4.41572">
        <ele>105.4</ele>
        <time>2014-03-23T09:27:07Z</time>
      </trkpt>
      <trkpt lat="44.40412" lon="4.41576">
        <ele>105.88</ele>
        <time>2014-03-23T09:27:08Z</time>
      </trkpt>
      <trkpt lat="44.40409" lon="4.41579">
        <ele>105.88</ele>
        <time>2014-03-23T09:27:09Z</time>
      </trkpt>
      <trkpt lat="44.40405" lon="4.41582">
        <ele>106.36</ele>
        <time>2014-03-23T09:27:10Z</time>
      </trkpt>
      <trkpt lat="44.40375" lon="4.41603">
        <ele>108.77</ele>
        <time>2014-03-23T09:27:19Z</time>
      </trkpt>
      <trkpt lat="44.4034" lon="4.41632">
        <ele>112.13</ele>
        <time>2014-03-23T09:27:32Z</time>
      </trkpt>
      <trkpt lat="44.40321" lon="4.41684">
        <ele>115.01</ele>
        <time>2014-03-23T09:27:46Z</time>
      </trkpt>
      <trkpt lat="44.40291" lon="4.41715">
        <ele>117.42</ele>
        <time>2014-03-23T09:28:00Z</time>
      </trkpt>
      <trkpt lat="44.40271" lon="4.4176">
        <ele>119.82</ele>
        <time>2014-03-23T09:28:14Z</time>
      </trkpt>
      <trkpt lat="44.4024" lon="4.41787">
        <ele>122.71</ele>
        <time>2014-03-23T09:28:28Z</time>
      </trkpt>
      <trkpt lat="44.4021" lon="4.41811">
        <ele>126.07</ele>
        <time>2014-03-23T09:28:41Z</time>
      </trkpt>
      <trkpt lat="44.4018" lon="4.41841">
        <ele>129.43</ele>
        <time>2014-03-23T09:28:55Z</time>
      </trkpt>
      <trkpt lat="44.40152" lon="4.41865">
        <ele>132.32</ele>
        <time>2014-03-23T09:29:09Z</time>
      </trkpt>
      <trkpt lat="44.40157" lon="4.41897">
        <ele>134.72</ele>
        <time>2014-03-23T09:29:20Z</time>
      </trkpt>
      <trkpt lat="44.40183" lon="4.41884">
        <ele>135.68</ele>
        <time>2014-03-23T09:29:31Z</time>
      </trkpt>
      <trkpt lat="44.40214" lon="4.41845">
        <ele>138.09</ele>
        <time>2014-03-23T09:29:47Z</time>
      </trkpt>
      <trkpt lat="44.40242" lon="4.41849">
        <ele>140.49</ele>
        <time>2014-03-23T09:29:59Z</time>
      </trkpt>
      <trkpt lat="44.40279" lon="4.4187">
        <ele>143.37</ele>
        <time>2014-03-23T09:30:15Z</time>
      </trkpt>
      <trkpt lat="44.40309" lon="4.41843">
        <ele>145.3</ele>
        <time>2014-03-23T09:30:29Z</time>
      </trkpt>
      <trkpt lat="44.40338" lon="4.41793">
        <ele>147.7</ele>
        <time>2014-03-23T09:30:46Z</time>
      </trkpt>
      <trkpt lat="44.40375" lon="4.41778">
        <ele>150.58</ele>
        <time>2014-03-23T09:31:01Z</time>
      </trkpt>
      <trkpt lat="44.40405" lon="4.4176">
        <ele>152.03</ele>
        <time>2014-03-23T09:31:14Z</time>
      </trkpt>
      <trkpt lat="44.40443" lon="4.41735">
        <ele>155.39</ele>
        <time>2014-03-23T09:31:31Z</time>
      </trkpt>
      <trkpt lat="44.40479" lon="4.41728">
        <ele>158.27</ele>
        <time>2014-03-23T09:31:46Z</time>
      </trkpt>
      <trkpt lat="44.40521" lon="4.41725">
        <ele>160.68</ele>
        <time>2014-03-23T09:32:03Z</time>
      </trkpt>
      <trkpt lat="44.40561" lon="4.41729">
        <ele>163.56</ele>
        <time>2014-03-23T09:32:19Z</time>
      </trkpt>
      <trkpt lat="44.40583" lon="4.41735">
        <ele>166.93</ele>
        <time>2014-03-23T09:32:28Z</time>
      </trkpt>
      <trkpt lat="44.40586" lon="4.41737">
        <ele>166.93</ele>
        <time>2014-03-23T09:32:29Z</time>
      </trkpt>
      <trkpt lat="44.40608" lon="4.41777">
        <ele>167.89</ele>
        <time>2014-03-23T09:32:44Z</time>
      </trkpt>
      <trkpt lat="44.4062" lon="4.4183">
        <ele>170.77</ele>
        <time>2014-03-23T09:33:00Z</time>
      </trkpt>
      <trkpt lat="44.40646" lon="4.41875">
        <ele>171.73</ele>
        <time>2014-03-23T09:33:16Z</time>
      </trkpt>
      <trkpt lat="44.40675" lon="4.41917">
        <ele>175.1</ele>
        <time>2014-03-23T09:33:32Z</time>
      </trkpt>
      <trkpt lat="44.40708" lon="4.41917">
        <ele>177.02</ele>
        <time>2014-03-23T09:33:46Z</time>
      </trkpt>
      <trkpt lat="44.4075" lon="4.41896">
        <ele>179.9</ele>
        <time>2014-03-23T09:34:04Z</time>
      </trkpt>
      <trkpt lat="44.40785" lon="4.41905">
        <ele>182.79</ele>
        <time>2014-03-23T09:34:19Z</time>
      </trkpt>
      <trkpt lat="44.40825" lon="4.41908">
        <ele>186.15</ele>
        <time>2014-03-23T09:34:36Z</time>
      </trkpt>
      <trkpt lat="44.40866" lon="4.41886">
        <ele>189.04</ele>
        <time>2014-03-23T09:34:53Z</time>
      </trkpt>
      <trkpt lat="44.40907" lon="4.41862">
        <ele>191.92</ele>
        <time>2014-03-23T09:35:11Z</time>
      </trkpt>
      <trkpt lat="44.40948" lon="4.41846">
        <ele>194.32</ele>
        <time>2014-03-23T09:35:29Z</time>
      </trkpt>
      <trkpt lat="44.40984" lon="4.41839">
        <ele>197.69</ele>
        <time>2014-03-23T09:35:44Z</time>
      </trkpt>
      <trkpt lat="44.40991" lon="4.41838">
        <ele>198.65</ele>
        <time>2014-03-23T09:35:47Z</time>
      </trkpt>
      <trkpt lat="44.40997" lon="4.41835">
        <ele>200.09</ele>
        <time>2014-03-23T09:35:50Z</time>
      </trkpt>
      <trkpt lat="44.40999" lon="4.41836">
        <ele>199.13</ele>
        <time>2014-03-23T09:35:51Z</time>
      </trkpt>
      <trkpt lat="44.41" lon="4.41837">
        <ele>200.09</ele>
        <time>2014-03-23T09:35:52Z</time>
      </trkpt>
      <trkpt lat="44.41001" lon="4.41839">
        <ele>199.61</ele>
        <time>2014-03-23T09:35:53Z</time>
      </trkpt>
      <trkpt lat="44.41001" lon="4.41842">
        <ele>200.09</ele>
        <time>2014-03-23T09:35:54Z</time>
      </trkpt>
      <trkpt lat="44.41002" lon="4.41844">
        <ele>200.09</ele>
        <time>2014-03-23T09:35:55Z</time>
      </trkpt>
      <trkpt lat="44.41001" lon="4.41847">
        <ele>199.61</ele>
        <time>2014-03-23T09:35:56Z</time>
      </trkpt>
      <trkpt lat="44.41001" lon="4.4185">
        <ele>199.61</ele>
        <time>2014-03-23T09:35:57Z</time>
      </trkpt>
      <trkpt lat="44.40992" lon="4.41874">
        <ele>200.57</ele>
        <time>2014-03-23T09:36:05Z</time>
      </trkpt>
      <trkpt lat="44.4099" lon="4.41876">
        <ele>200.57</ele>
        <time>2014-03-23T09:36:06Z</time>
      </trkpt>
      <trkpt lat="44.40987" lon="4.41876">
        <ele>200.57</ele>
        <time>2014-03-23T09:36:07Z</time>
      </trkpt>
      <trkpt lat="44.40946" lon="4.4188">
        <ele>203.46</ele>
        <time>2014-03-23T09:36:23Z</time>
      </trkpt>
      <trkpt lat="44.40943" lon="4.4188">
        <ele>203.46</ele>
        <time>2014-03-23T09:36:24Z</time>
      </trkpt>
      <trkpt lat="44.4094" lon="4.4188">
        <ele>203.94</ele>
        <time>2014-03-23T09:36:25Z</time>
      </trkpt>
      <trkpt lat="44.40906" lon="4.41915">
        <ele>206.82</ele>
        <time>2014-03-23T09:36:41Z</time>
      </trkpt>
      <trkpt lat="44.40872" lon="4.41962">
        <ele>208.74</ele>
        <time>2014-03-23T09:36:59Z</time>
      </trkpt>
      <trkpt lat="44.40841" lon="4.41993">
        <ele>211.15</ele>
        <time>2014-03-23T09:37:14Z</time>
      </trkpt>
      <trkpt lat="44.40802" lon="4.42024">
        <ele>214.51</ele>
        <time>2014-03-23T09:37:32Z</time>
      </trkpt>
      <trkpt lat="44.40771" lon="4.42052">
        <ele>217.4</ele>
        <time>2014-03-23T09:37:47Z</time>
      </trkpt>
      <trkpt lat="44.40768" lon="4.42057">
        <ele>218.36</ele>
        <time>2014-03-23T09:37:49Z</time>
      </trkpt>
      <trkpt lat="44.40764" lon="4.4207">
        <ele>220.28</ele>
        <time>2014-03-23T09:37:53Z</time>
      </trkpt>
      <trkpt lat="44.40762" lon="4.4208">
        <ele>218.36</ele>
        <time>2014-03-23T09:37:56Z</time>
      </trkpt>
      <trkpt lat="44.40776" lon="4.4212">
        <ele>220.28</ele>
        <time>2014-03-23T09:38:09Z</time>
      </trkpt>
      <trkpt lat="44.40806" lon="4.42153">
        <ele>222.68</ele>
        <time>2014-03-23T09:38:25Z</time>
      </trkpt>
      <trkpt lat="44.40835" lon="4.42185">
        <ele>225.09</ele>
        <time>2014-03-23T09:38:40Z</time>
      </trkpt>
      <trkpt lat="44.40863" lon="4.42219">
        <ele>227.49</ele>
        <time>2014-03-23T09:38:55Z</time>
      </trkpt>
      <trkpt lat="44.40864" lon="4.42257">
        <ele>229.41</ele>
        <time>2014-03-23T09:39:07Z</time>
      </trkpt>
      <trkpt lat="44.40844" lon="4.4227">
        <ele>231.33</ele>
        <time>2014-03-23T09:39:17Z</time>
      </trkpt>
      <trkpt lat="44.40794" lon="4.42259">
        <ele>234.7</ele>
        <time>2014-03-23T09:39:34Z</time>
      </trkpt>
      <trkpt lat="44.40741" lon="4.42251">
        <ele>237.1</ele>
        <time>2014-03-23T09:39:52Z</time>
      </trkpt>
      <trkpt lat="44.40705" lon="4.42236">
        <ele>239.02</ele>
        <time>2014-03-23T09:40:05Z</time>
      </trkpt>
      <trkpt lat="44.40658" lon="4.42215">
        <ele>240.47</ele>
        <time>2014-03-23T09:40:19Z</time>
      </trkpt>
      <trkpt lat="44.40654" lon="4.42216">
        <ele>240.95</ele>
        <time>2014-03-23T09:40:20Z</time>
      </trkpt>
      <trkpt lat="44.4065" lon="4.42218">
        <ele>240.95</ele>
        <time>2014-03-23T09:40:21Z</time>
      </trkpt>
      <trkpt lat="44.40647" lon="4.42221">
        <ele>240.95</ele>
        <time>2014-03-23T09:40:22Z</time>
      </trkpt>
      <trkpt lat="44.40644" lon="4.42224">
        <ele>240.95</ele>
        <time>2014-03-23T09:40:23Z</time>
      </trkpt>
      <trkpt lat="44.40641" lon="4.42228">
        <ele>240.95</ele>
        <time>2014-03-23T09:40:24Z</time>
      </trkpt>
      <trkpt lat="44.40638" lon="4.42232">
        <ele>240.95</ele>
        <time>2014-03-23T09:40:25Z</time>
      </trkpt>
      <trkpt lat="44.40636" lon="4.42238">
        <ele>240.95</ele>
        <time>2014-03-23T09:40:26Z</time>
      </trkpt>
      <trkpt lat="44.40634" lon="4.42243">
        <ele>241.43</ele>
        <time>2014-03-23T09:40:27Z</time>
      </trkpt>
      <trkpt lat="44.40633" lon="4.42249">
        <ele>241.43</ele>
        <time>2014-03-23T09:40:28Z</time>
      </trkpt>
      <trkpt lat="44.40632" lon="4.42255">
        <ele>240.95</ele>
        <time>2014-03-23T09:40:29Z</time>
      </trkpt>
      <trkpt lat="44.40631" lon="4.42261">
        <ele>241.43</ele>
        <time>2014-03-23T09:40:30Z</time>
      </trkpt>
      <trkpt lat="44.4063" lon="4.42267">
        <ele>241.43</ele>
        <time>2014-03-23T09:40:31Z</time>
      </trkpt>
      <trkpt lat="44.40623" lon="4.4236">
        <ele>242.87</ele>
        <time>2014-03-23T09:40:48Z</time>
      </trkpt>
      <trkpt lat="44.40598" lon="4.42443">
        <ele>245.27</ele>
        <time>2014-03-23T09:41:05Z</time>
      </trkpt>
      <trkpt lat="44.4057" lon="4.42516">
        <ele>247.68</ele>
        <time>2014-03-23T09:41:21Z</time>
      </trkpt>
      <trkpt lat="44.40539" lon="4.4262">
        <ele>250.08</ele>
        <time>2014-03-23T09:41:43Z</time>
      </trkpt>
      <trkpt lat="44.40492" lon="4.42647">
        <ele>252</ele>
        <time>2014-03-23T09:41:58Z</time>
      </trkpt>
      <trkpt lat="44.40439" lon="4.42664">
        <ele>254.89</ele>
        <time>2014-03-23T09:42:14Z</time>
      </trkpt>
      <trkpt lat="44.404" lon="4.42704">
        <ele>256.81</ele>
        <time>2014-03-23T09:42:29Z</time>
      </trkpt>
      <trkpt lat="44.40378" lon="4.42767">
        <ele>258.73</ele>
        <time>2014-03-23T09:42:44Z</time>
      </trkpt>
      <trkpt lat="44.40379" lon="4.42842">
        <ele>260.65</ele>
        <time>2014-03-23T09:42:59Z</time>
      </trkpt>
      <trkpt lat="44.40409" lon="4.42926">
        <ele>262.1</ele>
        <time>2014-03-23T09:43:18Z</time>
      </trkpt>
      <trkpt lat="44.40437" lon="4.43004">
        <ele>264.98</ele>
        <time>2014-03-23T09:43:36Z</time>
      </trkpt>
      <trkpt lat="44.40482" lon="4.43083">
        <ele>267.38</ele>
        <time>2014-03-23T09:43:56Z</time>
      </trkpt>
      <trkpt lat="44.40539" lon="4.43146">
        <ele>268.35</ele>
        <time>2014-03-23T09:44:14Z</time>
      </trkpt>
      <trkpt lat="44.40567" lon="4.43202">
        <ele>268.83</ele>
        <time>2014-03-23T09:44:27Z</time>
      </trkpt>
      <trkpt lat="44.40571" lon="4.43204">
        <ele>268.83</ele>
        <time>2014-03-23T09:44:28Z</time>
      </trkpt>
      <trkpt lat="44.40575" lon="4.43205">
        <ele>269.31</ele>
        <time>2014-03-23T09:44:29Z</time>
      </trkpt>
      <trkpt lat="44.40579" lon="4.43205">
        <ele>269.31</ele>
        <time>2014-03-23T09:44:30Z</time>
      </trkpt>
      <trkpt lat="44.40582" lon="4.43205">
        <ele>269.79</ele>
        <time>2014-03-23T09:44:31Z</time>
      </trkpt>
      <trkpt lat="44.40626" lon="4.43239">
        <ele>271.71</ele>
        <time>2014-03-23T09:44:45Z</time>
      </trkpt>
      <trkpt lat="44.40677" lon="4.4331">
        <ele>274.11</ele>
        <time>2014-03-23T09:45:05Z</time>
      </trkpt>
      <trkpt lat="44.40689" lon="4.43371">
        <ele>277.96</ele>
        <time>2014-03-23T09:45:18Z</time>
      </trkpt>
      <trkpt lat="44.40674" lon="4.4345">
        <ele>277.96</ele>
        <time>2014-03-23T09:45:34Z</time>
      </trkpt>
      <trkpt lat="44.40666" lon="4.4352">
        <ele>281.32</ele>
        <time>2014-03-23T09:45:49Z</time>
      </trkpt>
      <trkpt lat="44.40687" lon="4.4358">
        <ele>284.21</ele>
        <time>2014-03-23T09:46:05Z</time>
      </trkpt>
      <trkpt lat="44.40696" lon="4.43641">
        <ele>286.61</ele>
        <time>2014-03-23T09:46:21Z</time>
      </trkpt>
      <trkpt lat="44.40703" lon="4.43701">
        <ele>289.49</ele>
        <time>2014-03-23T09:46:37Z</time>
      </trkpt>
      <trkpt lat="44.4071" lon="4.43767">
        <ele>292.38</ele>
        <time>2014-03-23T09:46:55Z</time>
      </trkpt>
      <trkpt lat="44.40714" lon="4.43819">
        <ele>295.26</ele>
        <time>2014-03-23T09:47:09Z</time>
      </trkpt>
      <trkpt lat="44.40709" lon="4.4387">
        <ele>298.15</ele>
        <time>2014-03-23T09:47:23Z</time>
      </trkpt>
      <trkpt lat="44.407" lon="4.43929">
        <ele>301.03</ele>
        <time>2014-03-23T09:47:40Z</time>
      </trkpt>
      <trkpt lat="44.40691" lon="4.43984">
        <ele>303.91</ele>
        <time>2014-03-23T09:47:57Z</time>
      </trkpt>
      <trkpt lat="44.40676" lon="4.44032">
        <ele>307.28</ele>
        <time>2014-03-23T09:48:13Z</time>
      </trkpt>
      <trkpt lat="44.40662" lon="4.44076">
        <ele>310.16</ele>
        <time>2014-03-23T09:48:28Z</time>
      </trkpt>
      <trkpt lat="44.40654" lon="4.44127">
        <ele>313.05</ele>
        <time>2014-03-23T09:48:44Z</time>
      </trkpt>
      <trkpt lat="44.40647" lon="4.44177">
        <ele>315.45</ele>
        <time>2014-03-23T09:49:00Z</time>
      </trkpt>
      <trkpt lat="44.40634" lon="4.44217">
        <ele>317.85</ele>
        <time>2014-03-23T09:49:14Z</time>
      </trkpt>
      <trkpt lat="44.40616" lon="4.44263">
        <ele>319.78</ele>
        <time>2014-03-23T09:49:30Z</time>
      </trkpt>
      <trkpt lat="44.40609" lon="4.44298">
        <ele>323.14</ele>
        <time>2014-03-23T09:49:41Z</time>
      </trkpt>
      <trkpt lat="44.40614" lon="4.4435">
        <ele>325.06</ele>
        <time>2014-03-23T09:49:57Z</time>
      </trkpt>
      <trkpt lat="44.40616" lon="4.44363">
        <ele>326.02</ele>
        <time>2014-03-23T09:50:01Z</time>
      </trkpt>
      <trkpt lat="44.40618" lon="4.44365">
        <ele>326.02</ele>
        <time>2014-03-23T09:50:02Z</time>
      </trkpt>
      <trkpt lat="44.40619" lon="4.44368">
        <ele>326.02</ele>
        <time>2014-03-23T09:50:03Z</time>
      </trkpt>
      <trkpt lat="44.40619" lon="4.4437">
        <ele>326.02</ele>
        <time>2014-03-23T09:50:04Z</time>
      </trkpt>
      <trkpt lat="44.40618" lon="4.44373">
        <ele>326.5</ele>
        <time>2014-03-23T09:50:05Z</time>
      </trkpt>
      <trkpt lat="44.40624" lon="4.44414">
        <ele>327.95</ele>
        <time>2014-03-23T09:50:17Z</time>
      </trkpt>
      <trkpt lat="44.4063" lon="4.44452">
        <ele>330.83</ele>
        <time>2014-03-23T09:50:27Z</time>
      </trkpt>
      <trkpt lat="44.40633" lon="4.44522">
        <ele>333.71</ele>
        <time>2014-03-23T09:50:45Z</time>
      </trkpt>
      <trkpt lat="44.40627" lon="4.44581">
        <ele>337.56</ele>
        <time>2014-03-23T09:51:00Z</time>
      </trkpt>
      <trkpt lat="44.40622" lon="4.44642">
        <ele>339.96</ele>
        <time>2014-03-23T09:51:17Z</time>
      </trkpt>
      <trkpt lat="44.40617" lon="4.44693">
        <ele>341.89</ele>
        <time>2014-03-23T09:51:31Z</time>
      </trkpt>
      <trkpt lat="44.40607" lon="4.4475">
        <ele>345.73</ele>
        <time>2014-03-23T09:51:47Z</time>
      </trkpt>
      <trkpt lat="44.40594" lon="4.44805">
        <ele>347.65</ele>
        <time>2014-03-23T09:52:03Z</time>
      </trkpt>
      <trkpt lat="44.40585" lon="4.44857">
        <ele>350.54</ele>
        <time>2014-03-23T09:52:18Z</time>
      </trkpt>
      <trkpt lat="44.40585" lon="4.44909">
        <ele>353.42</ele>
        <time>2014-03-23T09:52:33Z</time>
      </trkpt>
      <trkpt lat="44.40589" lon="4.44969">
        <ele>356.31</ele>
        <time>2014-03-23T09:52:49Z</time>
      </trkpt>
      <trkpt lat="44.40591" lon="4.45026">
        <ele>358.23</ele>
        <time>2014-03-23T09:53:05Z</time>
      </trkpt>
      <trkpt lat="44.40587" lon="4.45085">
        <ele>360.63</ele>
        <time>2014-03-23T09:53:21Z</time>
      </trkpt>
      <trkpt lat="44.40575" lon="4.45149">
        <ele>363.52</ele>
        <time>2014-03-23T09:53:39Z</time>
      </trkpt>
      <trkpt lat="44.40571" lon="4.45215">
        <ele>366.88</ele>
        <time>2014-03-23T09:53:56Z</time>
      </trkpt>
      <trkpt lat="44.40579" lon="4.45276">
        <ele>369.76</ele>
        <time>2014-03-23T09:54:12Z</time>
      </trkpt>
      <trkpt lat="44.40597" lon="4.45333">
        <ele>372.65</ele>
        <time>2014-03-23T09:54:29Z</time>
      </trkpt>
      <trkpt lat="44.40629" lon="4.45399">
        <ele>376.01</ele>
        <time>2014-03-23T09:54:49Z</time>
      </trkpt>
      <trkpt lat="44.40652" lon="4.45447">
        <ele>378.42</ele>
        <time>2014-03-23T09:55:03Z</time>
      </trkpt>
      <trkpt lat="44.4065" lon="4.45497">
        <ele>380.34</ele>
        <time>2014-03-23T09:55:16Z</time>
      </trkpt>
      <trkpt lat="44.40644" lon="4.45505">
        <ele>380.82</ele>
        <time>2014-03-23T09:55:19Z</time>
      </trkpt>
      <trkpt lat="44.40641" lon="4.45505">
        <ele>380.82</ele>
        <time>2014-03-23T09:55:20Z</time>
      </trkpt>
      <trkpt lat="44.40638" lon="4.45506">
        <ele>380.82</ele>
        <time>2014-03-23T09:55:21Z</time>
      </trkpt>
      <trkpt lat="44.40635" lon="4.45506">
        <ele>381.3</ele>
        <time>2014-03-23T09:55:22Z</time>
      </trkpt>
      <trkpt lat="44.40632" lon="4.45505">
        <ele>380.82</ele>
        <time>2014-03-23T09:55:23Z</time>
      </trkpt>
      <trkpt lat="44.4063" lon="4.45504">
        <ele>381.3</ele>
        <time>2014-03-23T09:55:24Z</time>
      </trkpt>
      <trkpt lat="44.40627" lon="4.45503">
        <ele>381.78</ele>
        <time>2014-03-23T09:55:25Z</time>
      </trkpt>
      <trkpt lat="44.40625" lon="4.45502">
        <ele>381.78</ele>
        <time>2014-03-23T09:55:26Z</time>
      </trkpt>
      <trkpt lat="44.40623" lon="4.455">
        <ele>382.26</ele>
        <time>2014-03-23T09:55:27Z</time>
      </trkpt>
      <trkpt lat="44.40621" lon="4.45498">
        <ele>381.78</ele>
        <time>2014-03-23T09:55:28Z</time>
      </trkpt>
      <trkpt lat="44.40619" lon="4.45497">
        <ele>381.78</ele>
        <time>2014-03-23T09:55:29Z</time>
      </trkpt>
      <trkpt lat="44.40618" lon="4.45495">
        <ele>382.26</ele>
        <time>2014-03-23T09:55:30Z</time>
      </trkpt>
      <trkpt lat="44.40616" lon="4.45492">
        <ele>382.26</ele>
        <time>2014-03-23T09:55:31Z</time>
      </trkpt>
      <trkpt lat="44.40615" lon="4.4549">
        <ele>382.74</ele>
        <time>2014-03-23T09:55:32Z</time>
      </trkpt>
      <trkpt lat="44.40613" lon="4.45487">
        <ele>382.74</ele>
        <time>2014-03-23T09:55:33Z</time>
      </trkpt>
      <trkpt lat="44.40611" lon="4.45485">
        <ele>382.26</ele>
        <time>2014-03-23T09:55:34Z</time>
      </trkpt>
      <trkpt lat="44.40589" lon="4.45452">
        <ele>384.66</ele>
        <time>2014-03-23T09:55:47Z</time>
      </trkpt>
      <trkpt lat="44.40559" lon="4.45408">
        <ele>387.07</ele>
        <time>2014-03-23T09:56:04Z</time>
      </trkpt>
      <trkpt lat="44.40532" lon="4.45367">
        <ele>388.99</ele>
        <time>2014-03-23T09:56:20Z</time>
      </trkpt>
      <trkpt lat="44.40508" lon="4.45319">
        <ele>391.87</ele>
        <time>2014-03-23T09:56:36Z</time>
      </trkpt>
      <trkpt lat="44.40483" lon="4.45277">
        <ele>395.24</ele>
        <time>2014-03-23T09:56:52Z</time>
      </trkpt>
      <trkpt lat="44.40461" lon="4.45263">
        <ele>398.12</ele>
        <time>2014-03-23T09:57:03Z</time>
      </trkpt>
      <trkpt lat="44.40424" lon="4.45257">
        <ele>400.53</ele>
        <time>2014-03-23T09:57:20Z</time>
      </trkpt>
      <trkpt lat="44.40394" lon="4.4526">
        <ele>402.93</ele>
        <time>2014-03-23T09:57:33Z</time>
      </trkpt>
      <trkpt lat="44.40357" lon="4.45255">
        <ele>404.85</ele>
        <time>2014-03-23T09:57:48Z</time>
      </trkpt>
      <trkpt lat="44.40326" lon="4.4523">
        <ele>408.22</ele>
        <time>2014-03-23T09:58:02Z</time>
      </trkpt>
      <trkpt lat="44.40295" lon="4.45188">
        <ele>411.1</ele>
        <time>2014-03-23T09:58:19Z</time>
      </trkpt>
      <trkpt lat="44.40269" lon="4.45153">
        <ele>414.95</ele>
        <time>2014-03-23T09:58:34Z</time>
      </trkpt>
      <trkpt lat="44.40235" lon="4.4512">
        <ele>417.35</ele>
        <time>2014-03-23T09:58:52Z</time>
      </trkpt>
      <trkpt lat="44.40198" lon="4.45134">
        <ele>418.79</ele>
        <time>2014-03-23T09:59:07Z</time>
      </trkpt>
      <trkpt lat="44.40185" lon="4.45162">
        <ele>418.79</ele>
        <time>2014-03-23T09:59:14Z</time>
      </trkpt>
      <trkpt lat="44.40184" lon="4.45185">
        <ele>418.79</ele>
        <time>2014-03-23T09:59:18Z</time>
      </trkpt>
      <trkpt lat="44.40179" lon="4.45259">
        <ele>417.83</ele>
        <time>2014-03-23T09:59:30Z</time>
      </trkpt>
      <trkpt lat="44.40178" lon="4.45266">
        <ele>417.83</ele>
        <time>2014-03-23T09:59:31Z</time>
      </trkpt>
      <trkpt lat="44.40176" lon="4.45289">
        <ele>417.83</ele>
        <time>2014-03-23T09:59:35Z</time>
      </trkpt>
      <trkpt lat="44.40175" lon="4.45313">
        <ele>418.31</ele>
        <time>2014-03-23T09:59:39Z</time>
      </trkpt>
      <trkpt lat="44.40168" lon="4.4542">
        <ele>418.79</ele>
        <time>2014-03-23T09:59:56Z</time>
      </trkpt>
      <trkpt lat="44.40162" lon="4.45514">
        <ele>419.27</ele>
        <time>2014-03-23T10:00:10Z</time>
      </trkpt>
      <trkpt lat="44.40186" lon="4.45636">
        <ele>419.27</ele>
        <time>2014-03-23T10:00:27Z</time>
      </trkpt>
      <trkpt lat="44.4023" lon="4.45783">
        <ele>419.27</ele>
        <time>2014-03-23T10:00:46Z</time>
      </trkpt>
      <trkpt lat="44.40263" lon="4.45906">
        <ele>421.19</ele>
        <time>2014-03-23T10:01:05Z</time>
      </trkpt>
      <trkpt lat="44.40295" lon="4.46013">
        <ele>423.12</ele>
        <time>2014-03-23T10:01:24Z</time>
      </trkpt>
      <trkpt lat="44.40318" lon="4.46078">
        <ele>425.04</ele>
        <time>2014-03-23T10:01:38Z</time>
      </trkpt>
      <trkpt lat="44.40341" lon="4.46145">
        <ele>426.48</ele>
        <time>2014-03-23T10:01:53Z</time>
      </trkpt>
      <trkpt lat="44.40359" lon="4.46201">
        <ele>428.4</ele>
        <time>2014-03-23T10:02:05Z</time>
      </trkpt>
      <trkpt lat="44.40374" lon="4.46259">
        <ele>429.37</ele>
        <time>2014-03-23T10:02:17Z</time>
      </trkpt>
      <trkpt lat="44.40385" lon="4.46305">
        <ele>430.81</ele>
        <time>2014-03-23T10:02:27Z</time>
      </trkpt>
      <trkpt lat="44.40391" lon="4.46367">
        <ele>431.77</ele>
        <time>2014-03-23T10:02:39Z</time>
      </trkpt>
      <trkpt lat="44.40377" lon="4.46423">
        <ele>433.21</ele>
        <time>2014-03-23T10:02:49Z</time>
      </trkpt>
      <trkpt lat="44.40374" lon="4.46429">
        <ele>432.73</ele>
        <time>2014-03-23T10:02:50Z</time>
      </trkpt>
      <trkpt lat="44.40369" lon="4.46442">
        <ele>432.73</ele>
        <time>2014-03-23T10:02:52Z</time>
      </trkpt>
      <trkpt lat="44.40367" lon="4.46449">
        <ele>432.73</ele>
        <time>2014-03-23T10:02:53Z</time>
      </trkpt>
      <trkpt lat="44.40337" lon="4.46532">
        <ele>433.69</ele>
        <time>2014-03-23T10:03:07Z</time>
      </trkpt>
      <trkpt lat="44.40327" lon="4.46568">
        <ele>432.73</ele>
        <time>2014-03-23T10:03:13Z</time>
      </trkpt>
      <trkpt lat="44.40318" lon="4.46586">
        <ele>433.21</ele>
        <time>2014-03-23T10:03:16Z</time>
      </trkpt>
      <trkpt lat="44.40317" lon="4.46593">
        <ele>433.21</ele>
        <time>2014-03-23T10:03:17Z</time>
      </trkpt>
      <trkpt lat="44.40316" lon="4.466">
        <ele>432.25</ele>
        <time>2014-03-23T10:03:18Z</time>
      </trkpt>
      <trkpt lat="44.40315" lon="4.46615">
        <ele>431.77</ele>
        <time>2014-03-23T10:03:20Z</time>
      </trkpt>
      <trkpt lat="44.40313" lon="4.46622">
        <ele>431.77</ele>
        <time>2014-03-23T10:03:21Z</time>
      </trkpt>
      <trkpt lat="44.40313" lon="4.46626">
        <ele>431.77</ele>
        <time>2014-03-23T10:03:22Z</time>
      </trkpt>
      <trkpt lat="44.40313" lon="4.46627">
        <ele>432.25</ele>
        <time>2014-03-23T10:03:29Z</time>
      </trkpt>
      <trkpt lat="44.40312" lon="4.46628">
        <ele>431.77</ele>
        <time>2014-03-23T10:03:45Z</time>
      </trkpt>
      <trkpt lat="44.40309" lon="4.46628">
        <ele>431.77</ele>
        <time>2014-03-23T10:03:47Z</time>
      </trkpt>
      <trkpt lat="44.40307" lon="4.46629">
        <ele>431.29</ele>
        <time>2014-03-23T10:04:00Z</time>
      </trkpt>
      <trkpt lat="44.40307" lon="4.46629">
        <ele>430.81</ele>
        <time>2014-03-23T10:04:42Z</time>
      </trkpt>
      <trkpt lat="44.40308" lon="4.46629">
        <ele>431.29</ele>
        <time>2014-03-23T10:05:11Z</time>
      </trkpt>
      <trkpt lat="44.40309" lon="4.46628">
        <ele>431.77</ele>
        <time>2014-03-23T10:05:20Z</time>
      </trkpt>
      <trkpt lat="44.4031" lon="4.4663">
        <ele>431.77</ele>
        <time>2014-03-23T10:05:23Z</time>
      </trkpt>
      <trkpt lat="44.40315" lon="4.46646">
        <ele>431.29</ele>
        <time>2014-03-23T10:05:28Z</time>
      </trkpt>
      <trkpt lat="44.40317" lon="4.46652">
        <ele>430.81</ele>
        <time>2014-03-23T10:05:29Z</time>
      </trkpt>
      <trkpt lat="44.40319" lon="4.46658">
        <ele>429.85</ele>
        <time>2014-03-23T10:05:30Z</time>
      </trkpt>
      <trkpt lat="44.40322" lon="4.46665">
        <ele>429.37</ele>
        <time>2014-03-23T10:05:31Z</time>
      </trkpt>
      <trkpt lat="44.40325" lon="4.46673">
        <ele>428.89</ele>
        <time>2014-03-23T10:05:32Z</time>
      </trkpt>
      <trkpt lat="44.4033" lon="4.4668">
        <ele>428.4</ele>
        <time>2014-03-23T10:05:33Z</time>
      </trkpt>
      <trkpt lat="44.40334" lon="4.46686">
        <ele>428.4</ele>
        <time>2014-03-23T10:05:34Z</time>
      </trkpt>
      <trkpt lat="44.4034" lon="4.46692">
        <ele>427.44</ele>
        <time>2014-03-23T10:05:35Z</time>
      </trkpt>
      <trkpt lat="44.40346" lon="4.46698">
        <ele>426.96</ele>
        <time>2014-03-23T10:05:36Z</time>
      </trkpt>
      <trkpt lat="44.40353" lon="4.46703">
        <ele>426</ele>
        <time>2014-03-23T10:05:37Z</time>
      </trkpt>
      <trkpt lat="44.4036" lon="4.46707">
        <ele>425.04</ele>
        <time>2014-03-23T10:05:38Z</time>
      </trkpt>
      <trkpt lat="44.40367" lon="4.46711">
        <ele>424.56</ele>
        <time>2014-03-23T10:05:39Z</time>
      </trkpt>
      <trkpt lat="44.40381" lon="4.46719">
        <ele>423.12</ele>
        <time>2014-03-23T10:05:41Z</time>
      </trkpt>
      <trkpt lat="44.40424" lon="4.46743">
        <ele>421.19</ele>
        <time>2014-03-23T10:05:47Z</time>
      </trkpt>
      <trkpt lat="44.40439" lon="4.46752">
        <ele>419.27</ele>
        <time>2014-03-23T10:05:49Z</time>
      </trkpt>
      <trkpt lat="44.40454" lon="4.46763">
        <ele>418.31</ele>
        <time>2014-03-23T10:05:51Z</time>
      </trkpt>
      <trkpt lat="44.40461" lon="4.46772">
        <ele>418.31</ele>
        <time>2014-03-23T10:05:52Z</time>
      </trkpt>
      <trkpt lat="44.40466" lon="4.46783">
        <ele>416.87</ele>
        <time>2014-03-23T10:05:53Z</time>
      </trkpt>
      <trkpt lat="44.40468" lon="4.46796">
        <ele>415.43</ele>
        <time>2014-03-23T10:05:54Z</time>
      </trkpt>
      <trkpt lat="44.40469" lon="4.46809">
        <ele>415.43</ele>
        <time>2014-03-23T10:05:55Z</time>
      </trkpt>
      <trkpt lat="44.40466" lon="4.46823">
        <ele>415.43</ele>
        <time>2014-03-23T10:05:56Z</time>
      </trkpt>
      <trkpt lat="44.40462" lon="4.46835">
        <ele>414.95</ele>
        <time>2014-03-23T10:05:57Z</time>
      </trkpt>
      <trkpt lat="44.40456" lon="4.46845">
        <ele>414.95</ele>
        <time>2014-03-23T10:05:58Z</time>
      </trkpt>
      <trkpt lat="44.4045" lon="4.46854">
        <ele>415.43</ele>
        <time>2014-03-23T10:05:59Z</time>
      </trkpt>
      <trkpt lat="44.40441" lon="4.46859">
        <ele>415.43</ele>
        <time>2014-03-23T10:06:00Z</time>
      </trkpt>
      <trkpt lat="44.40432" lon="4.4686">
        <ele>415.91</ele>
        <time>2014-03-23T10:06:01Z</time>
      </trkpt>
      <trkpt lat="44.40424" lon="4.46859">
        <ele>415.91</ele>
        <time>2014-03-23T10:06:02Z</time>
      </trkpt>
      <trkpt lat="44.40415" lon="4.46857">
        <ele>415.91</ele>
        <time>2014-03-23T10:06:03Z</time>
      </trkpt>
      <trkpt lat="44.40389" lon="4.46855">
        <ele>415.91</ele>
        <time>2014-03-23T10:06:06Z</time>
      </trkpt>
      <trkpt lat="44.40381" lon="4.46856">
        <ele>416.39</ele>
        <time>2014-03-23T10:06:07Z</time>
      </trkpt>
      <trkpt lat="44.40372" lon="4.46859">
        <ele>416.39</ele>
        <time>2014-03-23T10:06:08Z</time>
      </trkpt>
      <trkpt lat="44.40365" lon="4.46863">
        <ele>416.39</ele>
        <time>2014-03-23T10:06:09Z</time>
      </trkpt>
      <trkpt lat="44.40357" lon="4.46869">
        <ele>416.39</ele>
        <time>2014-03-23T10:06:10Z</time>
      </trkpt>
      <trkpt lat="44.4035" lon="4.46875">
        <ele>415.43</ele>
        <time>2014-03-23T10:06:11Z</time>
      </trkpt>
      <trkpt lat="44.40343" lon="4.46882">
        <ele>415.43</ele>
        <time>2014-03-23T10:06:12Z</time>
      </trkpt>
      <trkpt lat="44.40297" lon="4.46924">
        <ele>416.39</ele>
        <time>2014-03-23T10:06:19Z</time>
      </trkpt>
      <trkpt lat="44.40289" lon="4.46927">
        <ele>416.87</ele>
        <time>2014-03-23T10:06:20Z</time>
      </trkpt>
      <trkpt lat="44.40254" lon="4.46945">
        <ele>415.91</ele>
        <time>2014-03-23T10:06:25Z</time>
      </trkpt>
      <trkpt lat="44.40247" lon="4.46948">
        <ele>416.39</ele>
        <time>2014-03-23T10:06:26Z</time>
      </trkpt>
      <trkpt lat="44.4015" lon="4.46994">
        <ele>414.47</ele>
        <time>2014-03-23T10:06:39Z</time>
      </trkpt>
      <trkpt lat="44.40135" lon="4.47006">
        <ele>413.5</ele>
        <time>2014-03-23T10:06:41Z</time>
      </trkpt>
      <trkpt lat="44.40128" lon="4.47013">
        <ele>413.02</ele>
        <time>2014-03-23T10:06:42Z</time>
      </trkpt>
      <trkpt lat="44.4011" lon="4.47038">
        <ele>412.06</ele>
        <time>2014-03-23T10:06:45Z</time>
      </trkpt>
      <trkpt lat="44.40105" lon="4.47048">
        <ele>411.58</ele>
        <time>2014-03-23T10:06:46Z</time>
      </trkpt>
      <trkpt lat="44.40099" lon="4.47057">
        <ele>411.58</ele>
        <time>2014-03-23T10:06:47Z</time>
      </trkpt>
      <trkpt lat="44.40093" lon="4.47066">
        <ele>411.1</ele>
        <time>2014-03-23T10:06:48Z</time>
      </trkpt>
      <trkpt lat="44.40088" lon="4.47076">
        <ele>410.62</ele>
        <time>2014-03-23T10:06:49Z</time>
      </trkpt>
      <trkpt lat="44.40084" lon="4.47087">
        <ele>410.62</ele>
        <time>2014-03-23T10:06:50Z</time>
      </trkpt>
      <trkpt lat="44.4008" lon="4.47098">
        <ele>409.66</ele>
        <time>2014-03-23T10:06:51Z</time>
      </trkpt>
      <trkpt lat="44.4006" lon="4.47167">
        <ele>407.26</ele>
        <time>2014-03-23T10:06:57Z</time>
      </trkpt>
      <trkpt lat="44.40056" lon="4.47178">
        <ele>406.77</ele>
        <time>2014-03-23T10:06:58Z</time>
      </trkpt>
      <trkpt lat="44.4005" lon="4.47187">
        <ele>406.77</ele>
        <time>2014-03-23T10:06:59Z</time>
      </trkpt>
      <trkpt lat="44.40044" lon="4.47196">
        <ele>406.77</ele>
        <time>2014-03-23T10:07:00Z</time>
      </trkpt>
      <trkpt lat="44.40036" lon="4.47203">
        <ele>406.77</ele>
        <time>2014-03-23T10:07:01Z</time>
      </trkpt>
      <trkpt lat="44.40028" lon="4.4721">
        <ele>405.81</ele>
        <time>2014-03-23T10:07:02Z</time>
      </trkpt>
      <trkpt lat="44.4002" lon="4.47217">
        <ele>405.81</ele>
        <time>2014-03-23T10:07:03Z</time>
      </trkpt>
      <trkpt lat="44.40003" lon="4.4723">
        <ele>404.85</ele>
        <time>2014-03-23T10:07:05Z</time>
      </trkpt>
      <trkpt lat="44.39953" lon="4.47272">
        <ele>401.97</ele>
        <time>2014-03-23T10:07:11Z</time>
      </trkpt>
      <trkpt lat="44.39945" lon="4.47281">
        <ele>401.49</ele>
        <time>2014-03-23T10:07:12Z</time>
      </trkpt>
      <trkpt lat="44.39939" lon="4.47292">
        <ele>401.01</ele>
        <time>2014-03-23T10:07:13Z</time>
      </trkpt>
      <trkpt lat="44.39933" lon="4.47304">
        <ele>400.53</ele>
        <time>2014-03-23T10:07:14Z</time>
      </trkpt>
      <trkpt lat="44.39929" lon="4.47317">
        <ele>400.53</ele>
        <time>2014-03-23T10:07:15Z</time>
      </trkpt>
      <trkpt lat="44.39925" lon="4.47331">
        <ele>400.05</ele>
        <time>2014-03-23T10:07:16Z</time>
      </trkpt>
      <trkpt lat="44.39923" lon="4.47346">
        <ele>399.08</ele>
        <time>2014-03-23T10:07:17Z</time>
      </trkpt>
      <trkpt lat="44.39922" lon="4.47362">
        <ele>398.6</ele>
        <time>2014-03-23T10:07:18Z</time>
      </trkpt>
      <trkpt lat="44.39922" lon="4.47377">
        <ele>398.12</ele>
        <time>2014-03-23T10:07:19Z</time>
      </trkpt>
      <trkpt lat="44.39924" lon="4.47426">
        <ele>397.16</ele>
        <time>2014-03-23T10:07:22Z</time>
      </trkpt>
      <trkpt lat="44.39927" lon="4.47442">
        <ele>396.2</ele>
        <time>2014-03-23T10:07:23Z</time>
      </trkpt>
      <trkpt lat="44.39931" lon="4.47457">
        <ele>395.72</ele>
        <time>2014-03-23T10:07:24Z</time>
      </trkpt>
      <trkpt lat="44.39951" lon="4.47517">
        <ele>391.87</ele>
        <time>2014-03-23T10:07:28Z</time>
      </trkpt>
      <trkpt lat="44.39957" lon="4.47531">
        <ele>391.39</ele>
        <time>2014-03-23T10:07:29Z</time>
      </trkpt>
      <trkpt lat="44.39964" lon="4.47544">
        <ele>390.91</ele>
        <time>2014-03-23T10:07:30Z</time>
      </trkpt>
      <trkpt lat="44.39973" lon="4.47554">
        <ele>389.47</ele>
        <time>2014-03-23T10:07:31Z</time>
      </trkpt>
      <trkpt lat="44.39984" lon="4.47561">
        <ele>387.55</ele>
        <time>2014-03-23T10:07:32Z</time>
      </trkpt>
      <trkpt lat="44.39995" lon="4.47566">
        <ele>386.59</ele>
        <time>2014-03-23T10:07:33Z</time>
      </trkpt>
      <trkpt lat="44.40005" lon="4.47568">
        <ele>386.11</ele>
        <time>2014-03-23T10:07:34Z</time>
      </trkpt>
      <trkpt lat="44.40016" lon="4.4757">
        <ele>384.66</ele>
        <time>2014-03-23T10:07:35Z</time>
      </trkpt>
      <trkpt lat="44.40026" lon="4.47572">
        <ele>385.15</ele>
        <time>2014-03-23T10:07:36Z</time>
      </trkpt>
      <trkpt lat="44.40045" lon="4.47578">
        <ele>385.63</ele>
        <time>2014-03-23T10:07:38Z</time>
      </trkpt>
      <trkpt lat="44.40055" lon="4.47583">
        <ele>385.15</ele>
        <time>2014-03-23T10:07:39Z</time>
      </trkpt>
      <trkpt lat="44.40063" lon="4.47591">
        <ele>384.66</ele>
        <time>2014-03-23T10:07:40Z</time>
      </trkpt>
      <trkpt lat="44.40071" lon="4.476">
        <ele>384.66</ele>
        <time>2014-03-23T10:07:41Z</time>
      </trkpt>
      <trkpt lat="44.40079" lon="4.4761">
        <ele>384.66</ele>
        <time>2014-03-23T10:07:42Z</time>
      </trkpt>
      <trkpt lat="44.40102" lon="4.47641">
        <ele>382.74</ele>
        <time>2014-03-23T10:07:45Z</time>
      </trkpt>
      <trkpt lat="44.40107" lon="4.47654">
        <ele>382.26</ele>
        <time>2014-03-23T10:07:46Z</time>
      </trkpt>
      <trkpt lat="44.4011" lon="4.47668">
        <ele>381.3</ele>
        <time>2014-03-23T10:07:47Z</time>
      </trkpt>
      <trkpt lat="44.40111" lon="4.47683">
        <ele>380.82</ele>
        <time>2014-03-23T10:07:48Z</time>
      </trkpt>
      <trkpt lat="44.40111" lon="4.47698">
        <ele>380.82</ele>
        <time>2014-03-23T10:07:49Z</time>
      </trkpt>
      <trkpt lat="44.40114" lon="4.47712">
        <ele>379.86</ele>
        <time>2014-03-23T10:07:50Z</time>
      </trkpt>
      <trkpt lat="44.40118" lon="4.47726">
        <ele>379.38</ele>
        <time>2014-03-23T10:07:51Z</time>
      </trkpt>
      <trkpt lat="44.40123" lon="4.47739">
        <ele>377.45</ele>
        <time>2014-03-23T10:07:52Z</time>
      </trkpt>
      <trkpt lat="44.4013" lon="4.47751">
        <ele>377.45</ele>
        <time>2014-03-23T10:07:53Z</time>
      </trkpt>
      <trkpt lat="44.40136" lon="4.47763">
        <ele>376.01</ele>
        <time>2014-03-23T10:07:54Z</time>
      </trkpt>
      <trkpt lat="44.40142" lon="4.47775">
        <ele>376.01</ele>
        <time>2014-03-23T10:07:55Z</time>
      </trkpt>
      <trkpt lat="44.40159" lon="4.4781">
        <ele>374.09</ele>
        <time>2014-03-23T10:07:58Z</time>
      </trkpt>
      <trkpt lat="44.40163" lon="4.47822">
        <ele>373.61</ele>
        <time>2014-03-23T10:07:59Z</time>
      </trkpt>
      <trkpt lat="44.40167" lon="4.47835">
        <ele>374.09</ele>
        <time>2014-03-23T10:08:00Z</time>
      </trkpt>
      <trkpt lat="44.4019" lon="4.47925">
        <ele>370.73</ele>
        <time>2014-03-23T10:08:07Z</time>
      </trkpt>
      <trkpt lat="44.40201" lon="4.47988">
        <ele>368.32</ele>
        <time>2014-03-23T10:08:12Z</time>
      </trkpt>
      <trkpt lat="44.40209" lon="4.48051">
        <ele>364.96</ele>
        <time>2014-03-23T10:08:17Z</time>
      </trkpt>
      <trkpt lat="44.40219" lon="4.48146">
        <ele>361.59</ele>
        <time>2014-03-23T10:08:25Z</time>
      </trkpt>
      <trkpt lat="44.40219" lon="4.48169">
        <ele>360.63</ele>
        <time>2014-03-23T10:08:27Z</time>
      </trkpt>
      <trkpt lat="44.40215" lon="4.48179">
        <ele>360.63</ele>
        <time>2014-03-23T10:08:28Z</time>
      </trkpt>
      <trkpt lat="44.4021" lon="4.48188">
        <ele>360.15</ele>
        <time>2014-03-23T10:08:29Z</time>
      </trkpt>
      <trkpt lat="44.40202" lon="4.48193">
        <ele>360.15</ele>
        <time>2014-03-23T10:08:30Z</time>
      </trkpt>
      <trkpt lat="44.40195" lon="4.48196">
        <ele>360.15</ele>
        <time>2014-03-23T10:08:31Z</time>
      </trkpt>
      <trkpt lat="44.40187" lon="4.48196">
        <ele>360.15</ele>
        <time>2014-03-23T10:08:32Z</time>
      </trkpt>
      <trkpt lat="44.4018" lon="4.48194">
        <ele>360.63</ele>
        <time>2014-03-23T10:08:33Z</time>
      </trkpt>
      <trkpt lat="44.40174" lon="4.4819">
        <ele>360.63</ele>
        <time>2014-03-23T10:08:34Z</time>
      </trkpt>
      <trkpt lat="44.40169" lon="4.48185">
        <ele>361.11</ele>
        <time>2014-03-23T10:08:35Z</time>
      </trkpt>
      <trkpt lat="44.40165" lon="4.48179">
        <ele>361.59</ele>
        <time>2014-03-23T10:08:36Z</time>
      </trkpt>
      <trkpt lat="44.40162" lon="4.48172">
        <ele>362.55</ele>
        <time>2014-03-23T10:08:37Z</time>
      </trkpt>
      <trkpt lat="44.40158" lon="4.48167">
        <ele>362.55</ele>
        <time>2014-03-23T10:08:38Z</time>
      </trkpt>
      <trkpt lat="44.40155" lon="4.48161">
        <ele>363.04</ele>
        <time>2014-03-23T10:08:39Z</time>
      </trkpt>
      <trkpt lat="44.40134" lon="4.48129">
        <ele>364.96</ele>
        <time>2014-03-23T10:08:46Z</time>
      </trkpt>
      <trkpt lat="44.40089" lon="4.48081">
        <ele>366.88</ele>
        <time>2014-03-23T10:09:01Z</time>
      </trkpt>
      <trkpt lat="44.40049" lon="4.48051">
        <ele>368.32</ele>
        <time>2014-03-23T10:09:14Z</time>
      </trkpt>
      <trkpt lat="44.40004" lon="4.48035">
        <ele>370.73</ele>
        <time>2014-03-23T10:09:28Z</time>
      </trkpt>
      <trkpt lat="44.3996" lon="4.48041">
        <ele>372.65</ele>
        <time>2014-03-23T10:09:42Z</time>
      </trkpt>
      <trkpt lat="44.39913" lon="4.48052">
        <ele>375.53</ele>
        <time>2014-03-23T10:09:57Z</time>
      </trkpt>
      <trkpt lat="44.39849" lon="4.48071">
        <ele>377.94</ele>
        <time>2014-03-23T10:10:17Z</time>
      </trkpt>
      <trkpt lat="44.39804" lon="4.481">
        <ele>381.3</ele>
        <time>2014-03-23T10:10:32Z</time>
      </trkpt>
      <trkpt lat="44.39763" lon="4.48164">
        <ele>382.74</ele>
        <time>2014-03-23T10:10:51Z</time>
      </trkpt>
      <trkpt lat="44.39757" lon="4.48179">
        <ele>382.74</ele>
        <time>2014-03-23T10:10:55Z</time>
      </trkpt>
      <trkpt lat="44.39757" lon="4.48183">
        <ele>382.74</ele>
        <time>2014-03-23T10:10:56Z</time>
      </trkpt>
      <trkpt lat="44.39758" lon="4.48186">
        <ele>382.74</ele>
        <time>2014-03-23T10:10:57Z</time>
      </trkpt>
      <trkpt lat="44.39761" lon="4.48186">
        <ele>382.74</ele>
        <time>2014-03-23T10:10:58Z</time>
      </trkpt>
      <trkpt lat="44.39763" lon="4.48184">
        <ele>382.74</ele>
        <time>2014-03-23T10:10:59Z</time>
      </trkpt>
      <trkpt lat="44.39763" lon="4.4818">
        <ele>382.26</ele>
        <time>2014-03-23T10:11:00Z</time>
      </trkpt>
      <trkpt lat="44.39763" lon="4.48177">
        <ele>382.26</ele>
        <time>2014-03-23T10:11:01Z</time>
      </trkpt>
      <trkpt lat="44.39761" lon="4.48175">
        <ele>382.26</ele>
        <time>2014-03-23T10:11:02Z</time>
      </trkpt>
      <trkpt lat="44.39759" lon="4.48175">
        <ele>382.26</ele>
        <time>2014-03-23T10:11:03Z</time>
      </trkpt>
      <trkpt lat="44.39757" lon="4.48177">
        <ele>382.74</ele>
        <time>2014-03-23T10:11:04Z</time>
      </trkpt>
      <trkpt lat="44.39757" lon="4.4818">
        <ele>382.74</ele>
        <time>2014-03-23T10:11:05Z</time>
      </trkpt>
      <trkpt lat="44.39757" lon="4.48183">
        <ele>382.74</ele>
        <time>2014-03-23T10:11:06Z</time>
      </trkpt>
      <trkpt lat="44.39759" lon="4.48185">
        <ele>382.74</ele>
        <time>2014-03-23T10:11:07Z</time>
      </trkpt>
      <trkpt lat="44.3976" lon="4.48186">
        <ele>382.74</ele>
        <time>2014-03-23T10:11:08Z</time>
      </trkpt>
      <trkpt lat="44.39762" lon="4.48186">
        <ele>382.26</ele>
        <time>2014-03-23T10:11:09Z</time>
      </trkpt>
      <trkpt lat="44.39764" lon="4.48183">
        <ele>382.26</ele>
        <time>2014-03-23T10:11:10Z</time>
      </trkpt>
      <trkpt lat="44.39764" lon="4.4818">
        <ele>382.26</ele>
        <time>2014-03-23T10:11:11Z</time>
      </trkpt>
      <trkpt lat="44.39763" lon="4.48177">
        <ele>382.26</ele>
        <time>2014-03-23T10:11:12Z</time>
      </trkpt>
      <trkpt lat="44.39761" lon="4.48176">
        <ele>382.26</ele>
        <time>2014-03-23T10:11:13Z</time>
      </trkpt>
      <trkpt lat="44.39759" lon="4.48176">
        <ele>382.26</ele>
        <time>2014-03-23T10:11:14Z</time>
      </trkpt>
      <trkpt lat="44.39757" lon="4.48178">
        <ele>382.26</ele>
        <time>2014-03-23T10:11:15Z</time>
      </trkpt>
      <trkpt lat="44.39757" lon="4.48181">
        <ele>382.26</ele>
        <time>2014-03-23T10:11:16Z</time>
      </trkpt>
      <trkpt lat="44.39757" lon="4.48184">
        <ele>382.26</ele>
        <time>2014-03-23T10:11:17Z</time>
      </trkpt>
      <trkpt lat="44.39758" lon="4.48186">
        <ele>382.74</ele>
        <time>2014-03-23T10:11:18Z</time>
      </trkpt>
      <trkpt lat="44.3976" lon="4.48187">
        <ele>382.26</ele>
        <time>2014-03-23T10:11:19Z</time>
      </trkpt>
      <trkpt lat="44.39761" lon="4.48187">
        <ele>382.26</ele>
        <time>2014-03-23T10:11:20Z</time>
      </trkpt>
      <trkpt lat="44.39763" lon="4.48185">
        <ele>382.26</ele>
        <time>2014-03-23T10:11:21Z</time>
      </trkpt>
      <trkpt lat="44.39764" lon="4.48182">
        <ele>381.78</ele>
        <time>2014-03-23T10:11:22Z</time>
      </trkpt>
      <trkpt lat="44.39763" lon="4.48179">
        <ele>382.26</ele>
        <time>2014-03-23T10:11:23Z</time>
      </trkpt>
      <trkpt lat="44.39762" lon="4.48177">
        <ele>381.78</ele>
        <time>2014-03-23T10:11:24Z</time>
      </trkpt>
      <trkpt lat="44.39761" lon="4.48175">
        <ele>382.26</ele>
        <time>2014-03-23T10:11:25Z</time>
      </trkpt>
      <trkpt lat="44.39759" lon="4.48175">
        <ele>382.26</ele>
        <time>2014-03-23T10:11:26Z</time>
      </trkpt>
      <trkpt lat="44.39758" lon="4.48178">
        <ele>382.26</ele>
        <time>2014-03-23T10:11:27Z</time>
      </trkpt>
      <trkpt lat="44.39758" lon="4.4818">
        <ele>382.74</ele>
        <time>2014-03-23T10:11:28Z</time>
      </trkpt>
      <trkpt lat="44.39758" lon="4.48182">
        <ele>382.26</ele>
        <time>2014-03-23T10:11:29Z</time>
      </trkpt>
      <trkpt lat="44.39758" lon="4.48185">
        <ele>382.26</ele>
        <time>2014-03-23T10:11:30Z</time>
      </trkpt>
      <trkpt lat="44.39757" lon="4.48187">
        <ele>382.26</ele>
        <time>2014-03-23T10:11:31Z</time>
      </trkpt>
      <trkpt lat="44.39755" lon="4.48189">
        <ele>382.26</ele>
        <time>2014-03-23T10:11:32Z</time>
      </trkpt>
      <trkpt lat="44.39754" lon="4.48192">
        <ele>382.26</ele>
        <time>2014-03-23T10:11:33Z</time>
      </trkpt>
      <trkpt lat="44.39753" lon="4.48195">
        <ele>382.26</ele>
        <time>2014-03-23T10:11:34Z</time>
      </trkpt>
      <trkpt lat="44.39752" lon="4.48199">
        <ele>382.26</ele>
        <time>2014-03-23T10:11:35Z</time>
      </trkpt>
      <trkpt lat="44.39752" lon="4.48202">
        <ele>382.26</ele>
        <time>2014-03-23T10:11:36Z</time>
      </trkpt>
      <trkpt lat="44.39751" lon="4.48206">
        <ele>382.26</ele>
        <time>2014-03-23T10:11:37Z</time>
      </trkpt>
      <trkpt lat="44.3975" lon="4.48209">
        <ele>382.26</ele>
        <time>2014-03-23T10:11:38Z</time>
      </trkpt>
      <trkpt lat="44.39744" lon="4.48229">
        <ele>382.26</ele>
        <time>2014-03-23T10:11:45Z</time>
      </trkpt>
      <trkpt lat="44.39751" lon="4.48219">
        <ele>381.78</ele>
        <time>2014-03-23T10:11:49Z</time>
      </trkpt>
      <trkpt lat="44.39772" lon="4.48156">
        <ele>380.82</ele>
        <time>2014-03-23T10:12:01Z</time>
      </trkpt>
      <trkpt lat="44.39775" lon="4.4815">
        <ele>380.34</ele>
        <time>2014-03-23T10:12:02Z</time>
      </trkpt>
      <trkpt lat="44.39777" lon="4.48145">
        <ele>380.34</ele>
        <time>2014-03-23T10:12:03Z</time>
      </trkpt>
      <trkpt lat="44.39777" lon="4.4814">
        <ele>380.82</ele>
        <time>2014-03-23T10:12:04Z</time>
      </trkpt>
      <trkpt lat="44.39775" lon="4.48138">
        <ele>380.82</ele>
        <time>2014-03-23T10:12:05Z</time>
      </trkpt>
      <trkpt lat="44.39772" lon="4.48139">
        <ele>381.3</ele>
        <time>2014-03-23T10:12:06Z</time>
      </trkpt>
      <trkpt lat="44.39765" lon="4.48155">
        <ele>381.3</ele>
        <time>2014-03-23T10:12:10Z</time>
      </trkpt>
      <trkpt lat="44.39764" lon="4.48161">
        <ele>381.78</ele>
        <time>2014-03-23T10:12:11Z</time>
      </trkpt>
      <trkpt lat="44.39763" lon="4.48167">
        <ele>381.78</ele>
        <time>2014-03-23T10:12:12Z</time>
      </trkpt>
      <trkpt lat="44.39761" lon="4.48173">
        <ele>381.78</ele>
        <time>2014-03-23T10:12:13Z</time>
      </trkpt>
      <trkpt lat="44.39759" lon="4.4818">
        <ele>381.78</ele>
        <time>2014-03-23T10:12:14Z</time>
      </trkpt>
      <trkpt lat="44.39719" lon="4.48296">
        <ele>380.82</ele>
        <time>2014-03-23T10:12:31Z</time>
      </trkpt>
      <trkpt lat="44.39659" lon="4.484">
        <ele>379.86</ele>
        <time>2014-03-23T10:12:45Z</time>
      </trkpt>
      <trkpt lat="44.39624" lon="4.48459">
        <ele>378.9</ele>
        <time>2014-03-23T10:12:53Z</time>
      </trkpt>
      <trkpt lat="44.39607" lon="4.48497">
        <ele>378.9</ele>
        <time>2014-03-23T10:12:58Z</time>
      </trkpt>
      <trkpt lat="44.39605" lon="4.48504">
        <ele>378.9</ele>
        <time>2014-03-23T10:12:59Z</time>
      </trkpt>
      <trkpt lat="44.39602" lon="4.48511">
        <ele>378.9</ele>
        <time>2014-03-23T10:13:00Z</time>
      </trkpt>
      <trkpt lat="44.39558" lon="4.48625">
        <ele>376.97</ele>
        <time>2014-03-23T10:13:16Z</time>
      </trkpt>
      <trkpt lat="44.39543" lon="4.4875">
        <ele>376.01</ele>
        <time>2014-03-23T10:13:31Z</time>
      </trkpt>
      <trkpt lat="44.39526" lon="4.48903">
        <ele>374.57</ele>
        <time>2014-03-23T10:13:49Z</time>
      </trkpt>
      <trkpt lat="44.39517" lon="4.4903">
        <ele>375.05</ele>
        <time>2014-03-23T10:14:05Z</time>
      </trkpt>
      <trkpt lat="44.39514" lon="4.49053">
        <ele>375.05</ele>
        <time>2014-03-23T10:14:08Z</time>
      </trkpt>
      <trkpt lat="44.39493" lon="4.49209">
        <ele>374.57</ele>
        <time>2014-03-23T10:14:27Z</time>
      </trkpt>
      <trkpt lat="44.39484" lon="4.49276">
        <ele>374.09</ele>
        <time>2014-03-23T10:14:35Z</time>
      </trkpt>
      <trkpt lat="44.39484" lon="4.49284">
        <ele>374.09</ele>
        <time>2014-03-23T10:14:36Z</time>
      </trkpt>
      <trkpt lat="44.39473" lon="4.49423">
        <ele>374.57</ele>
        <time>2014-03-23T10:14:52Z</time>
      </trkpt>
      <trkpt lat="44.39464" lon="4.49597">
        <ele>373.13</ele>
        <time>2014-03-23T10:15:12Z</time>
      </trkpt>
      <trkpt lat="44.39435" lon="4.49701">
        <ele>372.17</ele>
        <time>2014-03-23T10:15:25Z</time>
      </trkpt>
      <trkpt lat="44.39388" lon="4.49808">
        <ele>371.69</ele>
        <time>2014-03-23T10:15:41Z</time>
      </trkpt>
      <trkpt lat="44.39384" lon="4.49814">
        <ele>371.21</ele>
        <time>2014-03-23T10:15:42Z</time>
      </trkpt>
      <trkpt lat="44.39352" lon="4.49861">
        <ele>369.76</ele>
        <time>2014-03-23T10:15:50Z</time>
      </trkpt>
      <trkpt lat="44.3935" lon="4.49868">
        <ele>370.24</ele>
        <time>2014-03-23T10:15:51Z</time>
      </trkpt>
      <trkpt lat="44.39348" lon="4.49874">
        <ele>369.76</ele>
        <time>2014-03-23T10:15:52Z</time>
      </trkpt>
      <trkpt lat="44.39346" lon="4.4988">
        <ele>369.76</ele>
        <time>2014-03-23T10:15:53Z</time>
      </trkpt>
      <trkpt lat="44.39345" lon="4.49886">
        <ele>369.76</ele>
        <time>2014-03-23T10:15:54Z</time>
      </trkpt>
      <trkpt lat="44.39344" lon="4.49892">
        <ele>369.76</ele>
        <time>2014-03-23T10:15:55Z</time>
      </trkpt>
      <trkpt lat="44.39343" lon="4.49898">
        <ele>370.24</ele>
        <time>2014-03-23T10:15:56Z</time>
      </trkpt>
      <trkpt lat="44.3934" lon="4.49938">
        <ele>369.76</ele>
        <time>2014-03-23T10:16:03Z</time>
      </trkpt>
      <trkpt lat="44.3934" lon="4.49944">
        <ele>369.76</ele>
        <time>2014-03-23T10:16:04Z</time>
      </trkpt>
      <trkpt lat="44.39334" lon="4.50022">
        <ele>369.76</ele>
        <time>2014-03-23T10:16:19Z</time>
      </trkpt>
      <trkpt lat="44.39333" lon="4.50072">
        <ele>369.76</ele>
        <time>2014-03-23T10:16:30Z</time>
      </trkpt>
      <trkpt lat="44.39326" lon="4.5011">
        <ele>370.24</ele>
        <time>2014-03-23T10:16:41Z</time>
      </trkpt>
      <trkpt lat="44.39326" lon="4.50111">
        <ele>367.36</ele>
        <time>2014-03-23T10:16:49Z</time>
      </trkpt>
      <trkpt lat="44.39326" lon="4.50111">
        <ele>372.65</ele>
        <time>2014-03-23T10:16:50Z</time>
      </trkpt>
      <trkpt lat="44.39326" lon="4.50111">
        <ele>368.8</ele>
        <time>2014-03-23T10:16:51Z</time>
      </trkpt>
      <trkpt lat="44.39326" lon="4.50111">
        <ele>372.65</ele>
        <time>2014-03-23T10:16:52Z</time>
      </trkpt>
      <trkpt lat="44.39326" lon="4.50111">
        <ele>369.28</ele>
        <time>2014-03-23T10:17:13Z</time>
      </trkpt>
      <trkpt lat="44.39326" lon="4.50111">
        <ele>369.76</ele>
        <time>2014-03-23T10:17:26Z</time>
      </trkpt>
      <trkpt lat="44.39328" lon="4.50121">
        <ele>370.73</ele>
        <time>2014-03-23T10:17:31Z</time>
      </trkpt>
      <trkpt lat="44.39324" lon="4.50157">
        <ele>370.73</ele>
        <time>2014-03-23T10:17:41Z</time>
      </trkpt>
      <trkpt lat="44.39318" lon="4.50209">
        <ele>370.73</ele>
        <time>2014-03-23T10:17:53Z</time>
      </trkpt>
      <trkpt lat="44.39305" lon="4.50196">
        <ele>369.28</ele>
        <time>2014-03-23T10:18:01Z</time>
      </trkpt>
      <trkpt lat="44.39298" lon="4.50197">
        <ele>369.28</ele>
        <time>2014-03-23T10:18:06Z</time>
      </trkpt>
      <trkpt lat="44.39292" lon="4.50201">
        <ele>369.28</ele>
        <time>2014-03-23T10:18:09Z</time>
      </trkpt>
      <trkpt lat="44.39282" lon="4.50208">
        <ele>369.76</ele>
        <time>2014-03-23T10:18:13Z</time>
      </trkpt>
      <trkpt lat="44.39266" lon="4.50215">
        <ele>371.69</ele>
        <time>2014-03-23T10:18:22Z</time>
      </trkpt>
      <trkpt lat="44.39259" lon="4.50215">
        <ele>372.17</ele>
        <time>2014-03-23T10:18:34Z</time>
      </trkpt>
      <trkpt lat="44.39258" lon="4.50216">
        <ele>371.69</ele>
        <time>2014-03-23T10:18:40Z</time>
      </trkpt>
      <trkpt lat="44.39256" lon="4.50208">
        <ele>372.17</ele>
        <time>2014-03-23T10:18:45Z</time>
      </trkpt>
      <trkpt lat="44.39253" lon="4.50192">
        <ele>372.17</ele>
        <time>2014-03-23T10:18:50Z</time>
      </trkpt>
      <trkpt lat="44.3925" lon="4.50158">
        <ele>370.24</ele>
        <time>2014-03-23T10:19:01Z</time>
      </trkpt>
      <trkpt lat="44.39243" lon="4.50135">
        <ele>371.21</ele>
        <time>2014-03-23T10:19:11Z</time>
      </trkpt>
      <trkpt lat="44.39243" lon="4.50137">
        <ele>369.28</ele>
        <time>2014-03-23T10:19:29Z</time>
      </trkpt>
      <trkpt lat="44.3922" lon="4.50097">
        <ele>370.24</ele>
        <time>2014-03-23T10:21:20Z</time>
      </trkpt>
      <trkpt lat="44.39218" lon="4.50098">
        <ele>370.24</ele>
        <time>2014-03-23T10:21:21Z</time>
      </trkpt>
      <trkpt lat="44.39217" lon="4.50109">
        <ele>370.24</ele>
        <time>2014-03-23T10:21:26Z</time>
      </trkpt>
      <trkpt lat="44.39216" lon="4.50108">
        <ele>370.24</ele>
        <time>2014-03-23T10:21:28Z</time>
      </trkpt>
      <trkpt lat="44.392" lon="4.50129">
        <ele>371.69</ele>
        <time>2014-03-23T10:21:40Z</time>
      </trkpt>
      <trkpt lat="44.39194" lon="4.50123">
        <ele>371.69</ele>
        <time>2014-03-23T10:21:44Z</time>
      </trkpt>
      <trkpt lat="44.39182" lon="4.50087">
        <ele>371.21</ele>
        <time>2014-03-23T10:21:58Z</time>
      </trkpt>
      <trkpt lat="44.39175" lon="4.50075">
        <ele>371.21</ele>
        <time>2014-03-23T10:22:03Z</time>
      </trkpt>
      <trkpt lat="44.3917" lon="4.5006">
        <ele>371.21</ele>
        <time>2014-03-23T10:22:07Z</time>
      </trkpt>
      <trkpt lat="44.39138" lon="4.49997">
        <ele>369.76</ele>
        <time>2014-03-23T10:22:21Z</time>
      </trkpt>
      <trkpt lat="44.39136" lon="4.49993">
        <ele>369.28</ele>
        <time>2014-03-23T10:22:22Z</time>
      </trkpt>
      <trkpt lat="44.3913" lon="4.49984">
        <ele>368.8</ele>
        <time>2014-03-23T10:22:24Z</time>
      </trkpt>
      <trkpt lat="44.39127" lon="4.49979">
        <ele>367.84</ele>
        <time>2014-03-23T10:22:25Z</time>
      </trkpt>
      <trkpt lat="44.39123" lon="4.49968">
        <ele>368.32</ele>
        <time>2014-03-23T10:22:27Z</time>
      </trkpt>
      <trkpt lat="44.39101" lon="4.49923">
        <ele>368.32</ele>
        <time>2014-03-23T10:22:35Z</time>
      </trkpt>
      <trkpt lat="44.39099" lon="4.49916">
        <ele>367.36</ele>
        <time>2014-03-23T10:22:36Z</time>
      </trkpt>
      <trkpt lat="44.39097" lon="4.4991">
        <ele>366.88</ele>
        <time>2014-03-23T10:22:37Z</time>
      </trkpt>
      <trkpt lat="44.39089" lon="4.49875">
        <ele>366.88</ele>
        <time>2014-03-23T10:22:43Z</time>
      </trkpt>
      <trkpt lat="44.39088" lon="4.4987">
        <ele>367.36</ele>
        <time>2014-03-23T10:22:44Z</time>
      </trkpt>
      <trkpt lat="44.39087" lon="4.49865">
        <ele>367.84</ele>
        <time>2014-03-23T10:22:45Z</time>
      </trkpt>
      <trkpt lat="44.39086" lon="4.49859">
        <ele>367.84</ele>
        <time>2014-03-23T10:22:46Z</time>
      </trkpt>
      <trkpt lat="44.39085" lon="4.49854">
        <ele>367.84</ele>
        <time>2014-03-23T10:22:47Z</time>
      </trkpt>
      <trkpt lat="44.39083" lon="4.49848">
        <ele>367.84</ele>
        <time>2014-03-23T10:22:48Z</time>
      </trkpt>
      <trkpt lat="44.39067" lon="4.49789">
        <ele>367.84</ele>
        <time>2014-03-23T10:22:58Z</time>
      </trkpt>
      <trkpt lat="44.3906" lon="4.49774">
        <ele>367.36</ele>
        <time>2014-03-23T10:23:01Z</time>
      </trkpt>
      <trkpt lat="44.39024" lon="4.49733">
        <ele>368.8</ele>
        <time>2014-03-23T10:23:12Z</time>
      </trkpt>
      <trkpt lat="44.38982" lon="4.49649">
        <ele>367.36</ele>
        <time>2014-03-23T10:23:28Z</time>
      </trkpt>
      <trkpt lat="44.38948" lon="4.49569">
        <ele>369.28</ele>
        <time>2014-03-23T10:23:44Z</time>
      </trkpt>
      <trkpt lat="44.38925" lon="4.49508">
        <ele>369.28</ele>
        <time>2014-03-23T10:24:00Z</time>
      </trkpt>
      <trkpt lat="44.38923" lon="4.49508">
        <ele>369.28</ele>
        <time>2014-03-23T10:24:01Z</time>
      </trkpt>
      <trkpt lat="44.38922" lon="4.4951">
        <ele>368.8</ele>
        <time>2014-03-23T10:24:02Z</time>
      </trkpt>
      <trkpt lat="44.38922" lon="4.49513">
        <ele>368.8</ele>
        <time>2014-03-23T10:24:03Z</time>
      </trkpt>
      <trkpt lat="44.38923" lon="4.49515">
        <ele>369.28</ele>
        <time>2014-03-23T10:24:04Z</time>
      </trkpt>
      <trkpt lat="44.38924" lon="4.49516">
        <ele>369.28</ele>
        <time>2014-03-23T10:24:05Z</time>
      </trkpt>
      <trkpt lat="44.38926" lon="4.49515">
        <ele>369.28</ele>
        <time>2014-03-23T10:24:06Z</time>
      </trkpt>
      <trkpt lat="44.38927" lon="4.49513">
        <ele>369.28</ele>
        <time>2014-03-23T10:24:07Z</time>
      </trkpt>
      <trkpt lat="44.38926" lon="4.49511">
        <ele>369.28</ele>
        <time>2014-03-23T10:24:08Z</time>
      </trkpt>
      <trkpt lat="44.38926" lon="4.49508">
        <ele>369.28</ele>
        <time>2014-03-23T10:24:09Z</time>
      </trkpt>
      <trkpt lat="44.38925" lon="4.49506">
        <ele>368.8</ele>
        <time>2014-03-23T10:24:10Z</time>
      </trkpt>
      <trkpt lat="44.38924" lon="4.49505">
        <ele>368.8</ele>
        <time>2014-03-23T10:24:11Z</time>
      </trkpt>
      <trkpt lat="44.38912" lon="4.49467">
        <ele>369.76</ele>
        <time>2014-03-23T10:24:23Z</time>
      </trkpt>
      <trkpt lat="44.38902" lon="4.49412">
        <ele>370.24</ele>
        <time>2014-03-23T10:24:36Z</time>
      </trkpt>
      <trkpt lat="44.38884" lon="4.49353">
        <ele>371.21</ele>
        <time>2014-03-23T10:24:49Z</time>
      </trkpt>
      <trkpt lat="44.38842" lon="4.49275">
        <ele>372.65</ele>
        <time>2014-03-23T10:25:07Z</time>
      </trkpt>
      <trkpt lat="44.3884" lon="4.49223">
        <ele>374.09</ele>
        <time>2014-03-23T10:25:17Z</time>
      </trkpt>
      <trkpt lat="44.38845" lon="4.49124">
        <ele>374.09</ele>
        <time>2014-03-23T10:25:34Z</time>
      </trkpt>
      <trkpt lat="44.38846" lon="4.49037">
        <ele>374.57</ele>
        <time>2014-03-23T10:25:49Z</time>
      </trkpt>
      <trkpt lat="44.38844" lon="4.48969">
        <ele>374.57</ele>
        <time>2014-03-23T10:26:00Z</time>
      </trkpt>
      <trkpt lat="44.3883" lon="4.489">
        <ele>376.49</ele>
        <time>2014-03-23T10:26:12Z</time>
      </trkpt>
      <trkpt lat="44.38829" lon="4.48895">
        <ele>376.01</ele>
        <time>2014-03-23T10:26:13Z</time>
      </trkpt>
      <trkpt lat="44.38828" lon="4.48889">
        <ele>376.49</ele>
        <time>2014-03-23T10:26:14Z</time>
      </trkpt>
      <trkpt lat="44.38827" lon="4.48884">
        <ele>376.97</ele>
        <time>2014-03-23T10:26:15Z</time>
      </trkpt>
      <trkpt lat="44.38826" lon="4.48879">
        <ele>376.97</ele>
        <time>2014-03-23T10:26:16Z</time>
      </trkpt>
      <trkpt lat="44.38813" lon="4.48813">
        <ele>377.45</ele>
        <time>2014-03-23T10:26:29Z</time>
      </trkpt>
      <trkpt lat="44.38806" lon="4.48714">
        <ele>375.53</ele>
        <time>2014-03-23T10:26:44Z</time>
      </trkpt>
      <trkpt lat="44.38805" lon="4.48597">
        <ele>376.49</ele>
        <time>2014-03-23T10:27:01Z</time>
      </trkpt>
      <trkpt lat="44.38808" lon="4.48515">
        <ele>378.42</ele>
        <time>2014-03-23T10:27:15Z</time>
      </trkpt>
      <trkpt lat="44.38813" lon="4.48403">
        <ele>376.49</ele>
        <time>2014-03-23T10:27:33Z</time>
      </trkpt>
      <trkpt lat="44.38819" lon="4.48328">
        <ele>377.45</ele>
        <time>2014-03-23T10:27:47Z</time>
      </trkpt>
      <trkpt lat="44.3882" lon="4.48311">
        <ele>377.94</ele>
        <time>2014-03-23T10:27:50Z</time>
      </trkpt>
      <trkpt lat="44.38827" lon="4.4824">
        <ele>379.38</ele>
        <time>2014-03-23T10:28:03Z</time>
      </trkpt>
      <trkpt lat="44.38818" lon="4.48174">
        <ele>377.45</ele>
        <time>2014-03-23T10:28:13Z</time>
      </trkpt>
      <trkpt lat="44.38816" lon="4.48168">
        <ele>377.94</ele>
        <time>2014-03-23T10:28:14Z</time>
      </trkpt>
      <trkpt lat="44.38786" lon="4.48115">
        <ele>379.38</ele>
        <time>2014-03-23T10:28:23Z</time>
      </trkpt>
      <trkpt lat="44.38756" lon="4.48059">
        <ele>377.94</ele>
        <time>2014-03-23T10:28:32Z</time>
      </trkpt>
      <trkpt lat="44.38754" lon="4.48052">
        <ele>378.42</ele>
        <time>2014-03-23T10:28:33Z</time>
      </trkpt>
      <trkpt lat="44.38752" lon="4.48045">
        <ele>378.9</ele>
        <time>2014-03-23T10:28:34Z</time>
      </trkpt>
      <trkpt lat="44.38742" lon="4.47993">
        <ele>379.86</ele>
        <time>2014-03-23T10:28:42Z</time>
      </trkpt>
      <trkpt lat="44.3874" lon="4.47987">
        <ele>379.86</ele>
        <time>2014-03-23T10:28:43Z</time>
      </trkpt>
      <trkpt lat="44.38737" lon="4.47982">
        <ele>379.86</ele>
        <time>2014-03-23T10:28:44Z</time>
      </trkpt>
      <trkpt lat="44.38734" lon="4.47978">
        <ele>380.34</ele>
        <time>2014-03-23T10:28:45Z</time>
      </trkpt>
      <trkpt lat="44.3873" lon="4.47974">
        <ele>380.34</ele>
        <time>2014-03-23T10:28:46Z</time>
      </trkpt>
      <trkpt lat="44.38673" lon="4.47911">
        <ele>381.78</ele>
        <time>2014-03-23T10:29:03Z</time>
      </trkpt>
      <trkpt lat="44.38631" lon="4.47823">
        <ele>384.66</ele>
        <time>2014-03-23T10:29:22Z</time>
      </trkpt>
      <trkpt lat="44.38582" lon="4.47754">
        <ele>386.59</ele>
        <time>2014-03-23T10:29:40Z</time>
      </trkpt>
      <trkpt lat="44.38531" lon="4.47721">
        <ele>389.47</ele>
        <time>2014-03-23T10:29:55Z</time>
      </trkpt>
      <trkpt lat="44.38476" lon="4.47692">
        <ele>390.91</ele>
        <time>2014-03-23T10:30:10Z</time>
      </trkpt>
      <trkpt lat="44.38453" lon="4.47671">
        <ele>391.39</ele>
        <time>2014-03-23T10:30:17Z</time>
      </trkpt>
      <trkpt lat="44.3845" lon="4.47666">
        <ele>391.39</ele>
        <time>2014-03-23T10:30:18Z</time>
      </trkpt>
      <trkpt lat="44.38444" lon="4.47651">
        <ele>391.39</ele>
        <time>2014-03-23T10:30:21Z</time>
      </trkpt>
      <trkpt lat="44.38422" lon="4.4756">
        <ele>393.8</ele>
        <time>2014-03-23T10:30:39Z</time>
      </trkpt>
      <trkpt lat="44.38403" lon="4.47492">
        <ele>396.68</ele>
        <time>2014-03-23T10:30:54Z</time>
      </trkpt>
      <trkpt lat="44.38371" lon="4.47427">
        <ele>398.6</ele>
        <time>2014-03-23T10:31:09Z</time>
      </trkpt>
      <trkpt lat="44.38348" lon="4.47392">
        <ele>397.16</ele>
        <time>2014-03-23T10:31:17Z</time>
      </trkpt>
      <trkpt lat="44.38344" lon="4.47387">
        <ele>399.57</ele>
        <time>2014-03-23T10:31:18Z</time>
      </trkpt>
      <trkpt lat="44.38316" lon="4.47345">
        <ele>396.68</ele>
        <time>2014-03-23T10:31:25Z</time>
      </trkpt>
      <trkpt lat="44.38306" lon="4.47331">
        <ele>395.24</ele>
        <time>2014-03-23T10:31:27Z</time>
      </trkpt>
      <trkpt lat="44.38225" lon="4.47209">
        <ele>394.76</ele>
        <time>2014-03-23T10:31:45Z</time>
      </trkpt>
      <trkpt lat="44.38167" lon="4.47124">
        <ele>395.72</ele>
        <time>2014-03-23T10:32:00Z</time>
      </trkpt>
      <trkpt lat="44.3809" lon="4.47011">
        <ele>396.68</ele>
        <time>2014-03-23T10:32:20Z</time>
      </trkpt>
      <trkpt lat="44.38086" lon="4.47006">
        <ele>396.2</ele>
        <time>2014-03-23T10:32:21Z</time>
      </trkpt>
      <trkpt lat="44.38082" lon="4.47001">
        <ele>395.72</ele>
        <time>2014-03-23T10:32:22Z</time>
      </trkpt>
      <trkpt lat="44.38067" lon="4.46978">
        <ele>395.72</ele>
        <time>2014-03-23T10:32:26Z</time>
      </trkpt>
      <trkpt lat="44.38011" lon="4.46893">
        <ele>396.2</ele>
        <time>2014-03-23T10:32:41Z</time>
      </trkpt>
      <trkpt lat="44.37955" lon="4.46811">
        <ele>398.6</ele>
        <time>2014-03-23T10:32:58Z</time>
      </trkpt>
      <trkpt lat="44.37906" lon="4.46737">
        <ele>401.01</ele>
        <time>2014-03-23T10:33:14Z</time>
      </trkpt>
      <trkpt lat="44.37871" lon="4.46687">
        <ele>400.53</ele>
        <time>2014-03-23T10:33:25Z</time>
      </trkpt>
      <trkpt lat="44.37864" lon="4.46678">
        <ele>401.01</ele>
        <time>2014-03-23T10:33:27Z</time>
      </trkpt>
      <trkpt lat="44.37803" lon="4.46585">
        <ele>401.01</ele>
        <time>2014-03-23T10:33:45Z</time>
      </trkpt>
      <trkpt lat="44.37747" lon="4.46496">
        <ele>401.01</ele>
        <time>2014-03-23T10:34:02Z</time>
      </trkpt>
      <trkpt lat="44.37702" lon="4.46381">
        <ele>398.12</ele>
        <time>2014-03-23T10:34:18Z</time>
      </trkpt>
      <trkpt lat="44.37689" lon="4.46347">
        <ele>397.16</ele>
        <time>2014-03-23T10:34:22Z</time>
      </trkpt>
      <trkpt lat="44.37658" lon="4.46258">
        <ele>393.8</ele>
        <time>2014-03-23T10:34:31Z</time>
      </trkpt>
      <trkpt lat="44.37642" lon="4.46214">
        <ele>391.39</ele>
        <time>2014-03-23T10:34:35Z</time>
      </trkpt>
      <trkpt lat="44.37593" lon="4.46076">
        <ele>390.43</ele>
        <time>2014-03-23T10:34:49Z</time>
      </trkpt>
      <trkpt lat="44.3756" lon="4.45973">
        <ele>391.87</ele>
        <time>2014-03-23T10:35:03Z</time>
      </trkpt>
      <trkpt lat="44.3756" lon="4.45966">
        <ele>391.87</ele>
        <time>2014-03-23T10:35:04Z</time>
      </trkpt>
      <trkpt lat="44.3756" lon="4.45959">
        <ele>391.39</ele>
        <time>2014-03-23T10:35:05Z</time>
      </trkpt>
      <trkpt lat="44.37561" lon="4.45952">
        <ele>392.36</ele>
        <time>2014-03-23T10:35:06Z</time>
      </trkpt>
      <trkpt lat="44.37561" lon="4.45945">
        <ele>392.84</ele>
        <time>2014-03-23T10:35:07Z</time>
      </trkpt>
      <trkpt lat="44.37562" lon="4.45939">
        <ele>392.36</ele>
        <time>2014-03-23T10:35:08Z</time>
      </trkpt>
      <trkpt lat="44.37564" lon="4.45933">
        <ele>392.36</ele>
        <time>2014-03-23T10:35:09Z</time>
      </trkpt>
      <trkpt lat="44.37566" lon="4.45927">
        <ele>391.87</ele>
        <time>2014-03-23T10:35:10Z</time>
      </trkpt>
      <trkpt lat="44.37568" lon="4.45921">
        <ele>391.87</ele>
        <time>2014-03-23T10:35:11Z</time>
      </trkpt>
      <trkpt lat="44.3757" lon="4.45915">
        <ele>391.87</ele>
        <time>2014-03-23T10:35:12Z</time>
      </trkpt>
      <trkpt lat="44.3757" lon="4.4591">
        <ele>391.87</ele>
        <time>2014-03-23T10:35:13Z</time>
      </trkpt>
      <trkpt lat="44.37586" lon="4.45856">
        <ele>391.87</ele>
        <time>2014-03-23T10:35:23Z</time>
      </trkpt>
      <trkpt lat="44.37597" lon="4.45817">
        <ele>390.91</ele>
        <time>2014-03-23T10:35:30Z</time>
      </trkpt>
      <trkpt lat="44.3762" lon="4.45729">
        <ele>389.47</ele>
        <time>2014-03-23T10:35:46Z</time>
      </trkpt>
      <trkpt lat="44.37638" lon="4.45676">
        <ele>385.15</ele>
        <time>2014-03-23T10:35:54Z</time>
      </trkpt>
      <trkpt lat="44.37642" lon="4.45668">
        <ele>385.15</ele>
        <time>2014-03-23T10:35:55Z</time>
      </trkpt>
      <trkpt lat="44.37645" lon="4.45661">
        <ele>385.15</ele>
        <time>2014-03-23T10:35:56Z</time>
      </trkpt>
      <trkpt lat="44.37668" lon="4.45619">
        <ele>381.78</ele>
        <time>2014-03-23T10:36:02Z</time>
      </trkpt>
      <trkpt lat="44.37672" lon="4.45613">
        <ele>381.3</ele>
        <time>2014-03-23T10:36:03Z</time>
      </trkpt>
      <trkpt lat="44.37676" lon="4.45607">
        <ele>380.82</ele>
        <time>2014-03-23T10:36:04Z</time>
      </trkpt>
      <trkpt lat="44.37692" lon="4.45578">
        <ele>378.9</ele>
        <time>2014-03-23T10:36:08Z</time>
      </trkpt>
      <trkpt lat="44.37708" lon="4.45545">
        <ele>376.01</ele>
        <time>2014-03-23T10:36:12Z</time>
      </trkpt>
      <trkpt lat="44.37718" lon="4.45512">
        <ele>376.01</ele>
        <time>2014-03-23T10:36:16Z</time>
      </trkpt>
      <trkpt lat="44.3772" lon="4.45503">
        <ele>375.05</ele>
        <time>2014-03-23T10:36:17Z</time>
      </trkpt>
      <trkpt lat="44.37731" lon="4.45412">
        <ele>376.01</ele>
        <time>2014-03-23T10:36:28Z</time>
      </trkpt>
      <trkpt lat="44.37733" lon="4.45405">
        <ele>376.01</ele>
        <time>2014-03-23T10:36:29Z</time>
      </trkpt>
      <trkpt lat="44.37775" lon="4.45299">
        <ele>375.05</ele>
        <time>2014-03-23T10:36:45Z</time>
      </trkpt>
      <trkpt lat="44.3779" lon="4.45267">
        <ele>374.09</ele>
        <time>2014-03-23T10:36:50Z</time>
      </trkpt>
      <trkpt lat="44.37801" lon="4.45251">
        <ele>373.61</ele>
        <time>2014-03-23T10:36:53Z</time>
      </trkpt>
      <trkpt lat="44.3781" lon="4.4524">
        <ele>372.65</ele>
        <time>2014-03-23T10:36:55Z</time>
      </trkpt>
      <trkpt lat="44.37831" lon="4.45215">
        <ele>372.17</ele>
        <time>2014-03-23T10:37:00Z</time>
      </trkpt>
      <trkpt lat="44.37835" lon="4.45211">
        <ele>372.17</ele>
        <time>2014-03-23T10:37:01Z</time>
      </trkpt>
      <trkpt lat="44.3787" lon="4.45178">
        <ele>374.09</ele>
        <time>2014-03-23T10:37:11Z</time>
      </trkpt>
      <trkpt lat="44.37874" lon="4.45175">
        <ele>373.61</ele>
        <time>2014-03-23T10:37:12Z</time>
      </trkpt>
      <trkpt lat="44.37899" lon="4.45146">
        <ele>370.24</ele>
        <time>2014-03-23T10:37:18Z</time>
      </trkpt>
      <trkpt lat="44.37919" lon="4.4512">
        <ele>368.8</ele>
        <time>2014-03-23T10:37:22Z</time>
      </trkpt>
      <trkpt lat="44.37922" lon="4.45112">
        <ele>368.32</ele>
        <time>2014-03-23T10:37:23Z</time>
      </trkpt>
      <trkpt lat="44.37925" lon="4.45103">
        <ele>368.8</ele>
        <time>2014-03-23T10:37:24Z</time>
      </trkpt>
      <trkpt lat="44.37938" lon="4.45046">
        <ele>366.88</ele>
        <time>2014-03-23T10:37:30Z</time>
      </trkpt>
      <trkpt lat="44.37942" lon="4.45027">
        <ele>365.92</ele>
        <time>2014-03-23T10:37:32Z</time>
      </trkpt>
      <trkpt lat="44.37951" lon="4.44988">
        <ele>364.96</ele>
        <time>2014-03-23T10:37:36Z</time>
      </trkpt>
      <trkpt lat="44.37951" lon="4.44978">
        <ele>364.48</ele>
        <time>2014-03-23T10:37:37Z</time>
      </trkpt>
      <trkpt lat="44.37949" lon="4.44969">
        <ele>364</ele>
        <time>2014-03-23T10:37:38Z</time>
      </trkpt>
      <trkpt lat="44.37943" lon="4.44962">
        <ele>364</ele>
        <time>2014-03-23T10:37:39Z</time>
      </trkpt>
      <trkpt lat="44.37937" lon="4.44959">
        <ele>364</ele>
        <time>2014-03-23T10:37:40Z</time>
      </trkpt>
      <trkpt lat="44.3793" lon="4.44959">
        <ele>364.48</ele>
        <time>2014-03-23T10:37:41Z</time>
      </trkpt>
      <trkpt lat="44.37924" lon="4.4496">
        <ele>364.96</ele>
        <time>2014-03-23T10:37:42Z</time>
      </trkpt>
      <trkpt lat="44.37918" lon="4.44961">
        <ele>364.96</ele>
        <time>2014-03-23T10:37:43Z</time>
      </trkpt>
      <trkpt lat="44.37912" lon="4.4496">
        <ele>364.48</ele>
        <time>2014-03-23T10:37:44Z</time>
      </trkpt>
      <trkpt lat="44.37906" lon="4.44959">
        <ele>364.96</ele>
        <time>2014-03-23T10:37:45Z</time>
      </trkpt>
      <trkpt lat="44.37824" lon="4.4494">
        <ele>362.07</ele>
        <time>2014-03-23T10:37:57Z</time>
      </trkpt>
      <trkpt lat="44.37766" lon="4.44904">
        <ele>360.63</ele>
        <time>2014-03-23T10:38:06Z</time>
      </trkpt>
      <trkpt lat="44.37744" lon="4.44883">
        <ele>360.15</ele>
        <time>2014-03-23T10:38:10Z</time>
      </trkpt>
      <trkpt lat="44.37738" lon="4.44876">
        <ele>359.67</ele>
        <time>2014-03-23T10:38:11Z</time>
      </trkpt>
      <trkpt lat="44.37703" lon="4.44829">
        <ele>355.34</ele>
        <time>2014-03-23T10:38:17Z</time>
      </trkpt>
      <trkpt lat="44.37678" lon="4.4479">
        <ele>351.5</ele>
        <time>2014-03-23T10:38:21Z</time>
      </trkpt>
      <trkpt lat="44.37666" lon="4.44768">
        <ele>350.06</ele>
        <time>2014-03-23T10:38:23Z</time>
      </trkpt>
      <trkpt lat="44.37662" lon="4.44755">
        <ele>349.1</ele>
        <time>2014-03-23T10:38:24Z</time>
      </trkpt>
      <trkpt lat="44.37653" lon="4.44729">
        <ele>347.17</ele>
        <time>2014-03-23T10:38:26Z</time>
      </trkpt>
      <trkpt lat="44.37646" lon="4.44717">
        <ele>345.73</ele>
        <time>2014-03-23T10:38:27Z</time>
      </trkpt>
      <trkpt lat="44.37638" lon="4.44709">
        <ele>344.77</ele>
        <time>2014-03-23T10:38:28Z</time>
      </trkpt>
      <trkpt lat="44.37629" lon="4.44703">
        <ele>344.77</ele>
        <time>2014-03-23T10:38:29Z</time>
      </trkpt>
      <trkpt lat="44.3762" lon="4.44699">
        <ele>344.77</ele>
        <time>2014-03-23T10:38:30Z</time>
      </trkpt>
      <trkpt lat="44.3759" lon="4.4468">
        <ele>345.73</ele>
        <time>2014-03-23T10:38:34Z</time>
      </trkpt>
      <trkpt lat="44.37584" lon="4.44675">
        <ele>345.73</ele>
        <time>2014-03-23T10:38:35Z</time>
      </trkpt>
      <trkpt lat="44.37563" lon="4.44652">
        <ele>346.21</ele>
        <time>2014-03-23T10:38:39Z</time>
      </trkpt>
      <trkpt lat="44.37504" lon="4.44598">
        <ele>343.81</ele>
        <time>2014-03-23T10:38:51Z</time>
      </trkpt>
      <trkpt lat="44.37468" lon="4.44559">
        <ele>341.89</ele>
        <time>2014-03-23T10:38:58Z</time>
      </trkpt>
      <trkpt lat="44.37455" lon="4.44538">
        <ele>341.89</ele>
        <time>2014-03-23T10:39:01Z</time>
      </trkpt>
      <trkpt lat="44.37452" lon="4.4453">
        <ele>341.41</ele>
        <time>2014-03-23T10:39:02Z</time>
      </trkpt>
      <trkpt lat="44.3745" lon="4.44522">
        <ele>341.41</ele>
        <time>2014-03-23T10:39:03Z</time>
      </trkpt>
      <trkpt lat="44.37448" lon="4.44514">
        <ele>341.41</ele>
        <time>2014-03-23T10:39:04Z</time>
      </trkpt>
      <trkpt lat="44.37448" lon="4.44506">
        <ele>341.41</ele>
        <time>2014-03-23T10:39:05Z</time>
      </trkpt>
      <trkpt lat="44.37447" lon="4.44491">
        <ele>340.92</ele>
        <time>2014-03-23T10:39:07Z</time>
      </trkpt>
      <trkpt lat="44.37449" lon="4.44441">
        <ele>341.89</ele>
        <time>2014-03-23T10:39:15Z</time>
      </trkpt>
      <trkpt lat="44.37449" lon="4.44379">
        <ele>339.48</ele>
        <time>2014-03-23T10:39:23Z</time>
      </trkpt>
      <trkpt lat="44.37448" lon="4.44369">
        <ele>338.52</ele>
        <time>2014-03-23T10:39:24Z</time>
      </trkpt>
      <trkpt lat="44.37447" lon="4.44359">
        <ele>338.04</ele>
        <time>2014-03-23T10:39:25Z</time>
      </trkpt>
      <trkpt lat="44.37443" lon="4.44339">
        <ele>337.08</ele>
        <time>2014-03-23T10:39:27Z</time>
      </trkpt>
      <trkpt lat="44.3744" lon="4.44329">
        <ele>336.6</ele>
        <time>2014-03-23T10:39:28Z</time>
      </trkpt>
      <trkpt lat="44.37428" lon="4.44291">
        <ele>335.16</ele>
        <time>2014-03-23T10:39:32Z</time>
      </trkpt>
      <trkpt lat="44.37422" lon="4.44215">
        <ele>336.12</ele>
        <time>2014-03-23T10:39:41Z</time>
      </trkpt>
      <trkpt lat="44.37423" lon="4.44203">
        <ele>337.08</ele>
        <time>2014-03-23T10:39:43Z</time>
      </trkpt>
      <trkpt lat="44.37424" lon="4.44197">
        <ele>337.08</ele>
        <time>2014-03-23T10:39:44Z</time>
      </trkpt>
      <trkpt lat="44.37429" lon="4.44164">
        <ele>339</ele>
        <time>2014-03-23T10:39:53Z</time>
      </trkpt>
      <trkpt lat="44.37429" lon="4.44158">
        <ele>339</ele>
        <time>2014-03-23T10:40:06Z</time>
      </trkpt>
      <trkpt lat="44.3743" lon="4.44157">
        <ele>338.04</ele>
        <time>2014-03-23T10:40:35Z</time>
      </trkpt>
      <trkpt lat="44.37432" lon="4.44152">
        <ele>339</ele>
        <time>2014-03-23T10:40:38Z</time>
      </trkpt>
      <trkpt lat="44.37433" lon="4.4415">
        <ele>339</ele>
        <time>2014-03-23T10:40:39Z</time>
      </trkpt>
      <trkpt lat="44.37434" lon="4.44147">
        <ele>338.52</ele>
        <time>2014-03-23T10:40:40Z</time>
      </trkpt>
      <trkpt lat="44.37454" lon="4.44117">
        <ele>336.12</ele>
        <time>2014-03-23T10:40:47Z</time>
      </trkpt>
      <trkpt lat="44.37461" lon="4.44104">
        <ele>334.68</ele>
        <time>2014-03-23T10:40:49Z</time>
      </trkpt>
      <trkpt lat="44.37465" lon="4.44097">
        <ele>333.71</ele>
        <time>2014-03-23T10:40:50Z</time>
      </trkpt>
      <trkpt lat="44.37499" lon="4.4405">
        <ele>330.83</ele>
        <time>2014-03-23T10:40:57Z</time>
      </trkpt>
      <trkpt lat="44.37503" lon="4.44043">
        <ele>330.35</ele>
        <time>2014-03-23T10:40:58Z</time>
      </trkpt>
      <trkpt lat="44.37507" lon="4.44037">
        <ele>329.87</ele>
        <time>2014-03-23T10:40:59Z</time>
      </trkpt>
      <trkpt lat="44.3751" lon="4.44032">
        <ele>329.87</ele>
        <time>2014-03-23T10:41:00Z</time>
      </trkpt>
      <trkpt lat="44.37513" lon="4.4403">
        <ele>329.87</ele>
        <time>2014-03-23T10:41:01Z</time>
      </trkpt>
      <trkpt lat="44.37516" lon="4.44028">
        <ele>329.87</ele>
        <time>2014-03-23T10:41:02Z</time>
      </trkpt>
      <trkpt lat="44.37517" lon="4.44027">
        <ele>330.35</ele>
        <time>2014-03-23T10:41:03Z</time>
      </trkpt>
      <trkpt lat="44.37518" lon="4.44026">
        <ele>330.35</ele>
        <time>2014-03-23T10:41:09Z</time>
      </trkpt>
      <trkpt lat="44.37517" lon="4.44016">
        <ele>331.31</ele>
        <time>2014-03-23T10:43:16Z</time>
      </trkpt>
      <trkpt lat="44.37516" lon="4.44017">
        <ele>331.31</ele>
        <time>2014-03-23T10:43:18Z</time>
      </trkpt>
      <trkpt lat="44.37518" lon="4.44021">
        <ele>330.83</ele>
        <time>2014-03-23T10:43:29Z</time>
      </trkpt>
      <trkpt lat="44.37508" lon="4.44024">
        <ele>330.35</ele>
        <time>2014-03-23T10:43:35Z</time>
      </trkpt>
      <trkpt lat="44.37509" lon="4.44031">
        <ele>329.87</ele>
        <time>2014-03-23T10:43:41Z</time>
      </trkpt>
      <trkpt lat="44.37508" lon="4.44027">
        <ele>329.87</ele>
        <time>2014-03-23T10:43:43Z</time>
      </trkpt>
      <trkpt lat="44.37487" lon="4.44001">
        <ele>329.39</ele>
        <time>2014-03-23T10:43:53Z</time>
      </trkpt>
      <trkpt lat="44.37457" lon="4.43989">
        <ele>328.43</ele>
        <time>2014-03-23T10:44:00Z</time>
      </trkpt>
      <trkpt lat="44.37427" lon="4.43972">
        <ele>328.43</ele>
        <time>2014-03-23T10:44:07Z</time>
      </trkpt>
      <trkpt lat="44.37424" lon="4.43968">
        <ele>328.43</ele>
        <time>2014-03-23T10:44:08Z</time>
      </trkpt>
      <trkpt lat="44.37395" lon="4.43938">
        <ele>329.39</ele>
        <time>2014-03-23T10:44:18Z</time>
      </trkpt>
      <trkpt lat="44.37394" lon="4.43918">
        <ele>328.91</ele>
        <time>2014-03-23T10:44:23Z</time>
      </trkpt>
      <trkpt lat="44.37395" lon="4.43915">
        <ele>329.39</ele>
        <time>2014-03-23T10:44:24Z</time>
      </trkpt>
      <trkpt lat="44.37397" lon="4.43913">
        <ele>329.39</ele>
        <time>2014-03-23T10:44:25Z</time>
      </trkpt>
      <trkpt lat="44.37399" lon="4.4391">
        <ele>329.87</ele>
        <time>2014-03-23T10:44:26Z</time>
      </trkpt>
      <trkpt lat="44.37401" lon="4.43909">
        <ele>329.87</ele>
        <time>2014-03-23T10:44:27Z</time>
      </trkpt>
      <trkpt lat="44.37403" lon="4.43907">
        <ele>330.35</ele>
        <time>2014-03-23T10:44:28Z</time>
      </trkpt>
      <trkpt lat="44.37405" lon="4.43906">
        <ele>331.31</ele>
        <time>2014-03-23T10:44:29Z</time>
      </trkpt>
      <trkpt lat="44.37407" lon="4.43905">
        <ele>331.31</ele>
        <time>2014-03-23T10:44:30Z</time>
      </trkpt>
      <trkpt lat="44.37434" lon="4.4389">
        <ele>330.83</ele>
        <time>2014-03-23T10:44:40Z</time>
      </trkpt>
      <trkpt lat="44.37436" lon="4.43887">
        <ele>331.31</ele>
        <time>2014-03-23T10:44:41Z</time>
      </trkpt>
      <trkpt lat="44.37438" lon="4.43885">
        <ele>331.31</ele>
        <time>2014-03-23T10:44:42Z</time>
      </trkpt>
      <trkpt lat="44.3744" lon="4.43883">
        <ele>331.31</ele>
        <time>2014-03-23T10:44:43Z</time>
      </trkpt>
      <trkpt lat="44.37441" lon="4.43883">
        <ele>329.87</ele>
        <time>2014-03-23T10:44:49Z</time>
      </trkpt>
      <trkpt lat="44.37448" lon="4.43879">
        <ele>329.87</ele>
        <time>2014-03-23T10:47:12Z</time>
      </trkpt>
      <trkpt lat="44.37447" lon="4.43876">
        <ele>330.35</ele>
        <time>2014-03-23T10:47:13Z</time>
      </trkpt>
      <trkpt lat="44.37442" lon="4.43885">
        <ele>330.83</ele>
        <time>2014-03-23T10:47:26Z</time>
      </trkpt>
      <trkpt lat="44.37453" lon="4.43895">
        <ele>328.43</ele>
        <time>2014-03-23T10:47:31Z</time>
      </trkpt>
      <trkpt lat="44.37462" lon="4.43898">
        <ele>326.99</ele>
        <time>2014-03-23T10:47:33Z</time>
      </trkpt>
      <trkpt lat="44.37479" lon="4.439">
        <ele>326.02</ele>
        <time>2014-03-23T10:47:36Z</time>
      </trkpt>
      <trkpt lat="44.37485" lon="4.43899">
        <ele>325.54</ele>
        <time>2014-03-23T10:47:37Z</time>
      </trkpt>
      <trkpt lat="44.37512" lon="4.43887">
        <ele>322.18</ele>
        <time>2014-03-23T10:47:41Z</time>
      </trkpt>
      <trkpt lat="44.37546" lon="4.43871">
        <ele>318.33</ele>
        <time>2014-03-23T10:47:45Z</time>
      </trkpt>
      <trkpt lat="44.37584" lon="4.43853">
        <ele>314.97</ele>
        <time>2014-03-23T10:47:49Z</time>
      </trkpt>
      <trkpt lat="44.37614" lon="4.43838">
        <ele>311.12</ele>
        <time>2014-03-23T10:47:52Z</time>
      </trkpt>
      <trkpt lat="44.37634" lon="4.43828">
        <ele>307.76</ele>
        <time>2014-03-23T10:47:54Z</time>
      </trkpt>
      <trkpt lat="44.37663" lon="4.43816">
        <ele>307.28</ele>
        <time>2014-03-23T10:47:57Z</time>
      </trkpt>
      <trkpt lat="44.37672" lon="4.43813">
        <ele>306.32</ele>
        <time>2014-03-23T10:47:58Z</time>
      </trkpt>
      <trkpt lat="44.37682" lon="4.43813">
        <ele>305.84</ele>
        <time>2014-03-23T10:47:59Z</time>
      </trkpt>
      <trkpt lat="44.37691" lon="4.43813">
        <ele>306.32</ele>
        <time>2014-03-23T10:48:00Z</time>
      </trkpt>
      <trkpt lat="44.37701" lon="4.43816">
        <ele>306.8</ele>
        <time>2014-03-23T10:48:01Z</time>
      </trkpt>
      <trkpt lat="44.3771" lon="4.4382">
        <ele>306.32</ele>
        <time>2014-03-23T10:48:02Z</time>
      </trkpt>
      <trkpt lat="44.37719" lon="4.43825">
        <ele>306.32</ele>
        <time>2014-03-23T10:48:03Z</time>
      </trkpt>
      <trkpt lat="44.37745" lon="4.43839">
        <ele>302.95</ele>
        <time>2014-03-23T10:48:06Z</time>
      </trkpt>
      <trkpt lat="44.3776" lon="4.43849">
        <ele>303.43</ele>
        <time>2014-03-23T10:48:08Z</time>
      </trkpt>
      <trkpt lat="44.37765" lon="4.43855">
        <ele>302.95</ele>
        <time>2014-03-23T10:48:09Z</time>
      </trkpt>
      <trkpt lat="44.37771" lon="4.43862">
        <ele>303.43</ele>
        <time>2014-03-23T10:48:10Z</time>
      </trkpt>
      <trkpt lat="44.37822" lon="4.43947">
        <ele>301.03</ele>
        <time>2014-03-23T10:48:23Z</time>
      </trkpt>
      <trkpt lat="44.37834" lon="4.43972">
        <ele>300.07</ele>
        <time>2014-03-23T10:48:27Z</time>
      </trkpt>
      <trkpt lat="44.37851" lon="4.43995">
        <ele>299.59</ele>
        <time>2014-03-23T10:48:31Z</time>
      </trkpt>
      <trkpt lat="44.37858" lon="4.43999">
        <ele>299.59</ele>
        <time>2014-03-23T10:48:32Z</time>
      </trkpt>
      <trkpt lat="44.37864" lon="4.44001">
        <ele>298.63</ele>
        <time>2014-03-23T10:48:33Z</time>
      </trkpt>
      <trkpt lat="44.3787" lon="4.44004">
        <ele>297.67</ele>
        <time>2014-03-23T10:48:34Z</time>
      </trkpt>
      <trkpt lat="44.37875" lon="4.44007">
        <ele>298.15</ele>
        <time>2014-03-23T10:48:35Z</time>
      </trkpt>
      <trkpt lat="44.37882" lon="4.44011">
        <ele>296.7</ele>
        <time>2014-03-23T10:48:38Z</time>
      </trkpt>
      <trkpt lat="44.3788" lon="4.44011">
        <ele>298.63</ele>
        <time>2014-03-23T10:48:45Z</time>
      </trkpt>
      <trkpt lat="44.37878" lon="4.44007">
        <ele>300.07</ele>
        <time>2014-03-23T10:48:53Z</time>
      </trkpt>
      <trkpt lat="44.3787" lon="4.44008">
        <ele>298.15</ele>
        <time>2014-03-23T10:48:59Z</time>
      </trkpt>
      <trkpt lat="44.37868" lon="4.44008">
        <ele>297.18</ele>
        <time>2014-03-23T10:49:04Z</time>
      </trkpt>
      <trkpt lat="44.37868" lon="4.44008">
        <ele>297.18</ele>
        <time>2014-03-23T10:49:30Z</time>
      </trkpt>
      <trkpt lat="44.37869" lon="4.44008">
        <ele>296.7</ele>
        <time>2014-03-23T10:49:43Z</time>
      </trkpt>
      <trkpt lat="44.37871" lon="4.44009">
        <ele>296.22</ele>
        <time>2014-03-23T10:49:44Z</time>
      </trkpt>
      <trkpt lat="44.37873" lon="4.44011">
        <ele>296.22</ele>
        <time>2014-03-23T10:49:45Z</time>
      </trkpt>
      <trkpt lat="44.37876" lon="4.44013">
        <ele>295.74</ele>
        <time>2014-03-23T10:49:46Z</time>
      </trkpt>
      <trkpt lat="44.37879" lon="4.44016">
        <ele>294.3</ele>
        <time>2014-03-23T10:49:47Z</time>
      </trkpt>
      <trkpt lat="44.37883" lon="4.44021">
        <ele>293.34</ele>
        <time>2014-03-23T10:49:48Z</time>
      </trkpt>
      <trkpt lat="44.37886" lon="4.44027">
        <ele>289.97</ele>
        <time>2014-03-23T10:49:49Z</time>
      </trkpt>
      <trkpt lat="44.37887" lon="4.44034">
        <ele>289.49</ele>
        <time>2014-03-23T10:49:50Z</time>
      </trkpt>
      <trkpt lat="44.37888" lon="4.44042">
        <ele>290.46</ele>
        <time>2014-03-23T10:49:51Z</time>
      </trkpt>
      <trkpt lat="44.37889" lon="4.44051">
        <ele>290.94</ele>
        <time>2014-03-23T10:49:52Z</time>
      </trkpt>
      <trkpt lat="44.3789" lon="4.44081">
        <ele>289.97</ele>
        <time>2014-03-23T10:49:55Z</time>
      </trkpt>
      <trkpt lat="44.37891" lon="4.44092">
        <ele>289.49</ele>
        <time>2014-03-23T10:49:56Z</time>
      </trkpt>
      <trkpt lat="44.37894" lon="4.44101">
        <ele>288.53</ele>
        <time>2014-03-23T10:49:57Z</time>
      </trkpt>
      <trkpt lat="44.37898" lon="4.4411">
        <ele>288.05</ele>
        <time>2014-03-23T10:49:58Z</time>
      </trkpt>
      <trkpt lat="44.37905" lon="4.44117">
        <ele>288.05</ele>
        <time>2014-03-23T10:49:59Z</time>
      </trkpt>
      <trkpt lat="44.37912" lon="4.44124">
        <ele>286.61</ele>
        <time>2014-03-23T10:50:00Z</time>
      </trkpt>
      <trkpt lat="44.37927" lon="4.44138">
        <ele>281.8</ele>
        <time>2014-03-23T10:50:02Z</time>
      </trkpt>
      <trkpt lat="44.3795" lon="4.4416">
        <ele>278.44</ele>
        <time>2014-03-23T10:50:05Z</time>
      </trkpt>
      <trkpt lat="44.37965" lon="4.44176">
        <ele>275.07</ele>
        <time>2014-03-23T10:50:07Z</time>
      </trkpt>
      <trkpt lat="44.37973" lon="4.44184">
        <ele>275.07</ele>
        <time>2014-03-23T10:50:08Z</time>
      </trkpt>
      <trkpt lat="44.38006" lon="4.44221">
        <ele>270.27</ele>
        <time>2014-03-23T10:50:12Z</time>
      </trkpt>
      <trkpt lat="44.38022" lon="4.44237">
        <ele>268.83</ele>
        <time>2014-03-23T10:50:14Z</time>
      </trkpt>
      <trkpt lat="44.38044" lon="4.44259">
        <ele>265.46</ele>
        <time>2014-03-23T10:50:17Z</time>
      </trkpt>
      <trkpt lat="44.38064" lon="4.44279">
        <ele>262.58</ele>
        <time>2014-03-23T10:50:19Z</time>
      </trkpt>
      <trkpt lat="44.3808" lon="4.44296">
        <ele>259.69</ele>
        <time>2014-03-23T10:50:21Z</time>
      </trkpt>
      <trkpt lat="44.38107" lon="4.44322">
        <ele>256.33</ele>
        <time>2014-03-23T10:50:24Z</time>
      </trkpt>
      <trkpt lat="44.38116" lon="4.44335">
        <ele>256.33</ele>
        <time>2014-03-23T10:50:25Z</time>
      </trkpt>
      <trkpt lat="44.38145" lon="4.44349">
        <ele>252.96</ele>
        <time>2014-03-23T10:50:28Z</time>
      </trkpt>
      <trkpt lat="44.38165" lon="4.44362">
        <ele>249.6</ele>
        <time>2014-03-23T10:50:30Z</time>
      </trkpt>
      <trkpt lat="44.38174" lon="4.4437">
        <ele>245.75</ele>
        <time>2014-03-23T10:50:31Z</time>
      </trkpt>
      <trkpt lat="44.38202" lon="4.44397">
        <ele>243.35</ele>
        <time>2014-03-23T10:50:34Z</time>
      </trkpt>
      <trkpt lat="44.38254" lon="4.44445">
        <ele>239.99</ele>
        <time>2014-03-23T10:50:39Z</time>
      </trkpt>
      <trkpt lat="44.38282" lon="4.44488">
        <ele>236.62</ele>
        <time>2014-03-23T10:50:42Z</time>
      </trkpt>
      <trkpt lat="44.38299" lon="4.4452">
        <ele>232.3</ele>
        <time>2014-03-23T10:50:44Z</time>
      </trkpt>
      <trkpt lat="44.38314" lon="4.44552">
        <ele>228.93</ele>
        <time>2014-03-23T10:50:46Z</time>
      </trkpt>
      <trkpt lat="44.38338" lon="4.44593">
        <ele>225.09</ele>
        <time>2014-03-23T10:50:49Z</time>
      </trkpt>
      <trkpt lat="44.38354" lon="4.44617">
        <ele>221.72</ele>
        <time>2014-03-23T10:50:51Z</time>
      </trkpt>
      <trkpt lat="44.38378" lon="4.44652">
        <ele>218.36</ele>
        <time>2014-03-23T10:50:54Z</time>
      </trkpt>
      <trkpt lat="44.38387" lon="4.44664">
        <ele>218.36</ele>
        <time>2014-03-23T10:50:55Z</time>
      </trkpt>
      <trkpt lat="44.38405" lon="4.44689">
        <ele>214.51</ele>
        <time>2014-03-23T10:50:57Z</time>
      </trkpt>
      <trkpt lat="44.38413" lon="4.44701">
        <ele>212.11</ele>
        <time>2014-03-23T10:50:58Z</time>
      </trkpt>
      <trkpt lat="44.3842" lon="4.44714">
        <ele>210.19</ele>
        <time>2014-03-23T10:50:59Z</time>
      </trkpt>
      <trkpt lat="44.38424" lon="4.44727">
        <ele>208.26</ele>
        <time>2014-03-23T10:51:00Z</time>
      </trkpt>
      <trkpt lat="44.38427" lon="4.44739">
        <ele>206.34</ele>
        <time>2014-03-23T10:51:01Z</time>
      </trkpt>
      <trkpt lat="44.38427" lon="4.44752">
        <ele>204.9</ele>
        <time>2014-03-23T10:51:02Z</time>
      </trkpt>
      <trkpt lat="44.38426" lon="4.44763">
        <ele>202.98</ele>
        <time>2014-03-23T10:51:03Z</time>
      </trkpt>
      <trkpt lat="44.38425" lon="4.44774">
        <ele>202.98</ele>
        <time>2014-03-23T10:51:04Z</time>
      </trkpt>
      <trkpt lat="44.38424" lon="4.44785">
        <ele>202.49</ele>
        <time>2014-03-23T10:51:05Z</time>
      </trkpt>
      <trkpt lat="44.38425" lon="4.44796">
        <ele>203.46</ele>
        <time>2014-03-23T10:51:06Z</time>
      </trkpt>
      <trkpt lat="44.38429" lon="4.44805">
        <ele>205.38</ele>
        <time>2014-03-23T10:51:07Z</time>
      </trkpt>
      <trkpt lat="44.38434" lon="4.4481">
        <ele>206.82</ele>
        <time>2014-03-23T10:51:08Z</time>
      </trkpt>
      <trkpt lat="44.3844" lon="4.44807">
        <ele>206.82</ele>
        <time>2014-03-23T10:51:09Z</time>
      </trkpt>
      <trkpt lat="44.38444" lon="4.44799">
        <ele>207.3</ele>
        <time>2014-03-23T10:51:10Z</time>
      </trkpt>
      <trkpt lat="44.38447" lon="4.44788">
        <ele>206.34</ele>
        <time>2014-03-23T10:51:11Z</time>
      </trkpt>
      <trkpt lat="44.38447" lon="4.44777">
        <ele>205.86</ele>
        <time>2014-03-23T10:51:12Z</time>
      </trkpt>
      <trkpt lat="44.38447" lon="4.44756">
        <ele>205.38</ele>
        <time>2014-03-23T10:51:14Z</time>
      </trkpt>
      <trkpt lat="44.38446" lon="4.44738">
        <ele>204.42</ele>
        <time>2014-03-23T10:51:16Z</time>
      </trkpt>
      <trkpt lat="44.38441" lon="4.44692">
        <ele>201.53</ele>
        <time>2014-03-23T10:51:23Z</time>
      </trkpt>
      <trkpt lat="44.38436" lon="4.44668">
        <ele>199.13</ele>
        <time>2014-03-23T10:51:31Z</time>
      </trkpt>
      <trkpt lat="44.38436" lon="4.44667">
        <ele>199.13</ele>
        <time>2014-03-23T10:51:33Z</time>
      </trkpt>
      <trkpt lat="44.38438" lon="4.44662">
        <ele>199.13</ele>
        <time>2014-03-23T10:51:39Z</time>
      </trkpt>
      <trkpt lat="44.38434" lon="4.44663">
        <ele>199.13</ele>
        <time>2014-03-23T10:51:46Z</time>
      </trkpt>
      <trkpt lat="44.38425" lon="4.44642">
        <ele>197.21</ele>
        <time>2014-03-23T10:51:51Z</time>
      </trkpt>
      <trkpt lat="44.38408" lon="4.44606">
        <ele>193.36</ele>
        <time>2014-03-23T10:51:55Z</time>
      </trkpt>
      <trkpt lat="44.38405" lon="4.44594">
        <ele>192.4</ele>
        <time>2014-03-23T10:51:56Z</time>
      </trkpt>
      <trkpt lat="44.38398" lon="4.44553">
        <ele>188.56</ele>
        <time>2014-03-23T10:51:59Z</time>
      </trkpt>
      <trkpt lat="44.3839" lon="4.44506">
        <ele>185.19</ele>
        <time>2014-03-23T10:52:02Z</time>
      </trkpt>
      <trkpt lat="44.38383" lon="4.44472">
        <ele>182.31</ele>
        <time>2014-03-23T10:52:04Z</time>
      </trkpt>
      <trkpt lat="44.38377" lon="4.44438">
        <ele>178.94</ele>
        <time>2014-03-23T10:52:06Z</time>
      </trkpt>
      <trkpt lat="44.38366" lon="4.44384">
        <ele>173.17</ele>
        <time>2014-03-23T10:52:09Z</time>
      </trkpt>
      <trkpt lat="44.38356" lon="4.44329">
        <ele>169.33</ele>
        <time>2014-03-23T10:52:12Z</time>
      </trkpt>
      <trkpt lat="44.38349" lon="4.44292">
        <ele>165.96</ele>
        <time>2014-03-23T10:52:14Z</time>
      </trkpt>
      <trkpt lat="44.38334" lon="4.44237">
        <ele>162.12</ele>
        <time>2014-03-23T10:52:17Z</time>
      </trkpt>
      <trkpt lat="44.3832" lon="4.44203">
        <ele>158.75</ele>
        <time>2014-03-23T10:52:19Z</time>
      </trkpt>
      <trkpt lat="44.38302" lon="4.44157">
        <ele>155.39</ele>
        <time>2014-03-23T10:52:22Z</time>
      </trkpt>
      <trkpt lat="44.38295" lon="4.44143">
        <ele>153.95</ele>
        <time>2014-03-23T10:52:23Z</time>
      </trkpt>
      <trkpt lat="44.38287" lon="4.44131">
        <ele>152.51</ele>
        <time>2014-03-23T10:52:24Z</time>
      </trkpt>
      <trkpt lat="44.38278" lon="4.44123">
        <ele>151.06</ele>
        <time>2014-03-23T10:52:25Z</time>
      </trkpt>
      <trkpt lat="44.38268" lon="4.44115">
        <ele>150.1</ele>
        <time>2014-03-23T10:52:26Z</time>
      </trkpt>
      <trkpt lat="44.38257" lon="4.44107">
        <ele>148.66</ele>
        <time>2014-03-23T10:52:27Z</time>
      </trkpt>
      <trkpt lat="44.38248" lon="4.44097">
        <ele>147.22</ele>
        <time>2014-03-23T10:52:28Z</time>
      </trkpt>
      <trkpt lat="44.38239" lon="4.44084">
        <ele>145.78</ele>
        <time>2014-03-23T10:52:29Z</time>
      </trkpt>
      <trkpt lat="44.38232" lon="4.4407">
        <ele>144.34</ele>
        <time>2014-03-23T10:52:30Z</time>
      </trkpt>
      <trkpt lat="44.38226" lon="4.44055">
        <ele>142.89</ele>
        <time>2014-03-23T10:52:31Z</time>
      </trkpt>
      <trkpt lat="44.3822" lon="4.4404">
        <ele>141.93</ele>
        <time>2014-03-23T10:52:32Z</time>
      </trkpt>
      <trkpt lat="44.38207" lon="4.4401">
        <ele>138.09</ele>
        <time>2014-03-23T10:52:34Z</time>
      </trkpt>
      <trkpt lat="44.38183" lon="4.4397">
        <ele>133.76</ele>
        <time>2014-03-23T10:52:37Z</time>
      </trkpt>
      <trkpt lat="44.38156" lon="4.43934">
        <ele>129.43</ele>
        <time>2014-03-23T10:52:40Z</time>
      </trkpt>
      <trkpt lat="44.38133" lon="4.43899">
        <ele>126.07</ele>
        <time>2014-03-23T10:52:43Z</time>
      </trkpt>
      <trkpt lat="44.38101" lon="4.43857">
        <ele>121.74</ele>
        <time>2014-03-23T10:52:47Z</time>
      </trkpt>
      <trkpt lat="44.38075" lon="4.43828">
        <ele>117.9</ele>
        <time>2014-03-23T10:52:50Z</time>
      </trkpt>
      <trkpt lat="44.38048" lon="4.438">
        <ele>114.05</ele>
        <time>2014-03-23T10:52:53Z</time>
      </trkpt>
      <trkpt lat="44.38021" lon="4.43771">
        <ele>110.69</ele>
        <time>2014-03-23T10:52:56Z</time>
      </trkpt>
      <trkpt lat="44.38003" lon="4.43751">
        <ele>106.84</ele>
        <time>2014-03-23T10:52:58Z</time>
      </trkpt>
      <trkpt lat="44.37978" lon="4.43721">
        <ele>103.48</ele>
        <time>2014-03-23T10:53:01Z</time>
      </trkpt>
      <trkpt lat="44.37951" lon="4.43688">
        <ele>100.11</ele>
        <time>2014-03-23T10:53:04Z</time>
      </trkpt>
      <trkpt lat="44.37926" lon="4.43654">
        <ele>96.75</ele>
        <time>2014-03-23T10:53:07Z</time>
      </trkpt>
      <trkpt lat="44.37904" lon="4.43621">
        <ele>93.39</ele>
        <time>2014-03-23T10:53:10Z</time>
      </trkpt>
      <trkpt lat="44.37898" lon="4.4361">
        <ele>92.42</ele>
        <time>2014-03-23T10:53:11Z</time>
      </trkpt>
      <trkpt lat="44.37895" lon="4.43597">
        <ele>91.46</ele>
        <time>2014-03-23T10:53:12Z</time>
      </trkpt>
      <trkpt lat="44.37894" lon="4.43585">
        <ele>90.98</ele>
        <time>2014-03-23T10:53:13Z</time>
      </trkpt>
      <trkpt lat="44.37896" lon="4.43573">
        <ele>90.5</ele>
        <time>2014-03-23T10:53:14Z</time>
      </trkpt>
      <trkpt lat="44.379" lon="4.43563">
        <ele>89.54</ele>
        <time>2014-03-23T10:53:15Z</time>
      </trkpt>
      <trkpt lat="44.37904" lon="4.43554">
        <ele>89.54</ele>
        <time>2014-03-23T10:53:16Z</time>
      </trkpt>
      <trkpt lat="44.37909" lon="4.43545">
        <ele>89.06</ele>
        <time>2014-03-23T10:53:17Z</time>
      </trkpt>
      <trkpt lat="44.37913" lon="4.43536">
        <ele>88.58</ele>
        <time>2014-03-23T10:53:18Z</time>
      </trkpt>
      <trkpt lat="44.37939" lon="4.43479">
        <ele>88.58</ele>
        <time>2014-03-23T10:53:25Z</time>
      </trkpt>
      <trkpt lat="44.3794" lon="4.43472">
        <ele>89.06</ele>
        <time>2014-03-23T10:53:26Z</time>
      </trkpt>
      <trkpt lat="44.37941" lon="4.43458">
        <ele>88.58</ele>
        <time>2014-03-23T10:53:28Z</time>
      </trkpt>
      <trkpt lat="44.37939" lon="4.43403">
        <ele>89.54</ele>
        <time>2014-03-23T10:53:39Z</time>
      </trkpt>
      <trkpt lat="44.37939" lon="4.43361">
        <ele>89.54</ele>
        <time>2014-03-23T10:53:54Z</time>
      </trkpt>
      <trkpt lat="44.37939" lon="4.43339">
        <ele>90.02</ele>
        <time>2014-03-23T10:54:02Z</time>
      </trkpt>
      <trkpt lat="44.37939" lon="4.43336">
        <ele>90.02</ele>
        <time>2014-03-23T10:54:03Z</time>
      </trkpt>
      <trkpt lat="44.37931" lon="4.43285">
        <ele>90.02</ele>
        <time>2014-03-23T10:54:15Z</time>
      </trkpt>
      <trkpt lat="44.37923" lon="4.43219">
        <ele>90.98</ele>
        <time>2014-03-23T10:54:28Z</time>
      </trkpt>
      <trkpt lat="44.37911" lon="4.43138">
        <ele>91.46</ele>
        <time>2014-03-23T10:54:43Z</time>
      </trkpt>
      <trkpt lat="44.37898" lon="4.43063">
        <ele>91.94</ele>
        <time>2014-03-23T10:54:57Z</time>
      </trkpt>
      <trkpt lat="44.37883" lon="4.43012">
        <ele>92.9</ele>
        <time>2014-03-23T10:55:07Z</time>
      </trkpt>
      <trkpt lat="44.37881" lon="4.43007">
        <ele>92.9</ele>
        <time>2014-03-23T10:55:08Z</time>
      </trkpt>
      <trkpt lat="44.37876" lon="4.42991">
        <ele>92.9</ele>
        <time>2014-03-23T10:55:11Z</time>
      </trkpt>
      <trkpt lat="44.37865" lon="4.42954">
        <ele>93.39</ele>
        <time>2014-03-23T10:55:18Z</time>
      </trkpt>
      <trkpt lat="44.37861" lon="4.42943">
        <ele>93.39</ele>
        <time>2014-03-23T10:55:20Z</time>
      </trkpt>
      <trkpt lat="44.3786" lon="4.42938">
        <ele>93.39</ele>
        <time>2014-03-23T10:55:21Z</time>
      </trkpt>
      <trkpt lat="44.37856" lon="4.42928">
        <ele>93.39</ele>
        <time>2014-03-23T10:55:23Z</time>
      </trkpt>
      <trkpt lat="44.37854" lon="4.42923">
        <ele>93.39</ele>
        <time>2014-03-23T10:55:24Z</time>
      </trkpt>
      <trkpt lat="44.37853" lon="4.42918">
        <ele>93.87</ele>
        <time>2014-03-23T10:55:25Z</time>
      </trkpt>
      <trkpt lat="44.37851" lon="4.42912">
        <ele>93.87</ele>
        <time>2014-03-23T10:55:26Z</time>
      </trkpt>
      <trkpt lat="44.37849" lon="4.42906">
        <ele>93.87</ele>
        <time>2014-03-23T10:55:27Z</time>
      </trkpt>
      <trkpt lat="44.37811" lon="4.42819">
        <ele>94.35</ele>
        <time>2014-03-23T10:55:44Z</time>
      </trkpt>
      <trkpt lat="44.3778" lon="4.42754">
        <ele>95.31</ele>
        <time>2014-03-23T10:55:58Z</time>
      </trkpt>
      <trkpt lat="44.37751" lon="4.42689">
        <ele>96.75</ele>
        <time>2014-03-23T10:56:12Z</time>
      </trkpt>
      <trkpt lat="44.37726" lon="4.42631">
        <ele>97.23</ele>
        <time>2014-03-23T10:56:25Z</time>
      </trkpt>
      <trkpt lat="44.37704" lon="4.42588">
        <ele>97.71</ele>
        <time>2014-03-23T10:56:35Z</time>
      </trkpt>
      <trkpt lat="44.37694" lon="4.42565">
        <ele>98.67</ele>
        <time>2014-03-23T10:56:40Z</time>
      </trkpt>
      <trkpt lat="44.37693" lon="4.42559">
        <ele>98.67</ele>
        <time>2014-03-23T10:56:41Z</time>
      </trkpt>
      <trkpt lat="44.37689" lon="4.42542">
        <ele>99.15</ele>
        <time>2014-03-23T10:56:44Z</time>
      </trkpt>
      <trkpt lat="44.37685" lon="4.42506">
        <ele>99.15</ele>
        <time>2014-03-23T10:56:50Z</time>
      </trkpt>
      <trkpt lat="44.37684" lon="4.425">
        <ele>99.63</ele>
        <time>2014-03-23T10:56:51Z</time>
      </trkpt>
      <trkpt lat="44.37683" lon="4.42495">
        <ele>99.63</ele>
        <time>2014-03-23T10:56:52Z</time>
      </trkpt>
      <trkpt lat="44.37668" lon="4.42436">
        <ele>101.08</ele>
        <time>2014-03-23T10:57:04Z</time>
      </trkpt>
      <trkpt lat="44.37647" lon="4.42383">
        <ele>102.04</ele>
        <time>2014-03-23T10:57:15Z</time>
      </trkpt>
      <trkpt lat="44.37636" lon="4.4235">
        <ele>102.52</ele>
        <time>2014-03-23T10:57:21Z</time>
      </trkpt>
      <trkpt lat="44.37635" lon="4.42345">
        <ele>103</ele>
        <time>2014-03-23T10:57:22Z</time>
      </trkpt>
      <trkpt lat="44.37631" lon="4.42264">
        <ele>103</ele>
        <time>2014-03-23T10:57:37Z</time>
      </trkpt>
      <trkpt lat="44.3764" lon="4.42213">
        <ele>103.96</ele>
        <time>2014-03-23T10:57:49Z</time>
      </trkpt>
      <trkpt lat="44.37657" lon="4.42165">
        <ele>103.96</ele>
        <time>2014-03-23T10:58:00Z</time>
      </trkpt>
      <trkpt lat="44.37659" lon="4.4216">
        <ele>104.44</ele>
        <time>2014-03-23T10:58:01Z</time>
      </trkpt>
      <trkpt lat="44.3766" lon="4.42155">
        <ele>104.44</ele>
        <time>2014-03-23T10:58:02Z</time>
      </trkpt>
      <trkpt lat="44.37662" lon="4.4215">
        <ele>103.96</ele>
        <time>2014-03-23T10:58:03Z</time>
      </trkpt>
      <trkpt lat="44.37672" lon="4.42127">
        <ele>104.44</ele>
        <time>2014-03-23T10:58:08Z</time>
      </trkpt>
      <trkpt lat="44.37705" lon="4.42052">
        <ele>104.44</ele>
        <time>2014-03-23T10:58:21Z</time>
      </trkpt>
      <trkpt lat="44.37723" lon="4.42008">
        <ele>104.92</ele>
        <time>2014-03-23T10:58:28Z</time>
      </trkpt>
      <trkpt lat="44.37726" lon="4.42002">
        <ele>104.44</ele>
        <time>2014-03-23T10:58:29Z</time>
      </trkpt>
      <trkpt lat="44.37737" lon="4.41986">
        <ele>104.44</ele>
        <time>2014-03-23T10:58:32Z</time>
      </trkpt>
      <trkpt lat="44.37742" lon="4.41982">
        <ele>104.44</ele>
        <time>2014-03-23T10:58:33Z</time>
      </trkpt>
      <trkpt lat="44.37764" lon="4.41959">
        <ele>103.96</ele>
        <time>2014-03-23T10:58:38Z</time>
      </trkpt>
      <trkpt lat="44.37774" lon="4.41942">
        <ele>102.52</ele>
        <time>2014-03-23T10:58:41Z</time>
      </trkpt>
      <trkpt lat="44.37784" lon="4.41925">
        <ele>103</ele>
        <time>2014-03-23T10:58:44Z</time>
      </trkpt>
      <trkpt lat="44.37789" lon="4.4192">
        <ele>103</ele>
        <time>2014-03-23T10:58:45Z</time>
      </trkpt>
      <trkpt lat="44.37793" lon="4.41915">
        <ele>102.52</ele>
        <time>2014-03-23T10:58:46Z</time>
      </trkpt>
      <trkpt lat="44.37803" lon="4.41905">
        <ele>103.48</ele>
        <time>2014-03-23T10:58:48Z</time>
      </trkpt>
      <trkpt lat="44.37809" lon="4.41901">
        <ele>103</ele>
        <time>2014-03-23T10:58:49Z</time>
      </trkpt>
      <trkpt lat="44.37857" lon="4.41874">
        <ele>102.52</ele>
        <time>2014-03-23T10:58:58Z</time>
      </trkpt>
      <trkpt lat="44.37863" lon="4.41872">
        <ele>102.04</ele>
        <time>2014-03-23T10:58:59Z</time>
      </trkpt>
      <trkpt lat="44.37934" lon="4.4185">
        <ele>103.48</ele>
        <time>2014-03-23T10:59:13Z</time>
      </trkpt>
      <trkpt lat="44.37977" lon="4.41837">
        <ele>103</ele>
        <time>2014-03-23T10:59:21Z</time>
      </trkpt>
      <trkpt lat="44.37982" lon="4.41837">
        <ele>103</ele>
        <time>2014-03-23T10:59:22Z</time>
      </trkpt>
      <trkpt lat="44.3802" lon="4.41836">
        <ele>102.52</ele>
        <time>2014-03-23T10:59:29Z</time>
      </trkpt>
      <trkpt lat="44.38059" lon="4.41832">
        <ele>102.52</ele>
        <time>2014-03-23T10:59:37Z</time>
      </trkpt>
      <trkpt lat="44.38086" lon="4.41834">
        <ele>103</ele>
        <time>2014-03-23T10:59:43Z</time>
      </trkpt>
      <trkpt lat="44.3809" lon="4.41832">
        <ele>103</ele>
        <time>2014-03-23T10:59:44Z</time>
      </trkpt>
      <trkpt lat="44.38092" lon="4.41831">
        <ele>103</ele>
        <time>2014-03-23T10:59:45Z</time>
      </trkpt>
      <trkpt lat="44.38094" lon="4.41831">
        <ele>103</ele>
        <time>2014-03-23T10:59:46Z</time>
      </trkpt>
      <trkpt lat="44.38096" lon="4.41831">
        <ele>103</ele>
        <time>2014-03-23T10:59:47Z</time>
      </trkpt>
      <trkpt lat="44.38099" lon="4.41831">
        <ele>103</ele>
        <time>2014-03-23T10:59:56Z</time>
      </trkpt>
      <trkpt lat="44.38099" lon="4.41831">
        <ele>102.52</ele>
        <time>2014-03-23T11:00:16Z</time>
      </trkpt>
      <trkpt lat="44.38099" lon="4.41831">
        <ele>102.52</ele>
        <time>2014-03-23T11:00:42Z</time>
      </trkpt>
      <trkpt lat="44.38098" lon="4.41831">
        <ele>102.52</ele>
        <time>2014-03-23T11:01:14Z</time>
      </trkpt>
      <trkpt lat="44.38099" lon="4.41831">
        <ele>102.52</ele>
        <time>2014-03-23T11:01:45Z</time>
      </trkpt>
      <trkpt lat="44.38103" lon="4.41833">
        <ele>102.52</ele>
        <time>2014-03-23T11:01:47Z</time>
      </trkpt>
      <trkpt lat="44.38106" lon="4.41835">
        <ele>102.04</ele>
        <time>2014-03-23T11:01:48Z</time>
      </trkpt>
      <trkpt lat="44.3811" lon="4.41836">
        <ele>102.04</ele>
        <time>2014-03-23T11:01:49Z</time>
      </trkpt>
      <trkpt lat="44.38123" lon="4.41837">
        <ele>101.08</ele>
        <time>2014-03-23T11:01:52Z</time>
      </trkpt>
      <trkpt lat="44.38151" lon="4.41837">
        <ele>98.19</ele>
        <time>2014-03-23T11:01:57Z</time>
      </trkpt>
      <trkpt lat="44.38186" lon="4.41837">
        <ele>97.23</ele>
        <time>2014-03-23T11:02:03Z</time>
      </trkpt>
      <trkpt lat="44.38192" lon="4.41838">
        <ele>96.75</ele>
        <time>2014-03-23T11:02:04Z</time>
      </trkpt>
      <trkpt lat="44.38229" lon="4.41843">
        <ele>93.87</ele>
        <time>2014-03-23T11:02:09Z</time>
      </trkpt>
      <trkpt lat="44.38301" lon="4.41861">
        <ele>90.5</ele>
        <time>2014-03-23T11:02:18Z</time>
      </trkpt>
      <trkpt lat="44.38318" lon="4.41864">
        <ele>89.06</ele>
        <time>2014-03-23T11:02:20Z</time>
      </trkpt>
      <trkpt lat="44.38343" lon="4.41865">
        <ele>88.1</ele>
        <time>2014-03-23T11:02:23Z</time>
      </trkpt>
      <trkpt lat="44.38353" lon="4.41865">
        <ele>87.62</ele>
        <time>2014-03-23T11:02:24Z</time>
      </trkpt>
      <trkpt lat="44.38362" lon="4.41863">
        <ele>87.14</ele>
        <time>2014-03-23T11:02:25Z</time>
      </trkpt>
      <trkpt lat="44.38371" lon="4.41861">
        <ele>87.14</ele>
        <time>2014-03-23T11:02:26Z</time>
      </trkpt>
      <trkpt lat="44.38443" lon="4.41817">
        <ele>88.1</ele>
        <time>2014-03-23T11:02:36Z</time>
      </trkpt>
      <trkpt lat="44.38508" lon="4.41799">
        <ele>90.02</ele>
        <time>2014-03-23T11:02:47Z</time>
      </trkpt>
      <trkpt lat="44.38524" lon="4.41788">
        <ele>90.5</ele>
        <time>2014-03-23T11:02:51Z</time>
      </trkpt>
      <trkpt lat="44.38528" lon="4.41784">
        <ele>90.5</ele>
        <time>2014-03-23T11:02:52Z</time>
      </trkpt>
      <trkpt lat="44.38531" lon="4.4178">
        <ele>90.5</ele>
        <time>2014-03-23T11:02:53Z</time>
      </trkpt>
      <trkpt lat="44.38534" lon="4.41777">
        <ele>90.5</ele>
        <time>2014-03-23T11:02:54Z</time>
      </trkpt>
      <trkpt lat="44.38538" lon="4.41775">
        <ele>90.5</ele>
        <time>2014-03-23T11:02:55Z</time>
      </trkpt>
      <trkpt lat="44.3857" lon="4.41747">
        <ele>90.98</ele>
        <time>2014-03-23T11:03:05Z</time>
      </trkpt>
      <trkpt lat="44.38573" lon="4.41743">
        <ele>90.98</ele>
        <time>2014-03-23T11:03:06Z</time>
      </trkpt>
      <trkpt lat="44.38576" lon="4.41739">
        <ele>90.98</ele>
        <time>2014-03-23T11:03:07Z</time>
      </trkpt>
      <trkpt lat="44.38593" lon="4.41713">
        <ele>90.98</ele>
        <time>2014-03-23T11:03:13Z</time>
      </trkpt>
      <trkpt lat="44.38616" lon="4.41667">
        <ele>90.98</ele>
        <time>2014-03-23T11:03:22Z</time>
      </trkpt>
      <trkpt lat="44.38618" lon="4.41661">
        <ele>90.98</ele>
        <time>2014-03-23T11:03:23Z</time>
      </trkpt>
      <trkpt lat="44.3863" lon="4.41626">
        <ele>90.98</ele>
        <time>2014-03-23T11:03:29Z</time>
      </trkpt>
      <trkpt lat="44.38634" lon="4.41601">
        <ele>91.46</ele>
        <time>2014-03-23T11:03:33Z</time>
      </trkpt>
      <trkpt lat="44.38632" lon="4.41557">
        <ele>91.94</ele>
        <time>2014-03-23T11:03:40Z</time>
      </trkpt>
      <trkpt lat="44.38621" lon="4.41491">
        <ele>93.87</ele>
        <time>2014-03-23T11:03:53Z</time>
      </trkpt>
      <trkpt lat="44.38613" lon="4.41456">
        <ele>93.87</ele>
        <time>2014-03-23T11:04:00Z</time>
      </trkpt>
      <trkpt lat="44.38611" lon="4.4145">
        <ele>94.35</ele>
        <time>2014-03-23T11:04:01Z</time>
      </trkpt>
      <trkpt lat="44.38599" lon="4.41416">
        <ele>93.87</ele>
        <time>2014-03-23T11:04:07Z</time>
      </trkpt>
      <trkpt lat="44.38596" lon="4.4141">
        <ele>93.39</ele>
        <time>2014-03-23T11:04:08Z</time>
      </trkpt>
      <trkpt lat="44.38594" lon="4.41404">
        <ele>93.39</ele>
        <time>2014-03-23T11:04:09Z</time>
      </trkpt>
      <trkpt lat="44.38589" lon="4.41393">
        <ele>93.39</ele>
        <time>2014-03-23T11:04:11Z</time>
      </trkpt>
      <trkpt lat="44.38586" lon="4.41388">
        <ele>93.39</ele>
        <time>2014-03-23T11:04:12Z</time>
      </trkpt>
      <trkpt lat="44.38582" lon="4.41384">
        <ele>92.9</ele>
        <time>2014-03-23T11:04:13Z</time>
      </trkpt>
      <trkpt lat="44.38576" lon="4.41375">
        <ele>92.9</ele>
        <time>2014-03-23T11:04:15Z</time>
      </trkpt>
      <trkpt lat="44.38572" lon="4.41372">
        <ele>93.39</ele>
        <time>2014-03-23T11:04:16Z</time>
      </trkpt>
      <trkpt lat="44.38569" lon="4.41369">
        <ele>93.39</ele>
        <time>2014-03-23T11:04:17Z</time>
      </trkpt>
      <trkpt lat="44.38565" lon="4.41367">
        <ele>92.9</ele>
        <time>2014-03-23T11:04:18Z</time>
      </trkpt>
      <trkpt lat="44.38561" lon="4.41366">
        <ele>92.9</ele>
        <time>2014-03-23T11:04:19Z</time>
      </trkpt>
      <trkpt lat="44.38549" lon="4.41365">
        <ele>92.9</ele>
        <time>2014-03-23T11:04:22Z</time>
      </trkpt>
      <trkpt lat="44.38541" lon="4.41368">
        <ele>92.42</ele>
        <time>2014-03-23T11:04:24Z</time>
      </trkpt>
      <trkpt lat="44.38536" lon="4.41369">
        <ele>92.42</ele>
        <time>2014-03-23T11:04:25Z</time>
      </trkpt>
      <trkpt lat="44.38531" lon="4.41371">
        <ele>92.42</ele>
        <time>2014-03-23T11:04:26Z</time>
      </trkpt>
      <trkpt lat="44.38527" lon="4.41373">
        <ele>92.42</ele>
        <time>2014-03-23T11:04:27Z</time>
      </trkpt>
      <trkpt lat="44.38522" lon="4.41375">
        <ele>91.94</ele>
        <time>2014-03-23T11:04:28Z</time>
      </trkpt>
      <trkpt lat="44.38517" lon="4.41377">
        <ele>91.94</ele>
        <time>2014-03-23T11:04:29Z</time>
      </trkpt>
      <trkpt lat="44.38514" lon="4.41378">
        <ele>91.94</ele>
        <time>2014-03-23T11:04:30Z</time>
      </trkpt>
      <trkpt lat="44.38471" lon="4.41396">
        <ele>91.46</ele>
        <time>2014-03-23T11:04:39Z</time>
      </trkpt>
      <trkpt lat="44.38435" lon="4.41417">
        <ele>90.5</ele>
        <time>2014-03-23T11:04:47Z</time>
      </trkpt>
      <trkpt lat="44.3843" lon="4.41418">
        <ele>90.5</ele>
        <time>2014-03-23T11:04:48Z</time>
      </trkpt>
      <trkpt lat="44.38425" lon="4.41417">
        <ele>90.5</ele>
        <time>2014-03-23T11:04:49Z</time>
      </trkpt>
      <trkpt lat="44.3842" lon="4.41415">
        <ele>90.5</ele>
        <time>2014-03-23T11:04:50Z</time>
      </trkpt>
      <trkpt lat="44.38415" lon="4.41413">
        <ele>90.5</ele>
        <time>2014-03-23T11:04:51Z</time>
      </trkpt>
      <trkpt lat="44.38406" lon="4.41408">
        <ele>90.02</ele>
        <time>2014-03-23T11:04:53Z</time>
      </trkpt>
      <trkpt lat="44.38344" lon="4.41364">
        <ele>90.02</ele>
        <time>2014-03-23T11:05:08Z</time>
      </trkpt>
      <trkpt lat="44.38332" lon="4.41357">
        <ele>90.02</ele>
        <time>2014-03-23T11:05:11Z</time>
      </trkpt>
      <trkpt lat="44.38296" lon="4.41359">
        <ele>90.02</ele>
        <time>2014-03-23T11:05:21Z</time>
      </trkpt>
      <trkpt lat="44.38267" lon="4.41366">
        <ele>90.02</ele>
        <time>2014-03-23T11:05:28Z</time>
      </trkpt>
      <trkpt lat="44.38263" lon="4.41366">
        <ele>90.02</ele>
        <time>2014-03-23T11:05:29Z</time>
      </trkpt>
      <trkpt lat="44.38258" lon="4.41366">
        <ele>90.02</ele>
        <time>2014-03-23T11:05:30Z</time>
      </trkpt>
      <trkpt lat="44.38254" lon="4.41365">
        <ele>90.02</ele>
        <time>2014-03-23T11:05:31Z</time>
      </trkpt>
      <trkpt lat="44.38245" lon="4.41361">
        <ele>90.02</ele>
        <time>2014-03-23T11:05:33Z</time>
      </trkpt>
      <trkpt lat="44.38234" lon="4.4135">
        <ele>90.02</ele>
        <time>2014-03-23T11:05:36Z</time>
      </trkpt>
      <trkpt lat="44.38228" lon="4.4134">
        <ele>90.02</ele>
        <time>2014-03-23T11:05:38Z</time>
      </trkpt>
      <trkpt lat="44.38202" lon="4.41264">
        <ele>90.98</ele>
        <time>2014-03-23T11:05:50Z</time>
      </trkpt>
      <trkpt lat="44.38201" lon="4.41257">
        <ele>90.98</ele>
        <time>2014-03-23T11:05:51Z</time>
      </trkpt>
      <trkpt lat="44.38201" lon="4.41198">
        <ele>92.42</ele>
        <time>2014-03-23T11:06:00Z</time>
      </trkpt>
      <trkpt lat="44.38201" lon="4.41191">
        <ele>92.42</ele>
        <time>2014-03-23T11:06:01Z</time>
      </trkpt>
      <trkpt lat="44.38201" lon="4.41185">
        <ele>92.42</ele>
        <time>2014-03-23T11:06:02Z</time>
      </trkpt>
      <trkpt lat="44.38202" lon="4.41172">
        <ele>92.42</ele>
        <time>2014-03-23T11:06:04Z</time>
      </trkpt>
      <trkpt lat="44.38209" lon="4.41116">
        <ele>93.39</ele>
        <time>2014-03-23T11:06:13Z</time>
      </trkpt>
      <trkpt lat="44.38213" lon="4.41097">
        <ele>94.35</ele>
        <time>2014-03-23T11:06:16Z</time>
      </trkpt>
      <trkpt lat="44.38218" lon="4.41067">
        <ele>94.83</ele>
        <time>2014-03-23T11:06:21Z</time>
      </trkpt>
      <trkpt lat="44.38221" lon="4.41051">
        <ele>95.79</ele>
        <time>2014-03-23T11:06:24Z</time>
      </trkpt>
      <trkpt lat="44.38228" lon="4.41028">
        <ele>96.27</ele>
        <time>2014-03-23T11:06:28Z</time>
      </trkpt>
      <trkpt lat="44.38235" lon="4.41012">
        <ele>97.23</ele>
        <time>2014-03-23T11:06:31Z</time>
      </trkpt>
      <trkpt lat="44.38249" lon="4.40967">
        <ele>98.19</ele>
        <time>2014-03-23T11:06:39Z</time>
      </trkpt>
      <trkpt lat="44.38251" lon="4.40961">
        <ele>98.19</ele>
        <time>2014-03-23T11:06:40Z</time>
      </trkpt>
      <trkpt lat="44.38255" lon="4.40949">
        <ele>98.19</ele>
        <time>2014-03-23T11:06:42Z</time>
      </trkpt>
      <trkpt lat="44.38277" lon="4.40863">
        <ele>98.19</ele>
        <time>2014-03-23T11:06:55Z</time>
      </trkpt>
      <trkpt lat="44.38297" lon="4.40825">
        <ele>99.15</ele>
        <time>2014-03-23T11:07:02Z</time>
      </trkpt>
      <trkpt lat="44.38301" lon="4.40821">
        <ele>99.63</ele>
        <time>2014-03-23T11:07:03Z</time>
      </trkpt>
      <trkpt lat="44.38305" lon="4.40818">
        <ele>100.11</ele>
        <time>2014-03-23T11:07:04Z</time>
      </trkpt>
      <trkpt lat="44.3831" lon="4.40815">
        <ele>100.11</ele>
        <time>2014-03-23T11:07:05Z</time>
      </trkpt>
      <trkpt lat="44.3832" lon="4.40812">
        <ele>99.63</ele>
        <time>2014-03-23T11:07:07Z</time>
      </trkpt>
      <trkpt lat="44.38329" lon="4.4081">
        <ele>99.15</ele>
        <time>2014-03-23T11:07:09Z</time>
      </trkpt>
      <trkpt lat="44.38343" lon="4.4081">
        <ele>99.15</ele>
        <time>2014-03-23T11:07:12Z</time>
      </trkpt>
      <trkpt lat="44.38347" lon="4.40809">
        <ele>99.15</ele>
        <time>2014-03-23T11:07:13Z</time>
      </trkpt>
      <trkpt lat="44.38364" lon="4.40805">
        <ele>99.15</ele>
        <time>2014-03-23T11:07:17Z</time>
      </trkpt>
      <trkpt lat="44.38368" lon="4.40805">
        <ele>98.67</ele>
        <time>2014-03-23T11:07:18Z</time>
      </trkpt>
      <trkpt lat="44.38373" lon="4.40806">
        <ele>98.67</ele>
        <time>2014-03-23T11:07:19Z</time>
      </trkpt>
      <trkpt lat="44.38377" lon="4.40807">
        <ele>98.67</ele>
        <time>2014-03-23T11:07:20Z</time>
      </trkpt>
      <trkpt lat="44.38382" lon="4.40809">
        <ele>98.19</ele>
        <time>2014-03-23T11:07:21Z</time>
      </trkpt>
      <trkpt lat="44.38386" lon="4.40812">
        <ele>98.19</ele>
        <time>2014-03-23T11:07:22Z</time>
      </trkpt>
      <trkpt lat="44.38389" lon="4.40816">
        <ele>97.71</ele>
        <time>2014-03-23T11:07:23Z</time>
      </trkpt>
      <trkpt lat="44.38393" lon="4.4082">
        <ele>97.71</ele>
        <time>2014-03-23T11:07:24Z</time>
      </trkpt>
      <trkpt lat="44.38395" lon="4.40825">
        <ele>97.71</ele>
        <time>2014-03-23T11:07:25Z</time>
      </trkpt>
      <trkpt lat="44.38401" lon="4.40833">
        <ele>97.71</ele>
        <time>2014-03-23T11:07:27Z</time>
      </trkpt>
      <trkpt lat="44.38404" lon="4.40837">
        <ele>97.23</ele>
        <time>2014-03-23T11:07:28Z</time>
      </trkpt>
      <trkpt lat="44.3841" lon="4.40843">
        <ele>95.79</ele>
        <time>2014-03-23T11:07:30Z</time>
      </trkpt>
      <trkpt lat="44.38438" lon="4.40862">
        <ele>96.27</ele>
        <time>2014-03-23T11:07:37Z</time>
      </trkpt>
      <trkpt lat="44.38443" lon="4.40864">
        <ele>96.27</ele>
        <time>2014-03-23T11:07:38Z</time>
      </trkpt>
      <trkpt lat="44.38447" lon="4.40865">
        <ele>96.75</ele>
        <time>2014-03-23T11:07:39Z</time>
      </trkpt>
      <trkpt lat="44.38452" lon="4.40866">
        <ele>96.75</ele>
        <time>2014-03-23T11:07:40Z</time>
      </trkpt>
      <trkpt lat="44.38458" lon="4.40868">
        <ele>96.75</ele>
        <time>2014-03-23T11:07:41Z</time>
      </trkpt>
      <trkpt lat="44.38472" lon="4.40873">
        <ele>95.31</ele>
        <time>2014-03-23T11:07:44Z</time>
      </trkpt>
      <trkpt lat="44.38504" lon="4.40882">
        <ele>97.23</ele>
        <time>2014-03-23T11:07:51Z</time>
      </trkpt>
      <trkpt lat="44.38508" lon="4.40884">
        <ele>97.23</ele>
        <time>2014-03-23T11:07:52Z</time>
      </trkpt>
      <trkpt lat="44.38545" lon="4.40892">
        <ele>96.27</ele>
        <time>2014-03-23T11:07:59Z</time>
      </trkpt>
      <trkpt lat="44.3855" lon="4.40892">
        <ele>96.27</ele>
        <time>2014-03-23T11:08:00Z</time>
      </trkpt>
      <trkpt lat="44.38562" lon="4.40891">
        <ele>95.31</ele>
        <time>2014-03-23T11:08:02Z</time>
      </trkpt>
      <trkpt lat="44.38567" lon="4.4089">
        <ele>94.83</ele>
        <time>2014-03-23T11:08:03Z</time>
      </trkpt>
      <trkpt lat="44.38634" lon="4.40875">
        <ele>95.31</ele>
        <time>2014-03-23T11:08:14Z</time>
      </trkpt>
      <trkpt lat="44.38641" lon="4.40871">
        <ele>94.35</ele>
        <time>2014-03-23T11:08:15Z</time>
      </trkpt>
      <trkpt lat="44.38648" lon="4.40866">
        <ele>94.35</ele>
        <time>2014-03-23T11:08:16Z</time>
      </trkpt>
      <trkpt lat="44.38655" lon="4.40862">
        <ele>93.87</ele>
        <time>2014-03-23T11:08:17Z</time>
      </trkpt>
      <trkpt lat="44.38662" lon="4.40861">
        <ele>93.87</ele>
        <time>2014-03-23T11:08:18Z</time>
      </trkpt>
      <trkpt lat="44.38669" lon="4.4086">
        <ele>93.39</ele>
        <time>2014-03-23T11:08:19Z</time>
      </trkpt>
      <trkpt lat="44.38676" lon="4.40859">
        <ele>92.9</ele>
        <time>2014-03-23T11:08:20Z</time>
      </trkpt>
      <trkpt lat="44.38717" lon="4.40856">
        <ele>90.02</ele>
        <time>2014-03-23T11:08:26Z</time>
      </trkpt>
      <trkpt lat="44.38733" lon="4.40855">
        <ele>90.02</ele>
        <time>2014-03-23T11:08:28Z</time>
      </trkpt>
      <trkpt lat="44.3877" lon="4.4085">
        <ele>89.54</ele>
        <time>2014-03-23T11:08:33Z</time>
      </trkpt>
      <trkpt lat="44.38778" lon="4.40848">
        <ele>89.06</ele>
        <time>2014-03-23T11:08:34Z</time>
      </trkpt>
      <trkpt lat="44.38785" lon="4.40846">
        <ele>89.06</ele>
        <time>2014-03-23T11:08:35Z</time>
      </trkpt>
      <trkpt lat="44.38792" lon="4.40843">
        <ele>88.58</ele>
        <time>2014-03-23T11:08:36Z</time>
      </trkpt>
      <trkpt lat="44.38798" lon="4.40838">
        <ele>89.06</ele>
        <time>2014-03-23T11:08:37Z</time>
      </trkpt>
      <trkpt lat="44.38804" lon="4.40832">
        <ele>89.06</ele>
        <time>2014-03-23T11:08:38Z</time>
      </trkpt>
      <trkpt lat="44.38809" lon="4.40826">
        <ele>89.06</ele>
        <time>2014-03-23T11:08:39Z</time>
      </trkpt>
      <trkpt lat="44.38836" lon="4.40795">
        <ele>90.5</ele>
        <time>2014-03-23T11:08:45Z</time>
      </trkpt>
      <trkpt lat="44.38839" lon="4.40792">
        <ele>90.5</ele>
        <time>2014-03-23T11:08:46Z</time>
      </trkpt>
      <trkpt lat="44.38846" lon="4.40784">
        <ele>90.5</ele>
        <time>2014-03-23T11:08:48Z</time>
      </trkpt>
      <trkpt lat="44.3885" lon="4.40781">
        <ele>91.94</ele>
        <time>2014-03-23T11:08:49Z</time>
      </trkpt>
      <trkpt lat="44.38858" lon="4.40776">
        <ele>92.9</ele>
        <time>2014-03-23T11:08:51Z</time>
      </trkpt>
      <trkpt lat="44.38862" lon="4.40774">
        <ele>93.39</ele>
        <time>2014-03-23T11:08:52Z</time>
      </trkpt>
      <trkpt lat="44.3887" lon="4.4077">
        <ele>93.39</ele>
        <time>2014-03-23T11:08:54Z</time>
      </trkpt>
      <trkpt lat="44.38874" lon="4.4077">
        <ele>93.39</ele>
        <time>2014-03-23T11:08:55Z</time>
      </trkpt>
      <trkpt lat="44.38878" lon="4.40771">
        <ele>92.9</ele>
        <time>2014-03-23T11:08:56Z</time>
      </trkpt>
      <trkpt lat="44.38912" lon="4.40774">
        <ele>93.87</ele>
        <time>2014-03-23T11:09:06Z</time>
      </trkpt>
      <trkpt lat="44.38945" lon="4.40731">
        <ele>94.83</ele>
        <time>2014-03-23T11:09:18Z</time>
      </trkpt>
      <trkpt lat="44.38972" lon="4.40671">
        <ele>96.27</ele>
        <time>2014-03-23T11:09:31Z</time>
      </trkpt>
      <trkpt lat="44.38984" lon="4.40621">
        <ele>95.79</ele>
        <time>2014-03-23T11:09:40Z</time>
      </trkpt>
      <trkpt lat="44.38986" lon="4.40616">
        <ele>95.79</ele>
        <time>2014-03-23T11:09:41Z</time>
      </trkpt>
      <trkpt lat="44.38999" lon="4.40594">
        <ele>95.79</ele>
        <time>2014-03-23T11:09:46Z</time>
      </trkpt>
      <trkpt lat="44.39014" lon="4.40573">
        <ele>96.27</ele>
        <time>2014-03-23T11:09:51Z</time>
      </trkpt>
      <trkpt lat="44.39017" lon="4.4057">
        <ele>95.79</ele>
        <time>2014-03-23T11:09:52Z</time>
      </trkpt>
      <trkpt lat="44.39038" lon="4.40553">
        <ele>96.75</ele>
        <time>2014-03-23T11:09:58Z</time>
      </trkpt>
      <trkpt lat="44.39083" lon="4.40493">
        <ele>97.71</ele>
        <time>2014-03-23T11:10:13Z</time>
      </trkpt>
      <trkpt lat="44.39093" lon="4.40473">
        <ele>97.23</ele>
        <time>2014-03-23T11:10:17Z</time>
      </trkpt>
      <trkpt lat="44.39095" lon="4.40468">
        <ele>97.23</ele>
        <time>2014-03-23T11:10:18Z</time>
      </trkpt>
      <trkpt lat="44.39098" lon="4.40444">
        <ele>97.71</ele>
        <time>2014-03-23T11:10:22Z</time>
      </trkpt>
      <trkpt lat="44.39095" lon="4.40376">
        <ele>97.71</ele>
        <time>2014-03-23T11:10:32Z</time>
      </trkpt>
      <trkpt lat="44.39092" lon="4.40324">
        <ele>98.19</ele>
        <time>2014-03-23T11:10:40Z</time>
      </trkpt>
      <trkpt lat="44.39108" lon="4.4027">
        <ele>98.67</ele>
        <time>2014-03-23T11:10:49Z</time>
      </trkpt>
      <trkpt lat="44.39145" lon="4.402">
        <ele>98.67</ele>
        <time>2014-03-23T11:11:04Z</time>
      </trkpt>
      <trkpt lat="44.39191" lon="4.40176">
        <ele>99.15</ele>
        <time>2014-03-23T11:11:17Z</time>
      </trkpt>
      <trkpt lat="44.39199" lon="4.40178">
        <ele>98.67</ele>
        <time>2014-03-23T11:11:19Z</time>
      </trkpt>
      <trkpt lat="44.39203" lon="4.4018">
        <ele>99.15</ele>
        <time>2014-03-23T11:11:20Z</time>
      </trkpt>
      <trkpt lat="44.39208" lon="4.40182">
        <ele>98.67</ele>
        <time>2014-03-23T11:11:21Z</time>
      </trkpt>
      <trkpt lat="44.39212" lon="4.40185">
        <ele>98.19</ele>
        <time>2014-03-23T11:11:22Z</time>
      </trkpt>
      <trkpt lat="44.39216" lon="4.40188">
        <ele>98.19</ele>
        <time>2014-03-23T11:11:23Z</time>
      </trkpt>
      <trkpt lat="44.39221" lon="4.40193">
        <ele>97.71</ele>
        <time>2014-03-23T11:11:24Z</time>
      </trkpt>
      <trkpt lat="44.39224" lon="4.40198">
        <ele>97.71</ele>
        <time>2014-03-23T11:11:25Z</time>
      </trkpt>
      <trkpt lat="44.39228" lon="4.40204">
        <ele>97.23</ele>
        <time>2014-03-23T11:11:26Z</time>
      </trkpt>
      <trkpt lat="44.39265" lon="4.40257">
        <ele>94.35</ele>
        <time>2014-03-23T11:11:34Z</time>
      </trkpt>
      <trkpt lat="44.39297" lon="4.40326">
        <ele>90.98</ele>
        <time>2014-03-23T11:11:43Z</time>
      </trkpt>
      <trkpt lat="44.39312" lon="4.40367">
        <ele>89.54</ele>
        <time>2014-03-23T11:11:48Z</time>
      </trkpt>
      <trkpt lat="44.39316" lon="4.40374">
        <ele>89.54</ele>
        <time>2014-03-23T11:11:49Z</time>
      </trkpt>
      <trkpt lat="44.39321" lon="4.4038">
        <ele>88.58</ele>
        <time>2014-03-23T11:11:50Z</time>
      </trkpt>
      <trkpt lat="44.39327" lon="4.40385">
        <ele>88.58</ele>
        <time>2014-03-23T11:11:51Z</time>
      </trkpt>
      <trkpt lat="44.39334" lon="4.40388">
        <ele>88.58</ele>
        <time>2014-03-23T11:11:52Z</time>
      </trkpt>
      <trkpt lat="44.3934" lon="4.4039">
        <ele>88.58</ele>
        <time>2014-03-23T11:11:53Z</time>
      </trkpt>
      <trkpt lat="44.39347" lon="4.4039">
        <ele>88.1</ele>
        <time>2014-03-23T11:11:54Z</time>
      </trkpt>
      <trkpt lat="44.39353" lon="4.4039">
        <ele>87.62</ele>
        <time>2014-03-23T11:11:55Z</time>
      </trkpt>
      <trkpt lat="44.3936" lon="4.40389">
        <ele>88.1</ele>
        <time>2014-03-23T11:11:56Z</time>
      </trkpt>
      <trkpt lat="44.394" lon="4.4038">
        <ele>86.66</ele>
        <time>2014-03-23T11:12:03Z</time>
      </trkpt>
      <trkpt lat="44.39445" lon="4.4037">
        <ele>86.66</ele>
        <time>2014-03-23T11:12:12Z</time>
      </trkpt>
      <trkpt lat="44.39455" lon="4.40368">
        <ele>87.14</ele>
        <time>2014-03-23T11:12:14Z</time>
      </trkpt>
      <trkpt lat="44.39497" lon="4.40359">
        <ele>86.18</ele>
        <time>2014-03-23T11:12:23Z</time>
      </trkpt>
      <trkpt lat="44.39502" lon="4.40357">
        <ele>86.66</ele>
        <time>2014-03-23T11:12:24Z</time>
      </trkpt>
      <trkpt lat="44.3959" lon="4.40337">
        <ele>86.66</ele>
        <time>2014-03-23T11:12:43Z</time>
      </trkpt>
      <trkpt lat="44.39599" lon="4.40334">
        <ele>86.66</ele>
        <time>2014-03-23T11:12:45Z</time>
      </trkpt>
      <trkpt lat="44.39604" lon="4.40332">
        <ele>86.66</ele>
        <time>2014-03-23T11:12:46Z</time>
      </trkpt>
      <trkpt lat="44.39613" lon="4.40327">
        <ele>87.14</ele>
        <time>2014-03-23T11:12:48Z</time>
      </trkpt>
      <trkpt lat="44.39626" lon="4.40316">
        <ele>87.14</ele>
        <time>2014-03-23T11:12:51Z</time>
      </trkpt>
      <trkpt lat="44.3963" lon="4.40312">
        <ele>87.14</ele>
        <time>2014-03-23T11:12:52Z</time>
      </trkpt>
      <trkpt lat="44.39663" lon="4.40278">
        <ele>87.14</ele>
        <time>2014-03-23T11:13:00Z</time>
      </trkpt>
      <trkpt lat="44.39732" lon="4.40192">
        <ele>88.1</ele>
        <time>2014-03-23T11:13:17Z</time>
      </trkpt>
      <trkpt lat="44.39757" lon="4.40133">
        <ele>86.66</ele>
        <time>2014-03-23T11:13:26Z</time>
      </trkpt>
      <trkpt lat="44.3976" lon="4.40126">
        <ele>86.66</ele>
        <time>2014-03-23T11:13:27Z</time>
      </trkpt>
      <trkpt lat="44.39804" lon="4.40015">
        <ele>87.62</ele>
        <time>2014-03-23T11:13:44Z</time>
      </trkpt>
      <trkpt lat="44.39823" lon="4.39928">
        <ele>87.62</ele>
        <time>2014-03-23T11:13:56Z</time>
      </trkpt>
      <trkpt lat="44.39824" lon="4.39921">
        <ele>87.62</ele>
        <time>2014-03-23T11:13:57Z</time>
      </trkpt>
      <trkpt lat="44.39837" lon="4.39849">
        <ele>87.14</ele>
        <time>2014-03-23T11:14:07Z</time>
      </trkpt>
      <trkpt lat="44.39838" lon="4.39842">
        <ele>87.14</ele>
        <time>2014-03-23T11:14:08Z</time>
      </trkpt>
      <trkpt lat="44.39839" lon="4.39835">
        <ele>86.66</ele>
        <time>2014-03-23T11:14:09Z</time>
      </trkpt>
      <trkpt lat="44.39844" lon="4.39762">
        <ele>85.69</ele>
        <time>2014-03-23T11:14:21Z</time>
      </trkpt>
      <trkpt lat="44.39843" lon="4.39756">
        <ele>86.18</ele>
        <time>2014-03-23T11:14:22Z</time>
      </trkpt>
      <trkpt lat="44.39841" lon="4.39701">
        <ele>84.73</ele>
        <time>2014-03-23T11:14:31Z</time>
      </trkpt>
      <trkpt lat="44.39841" lon="4.3968">
        <ele>85.21</ele>
        <time>2014-03-23T11:14:34Z</time>
      </trkpt>
      <trkpt lat="44.39853" lon="4.39616">
        <ele>86.66</ele>
        <time>2014-03-23T11:14:44Z</time>
      </trkpt>
      <trkpt lat="44.39855" lon="4.39611">
        <ele>86.66</ele>
        <time>2014-03-23T11:14:45Z</time>
      </trkpt>
      <trkpt lat="44.39858" lon="4.39606">
        <ele>86.66</ele>
        <time>2014-03-23T11:14:46Z</time>
      </trkpt>
      <trkpt lat="44.39861" lon="4.39601">
        <ele>86.66</ele>
        <time>2014-03-23T11:14:47Z</time>
      </trkpt>
      <trkpt lat="44.39865" lon="4.39598">
        <ele>86.66</ele>
        <time>2014-03-23T11:14:48Z</time>
      </trkpt>
      <trkpt lat="44.39868" lon="4.39594">
        <ele>86.18</ele>
        <time>2014-03-23T11:14:49Z</time>
      </trkpt>
      <trkpt lat="44.39871" lon="4.3959">
        <ele>86.66</ele>
        <time>2014-03-23T11:14:50Z</time>
      </trkpt>
      <trkpt lat="44.39874" lon="4.39585">
        <ele>86.66</ele>
        <time>2014-03-23T11:14:51Z</time>
      </trkpt>
      <trkpt lat="44.39875" lon="4.39579">
        <ele>87.14</ele>
        <time>2014-03-23T11:14:52Z</time>
      </trkpt>
      <trkpt lat="44.39876" lon="4.39573">
        <ele>86.66</ele>
        <time>2014-03-23T11:14:53Z</time>
      </trkpt>
      <trkpt lat="44.39875" lon="4.39567">
        <ele>86.66</ele>
        <time>2014-03-23T11:14:54Z</time>
      </trkpt>
      <trkpt lat="44.39873" lon="4.3956">
        <ele>86.66</ele>
        <time>2014-03-23T11:14:55Z</time>
      </trkpt>
      <trkpt lat="44.39871" lon="4.39554">
        <ele>86.66</ele>
        <time>2014-03-23T11:14:56Z</time>
      </trkpt>
      <trkpt lat="44.39866" lon="4.39542">
        <ele>86.18</ele>
        <time>2014-03-23T11:14:58Z</time>
      </trkpt>
      <trkpt lat="44.39864" lon="4.39536">
        <ele>86.18</ele>
        <time>2014-03-23T11:14:59Z</time>
      </trkpt>
      <trkpt lat="44.39863" lon="4.39529">
        <ele>86.18</ele>
        <time>2014-03-23T11:15:00Z</time>
      </trkpt>
      <trkpt lat="44.39862" lon="4.39523">
        <ele>87.14</ele>
        <time>2014-03-23T11:15:01Z</time>
      </trkpt>
      <trkpt lat="44.39862" lon="4.39516">
        <ele>86.66</ele>
        <time>2014-03-23T11:15:02Z</time>
      </trkpt>
      <trkpt lat="44.39862" lon="4.39509">
        <ele>86.66</ele>
        <time>2014-03-23T11:15:03Z</time>
      </trkpt>
      <trkpt lat="44.39872" lon="4.39402">
        <ele>86.66</ele>
        <time>2014-03-23T11:15:19Z</time>
      </trkpt>
      <trkpt lat="44.39886" lon="4.3928">
        <ele>88.1</ele>
        <time>2014-03-23T11:15:37Z</time>
      </trkpt>
      <trkpt lat="44.39888" lon="4.39254">
        <ele>88.1</ele>
        <time>2014-03-23T11:15:41Z</time>
      </trkpt>
      <trkpt lat="44.39892" lon="4.39216">
        <ele>89.06</ele>
        <time>2014-03-23T11:15:47Z</time>
      </trkpt>
      <trkpt lat="44.39893" lon="4.39209">
        <ele>89.06</ele>
        <time>2014-03-23T11:15:48Z</time>
      </trkpt>
      <trkpt lat="44.39905" lon="4.39094">
        <ele>90.98</ele>
        <time>2014-03-23T11:16:07Z</time>
      </trkpt>
      <trkpt lat="44.39928" lon="4.38991">
        <ele>92.9</ele>
        <time>2014-03-23T11:16:25Z</time>
      </trkpt>
      <trkpt lat="44.3995" lon="4.38932">
        <ele>94.83</ele>
        <time>2014-03-23T11:16:38Z</time>
      </trkpt>
      <trkpt lat="44.39976" lon="4.3888">
        <ele>97.23</ele>
        <time>2014-03-23T11:16:52Z</time>
      </trkpt>
      <trkpt lat="44.39997" lon="4.38848">
        <ele>99.63</ele>
        <time>2014-03-23T11:17:02Z</time>
      </trkpt>
      <trkpt lat="44.40014" lon="4.38824">
        <ele>102.52</ele>
        <time>2014-03-23T11:17:11Z</time>
      </trkpt>
      <trkpt lat="44.40016" lon="4.38821">
        <ele>102.52</ele>
        <time>2014-03-23T11:17:12Z</time>
      </trkpt>
      <trkpt lat="44.40037" lon="4.38805">
        <ele>103.96</ele>
        <time>2014-03-23T11:17:21Z</time>
      </trkpt>
      <trkpt lat="44.40054" lon="4.38832">
        <ele>104.92</ele>
        <time>2014-03-23T11:17:31Z</time>
      </trkpt>
      <trkpt lat="44.40061" lon="4.38845">
        <ele>105.88</ele>
        <time>2014-03-23T11:17:38Z</time>
      </trkpt>
      <trkpt lat="44.40062" lon="4.38846">
        <ele>106.36</ele>
        <time>2014-03-23T11:17:39Z</time>
      </trkpt>
      <trkpt lat="44.40063" lon="4.38845">
        <ele>106.36</ele>
        <time>2014-03-23T11:17:40Z</time>
      </trkpt>
      <trkpt lat="44.40064" lon="4.38843">
        <ele>106.84</ele>
        <time>2014-03-23T11:17:41Z</time>
      </trkpt>
      <trkpt lat="44.40064" lon="4.38841">
        <ele>106.84</ele>
        <time>2014-03-23T11:17:42Z</time>
      </trkpt>
      <trkpt lat="44.40064" lon="4.38839">
        <ele>106.84</ele>
        <time>2014-03-23T11:17:43Z</time>
      </trkpt>
      <trkpt lat="44.40063" lon="4.38836">
        <ele>106.84</ele>
        <time>2014-03-23T11:17:44Z</time>
      </trkpt>
      <trkpt lat="44.40062" lon="4.38833">
        <ele>106.84</ele>
        <time>2014-03-23T11:17:45Z</time>
      </trkpt>
      <trkpt lat="44.40061" lon="4.3883">
        <ele>106.36</ele>
        <time>2014-03-23T11:17:46Z</time>
      </trkpt>
      <trkpt lat="44.4006" lon="4.38827">
        <ele>106.36</ele>
        <time>2014-03-23T11:17:47Z</time>
      </trkpt>
      <trkpt lat="44.40059" lon="4.38825">
        <ele>106.36</ele>
        <time>2014-03-23T11:17:48Z</time>
      </trkpt>
      <trkpt lat="44.40057" lon="4.38824">
        <ele>106.36</ele>
        <time>2014-03-23T11:17:49Z</time>
      </trkpt>
      <trkpt lat="44.40055" lon="4.38826">
        <ele>106.36</ele>
        <time>2014-03-23T11:17:50Z</time>
      </trkpt>
      <trkpt lat="44.40055" lon="4.38829">
        <ele>105.88</ele>
        <time>2014-03-23T11:17:51Z</time>
      </trkpt>
      <trkpt lat="44.40057" lon="4.38833">
        <ele>105.4</ele>
        <time>2014-03-23T11:17:52Z</time>
      </trkpt>
      <trkpt lat="44.40058" lon="4.38837">
        <ele>105.4</ele>
        <time>2014-03-23T11:17:53Z</time>
      </trkpt>
      <trkpt lat="44.4006" lon="4.38841">
        <ele>105.4</ele>
        <time>2014-03-23T11:17:54Z</time>
      </trkpt>
      <trkpt lat="44.40087" lon="4.3889">
        <ele>107.32</ele>
        <time>2014-03-23T11:18:08Z</time>
      </trkpt>
      <trkpt lat="44.40112" lon="4.38935">
        <ele>108.77</ele>
        <time>2014-03-23T11:18:21Z</time>
      </trkpt>
      <trkpt lat="44.40146" lon="4.38993">
        <ele>111.17</ele>
        <time>2014-03-23T11:18:35Z</time>
      </trkpt>
      <trkpt lat="44.40152" lon="4.39003">
        <ele>110.21</ele>
        <time>2014-03-23T11:18:37Z</time>
      </trkpt>
      <trkpt lat="44.40154" lon="4.39007">
        <ele>109.73</ele>
        <time>2014-03-23T11:18:38Z</time>
      </trkpt>
      <trkpt lat="44.40181" lon="4.39056">
        <ele>110.69</ele>
        <time>2014-03-23T11:18:49Z</time>
      </trkpt>
      <trkpt lat="44.40184" lon="4.3906">
        <ele>110.69</ele>
        <time>2014-03-23T11:18:50Z</time>
      </trkpt>
      <trkpt lat="44.40192" lon="4.39074">
        <ele>111.17</ele>
        <time>2014-03-23T11:18:53Z</time>
      </trkpt>
      <trkpt lat="44.40194" lon="4.39079">
        <ele>111.17</ele>
        <time>2014-03-23T11:18:54Z</time>
      </trkpt>
      <trkpt lat="44.40197" lon="4.39083">
        <ele>111.17</ele>
        <time>2014-03-23T11:18:55Z</time>
      </trkpt>
      <trkpt lat="44.40221" lon="4.39125">
        <ele>112.13</ele>
        <time>2014-03-23T11:19:04Z</time>
      </trkpt>
      <trkpt lat="44.40258" lon="4.39175">
        <ele>112.61</ele>
        <time>2014-03-23T11:19:18Z</time>
      </trkpt>
      <trkpt lat="44.40263" lon="4.39179">
        <ele>113.09</ele>
        <time>2014-03-23T11:19:21Z</time>
      </trkpt>
      <trkpt lat="44.40264" lon="4.39177">
        <ele>113.09</ele>
        <time>2014-03-23T11:19:22Z</time>
      </trkpt>
      <trkpt lat="44.40261" lon="4.39173">
        <ele>113.09</ele>
        <time>2014-03-23T11:19:24Z</time>
      </trkpt>
      <trkpt lat="44.40253" lon="4.39163">
        <ele>112.61</ele>
        <time>2014-03-23T11:19:30Z</time>
      </trkpt>
      <trkpt lat="44.4025" lon="4.39165">
        <ele>112.61</ele>
        <time>2014-03-23T11:19:33Z</time>
      </trkpt>
      <trkpt lat="44.40255" lon="4.3917">
        <ele>113.09</ele>
        <time>2014-03-23T11:19:37Z</time>
      </trkpt>
      <trkpt lat="44.40258" lon="4.39178">
        <ele>113.09</ele>
        <time>2014-03-23T11:19:50Z</time>
      </trkpt>
      <trkpt lat="44.4026" lon="4.3918">
        <ele>113.09</ele>
        <time>2014-03-23T11:19:53Z</time>
      </trkpt>
      <trkpt lat="44.40276" lon="4.39195">
        <ele>112.61</ele>
        <time>2014-03-23T11:20:02Z</time>
      </trkpt>
      <trkpt lat="44.40297" lon="4.39213">
        <ele>111.65</ele>
        <time>2014-03-23T11:20:13Z</time>
      </trkpt>
      <trkpt lat="44.40339" lon="4.39242">
        <ele>113.09</ele>
        <time>2014-03-23T11:20:28Z</time>
      </trkpt>
      <trkpt lat="44.40372" lon="4.39262">
        <ele>113.57</ele>
        <time>2014-03-23T11:20:38Z</time>
      </trkpt>
      <trkpt lat="44.40418" lon="4.39292">
        <ele>113.09</ele>
        <time>2014-03-23T11:20:52Z</time>
      </trkpt>
      <trkpt lat="44.40472" lon="4.39324">
        <ele>112.61</ele>
        <time>2014-03-23T11:21:08Z</time>
      </trkpt>
      <trkpt lat="44.40524" lon="4.39356">
        <ele>113.09</ele>
        <time>2014-03-23T11:21:24Z</time>
      </trkpt>
      <trkpt lat="44.4054" lon="4.39365">
        <ele>114.05</ele>
        <time>2014-03-23T11:21:29Z</time>
      </trkpt>
      <trkpt lat="44.4055" lon="4.39371">
        <ele>114.05</ele>
        <time>2014-03-23T11:21:33Z</time>
      </trkpt>
      <trkpt lat="44.40557" lon="4.39379">
        <ele>114.53</ele>
        <time>2014-03-23T11:21:44Z</time>
      </trkpt>
      <trkpt lat="44.40544" lon="4.39365">
        <ele>114.05</ele>
        <time>2014-03-23T11:21:52Z</time>
      </trkpt>
      <trkpt lat="44.40506" lon="4.39345">
        <ele>113.57</ele>
        <time>2014-03-23T11:22:05Z</time>
      </trkpt>
      <trkpt lat="44.40503" lon="4.39343">
        <ele>113.57</ele>
        <time>2014-03-23T11:22:06Z</time>
      </trkpt>
      <trkpt lat="44.40439" lon="4.39302">
        <ele>113.57</ele>
        <time>2014-03-23T11:22:21Z</time>
      </trkpt>
      <trkpt lat="44.40435" lon="4.39298">
        <ele>113.09</ele>
        <time>2014-03-23T11:22:22Z</time>
      </trkpt>
      <trkpt lat="44.4043" lon="4.39295">
        <ele>113.57</ele>
        <time>2014-03-23T11:22:23Z</time>
      </trkpt>
      <trkpt lat="44.40425" lon="4.39292">
        <ele>113.09</ele>
        <time>2014-03-23T11:22:24Z</time>
      </trkpt>
      <trkpt lat="44.4042" lon="4.39289">
        <ele>113.09</ele>
        <time>2014-03-23T11:22:25Z</time>
      </trkpt>
      <trkpt lat="44.40395" lon="4.39273">
        <ele>113.09</ele>
        <time>2014-03-23T11:22:30Z</time>
      </trkpt>
      <trkpt lat="44.40381" lon="4.39261">
        <ele>113.57</ele>
        <time>2014-03-23T11:22:33Z</time>
      </trkpt>
      <trkpt lat="44.40376" lon="4.39258">
        <ele>113.57</ele>
        <time>2014-03-23T11:22:34Z</time>
      </trkpt>
      <trkpt lat="44.40318" lon="4.39224">
        <ele>113.57</ele>
        <time>2014-03-23T11:22:46Z</time>
      </trkpt>
      <trkpt lat="44.40313" lon="4.39224">
        <ele>113.57</ele>
        <time>2014-03-23T11:22:47Z</time>
      </trkpt>
      <trkpt lat="44.4031" lon="4.39225">
        <ele>113.57</ele>
        <time>2014-03-23T11:22:48Z</time>
      </trkpt>
      <trkpt lat="44.40306" lon="4.39226">
        <ele>114.05</ele>
        <time>2014-03-23T11:22:49Z</time>
      </trkpt>
      <trkpt lat="44.40303" lon="4.39225">
        <ele>114.05</ele>
        <time>2014-03-23T11:22:50Z</time>
      </trkpt>
      <trkpt lat="44.40301" lon="4.39224">
        <ele>114.05</ele>
        <time>2014-03-23T11:22:51Z</time>
      </trkpt>
      <trkpt lat="44.40299" lon="4.39222">
        <ele>114.05</ele>
        <time>2014-03-23T11:22:52Z</time>
      </trkpt>
      <trkpt lat="44.40298" lon="4.39221">
        <ele>114.05</ele>
        <time>2014-03-23T11:22:53Z</time>
      </trkpt>
      <trkpt lat="44.40294" lon="4.39219">
        <ele>114.53</ele>
        <time>2014-03-23T11:23:03Z</time>
      </trkpt>
      <trkpt lat="44.40294" lon="4.39217">
        <ele>114.05</ele>
        <time>2014-03-23T11:23:11Z</time>
      </trkpt>
      <trkpt lat="44.40293" lon="4.39217">
        <ele>119.82</ele>
        <time>2014-03-23T12:52:25Z</time>
      </trkpt>
      <trkpt lat="44.40293" lon="4.39215">
        <ele>119.82</ele>
        <time>2014-03-23T12:52:26Z</time>
      </trkpt>
      <trkpt lat="44.40296" lon="4.39221">
        <ele>120.3</ele>
        <time>2014-03-23T12:52:41Z</time>
      </trkpt>
      <trkpt lat="44.40301" lon="4.39225">
        <ele>120.3</ele>
        <time>2014-03-23T12:52:50Z</time>
      </trkpt>
      <trkpt lat="44.40307" lon="4.39225">
        <ele>120.3</ele>
        <time>2014-03-23T12:52:54Z</time>
      </trkpt>
      <trkpt lat="44.4031" lon="4.39225">
        <ele>119.82</ele>
        <time>2014-03-23T12:52:56Z</time>
      </trkpt>
      <trkpt lat="44.40316" lon="4.39225">
        <ele>119.82</ele>
        <time>2014-03-23T12:53:01Z</time>
      </trkpt>
      <trkpt lat="44.40343" lon="4.39245">
        <ele>119.82</ele>
        <time>2014-03-23T12:53:13Z</time>
      </trkpt>
      <trkpt lat="44.40354" lon="4.39251">
        <ele>119.82</ele>
        <time>2014-03-23T12:53:17Z</time>
      </trkpt>
      <trkpt lat="44.40359" lon="4.39231">
        <ele>119.82</ele>
        <time>2014-03-23T12:53:25Z</time>
      </trkpt>
      <trkpt lat="44.40396" lon="4.39203">
        <ele>121.26</ele>
        <time>2014-03-23T12:53:40Z</time>
      </trkpt>
      <trkpt lat="44.40412" lon="4.39189">
        <ele>121.74</ele>
        <time>2014-03-23T12:53:47Z</time>
      </trkpt>
      <trkpt lat="44.40425" lon="4.39195">
        <ele>122.71</ele>
        <time>2014-03-23T12:53:53Z</time>
      </trkpt>
      <trkpt lat="44.40457" lon="4.39237">
        <ele>122.71</ele>
        <time>2014-03-23T12:54:07Z</time>
      </trkpt>
      <trkpt lat="44.40502" lon="4.39296">
        <ele>122.71</ele>
        <time>2014-03-23T12:54:23Z</time>
      </trkpt>
      <trkpt lat="44.40508" lon="4.39303">
        <ele>122.22</ele>
        <time>2014-03-23T12:54:25Z</time>
      </trkpt>
      <trkpt lat="44.40511" lon="4.39306">
        <ele>122.22</ele>
        <time>2014-03-23T12:54:26Z</time>
      </trkpt>
      <trkpt lat="44.40515" lon="4.39309">
        <ele>122.22</ele>
        <time>2014-03-23T12:54:27Z</time>
      </trkpt>
      <trkpt lat="44.40519" lon="4.39312">
        <ele>122.22</ele>
        <time>2014-03-23T12:54:28Z</time>
      </trkpt>
      <trkpt lat="44.40521" lon="4.39315">
        <ele>122.22</ele>
        <time>2014-03-23T12:54:29Z</time>
      </trkpt>
      <trkpt lat="44.40524" lon="4.39319">
        <ele>122.22</ele>
        <time>2014-03-23T12:54:30Z</time>
      </trkpt>
      <trkpt lat="44.40525" lon="4.3932">
        <ele>122.71</ele>
        <time>2014-03-23T12:54:31Z</time>
      </trkpt>
      <trkpt lat="44.40527" lon="4.3932">
        <ele>122.71</ele>
        <time>2014-03-23T12:54:32Z</time>
      </trkpt>
      <trkpt lat="44.40527" lon="4.39321">
        <ele>122.71</ele>
        <time>2014-03-23T12:54:33Z</time>
      </trkpt>
      <trkpt lat="44.40527" lon="4.39323">
        <ele>122.22</ele>
        <time>2014-03-23T12:54:34Z</time>
      </trkpt>
      <trkpt lat="44.40527" lon="4.39325">
        <ele>122.22</ele>
        <time>2014-03-23T12:54:35Z</time>
      </trkpt>
      <trkpt lat="44.40528" lon="4.39328">
        <ele>121.74</ele>
        <time>2014-03-23T12:54:36Z</time>
      </trkpt>
      <trkpt lat="44.4053" lon="4.39331">
        <ele>121.74</ele>
        <time>2014-03-23T12:54:37Z</time>
      </trkpt>
      <trkpt lat="44.40532" lon="4.39335">
        <ele>121.74</ele>
        <time>2014-03-23T12:54:38Z</time>
      </trkpt>
      <trkpt lat="44.40543" lon="4.39352">
        <ele>120.3</ele>
        <time>2014-03-23T12:54:42Z</time>
      </trkpt>
      <trkpt lat="44.40546" lon="4.39357">
        <ele>120.3</ele>
        <time>2014-03-23T12:54:43Z</time>
      </trkpt>
      <trkpt lat="44.40554" lon="4.39371">
        <ele>120.3</ele>
        <time>2014-03-23T12:54:46Z</time>
      </trkpt>
      <trkpt lat="44.40558" lon="4.39374">
        <ele>120.3</ele>
        <time>2014-03-23T12:54:47Z</time>
      </trkpt>
      <trkpt lat="44.40564" lon="4.39381">
        <ele>120.3</ele>
        <time>2014-03-23T12:54:49Z</time>
      </trkpt>
      <trkpt lat="44.40568" lon="4.39383">
        <ele>119.82</ele>
        <time>2014-03-23T12:54:50Z</time>
      </trkpt>
      <trkpt lat="44.40572" lon="4.39385">
        <ele>119.82</ele>
        <time>2014-03-23T12:54:51Z</time>
      </trkpt>
      <trkpt lat="44.40592" lon="4.39397">
        <ele>119.34</ele>
        <time>2014-03-23T12:54:56Z</time>
      </trkpt>
      <trkpt lat="44.40596" lon="4.394">
        <ele>119.34</ele>
        <time>2014-03-23T12:54:57Z</time>
      </trkpt>
      <trkpt lat="44.40604" lon="4.39404">
        <ele>119.82</ele>
        <time>2014-03-23T12:54:59Z</time>
      </trkpt>
      <trkpt lat="44.40608" lon="4.39406">
        <ele>119.82</ele>
        <time>2014-03-23T12:55:00Z</time>
      </trkpt>
      <trkpt lat="44.40622" lon="4.39413">
        <ele>120.3</ele>
        <time>2014-03-23T12:55:04Z</time>
      </trkpt>
      <trkpt lat="44.40625" lon="4.39411">
        <ele>119.82</ele>
        <time>2014-03-23T12:55:05Z</time>
      </trkpt>
      <trkpt lat="44.40647" lon="4.39365">
        <ele>119.82</ele>
        <time>2014-03-23T12:55:15Z</time>
      </trkpt>
      <trkpt lat="44.40647" lon="4.39359">
        <ele>119.82</ele>
        <time>2014-03-23T12:55:16Z</time>
      </trkpt>
      <trkpt lat="44.40645" lon="4.39352">
        <ele>119.82</ele>
        <time>2014-03-23T12:55:17Z</time>
      </trkpt>
      <trkpt lat="44.40634" lon="4.39325">
        <ele>118.38</ele>
        <time>2014-03-23T12:55:21Z</time>
      </trkpt>
      <trkpt lat="44.40631" lon="4.39318">
        <ele>117.42</ele>
        <time>2014-03-23T12:55:22Z</time>
      </trkpt>
      <trkpt lat="44.40627" lon="4.39311">
        <ele>117.42</ele>
        <time>2014-03-23T12:55:23Z</time>
      </trkpt>
      <trkpt lat="44.40624" lon="4.39304">
        <ele>116.94</ele>
        <time>2014-03-23T12:55:24Z</time>
      </trkpt>
      <trkpt lat="44.40619" lon="4.39296">
        <ele>116.46</ele>
        <time>2014-03-23T12:55:25Z</time>
      </trkpt>
      <trkpt lat="44.40604" lon="4.39263">
        <ele>115.5</ele>
        <time>2014-03-23T12:55:29Z</time>
      </trkpt>
      <trkpt lat="44.40602" lon="4.39253">
        <ele>114.53</ele>
        <time>2014-03-23T12:55:30Z</time>
      </trkpt>
      <trkpt lat="44.406" lon="4.39242">
        <ele>113.09</ele>
        <time>2014-03-23T12:55:31Z</time>
      </trkpt>
      <trkpt lat="44.406" lon="4.39231">
        <ele>112.61</ele>
        <time>2014-03-23T12:55:32Z</time>
      </trkpt>
      <trkpt lat="44.40601" lon="4.39219">
        <ele>111.65</ele>
        <time>2014-03-23T12:55:33Z</time>
      </trkpt>
      <trkpt lat="44.40603" lon="4.39207">
        <ele>110.21</ele>
        <time>2014-03-23T12:55:34Z</time>
      </trkpt>
      <trkpt lat="44.40606" lon="4.39196">
        <ele>109.25</ele>
        <time>2014-03-23T12:55:35Z</time>
      </trkpt>
      <trkpt lat="44.40609" lon="4.39186">
        <ele>108.77</ele>
        <time>2014-03-23T12:55:36Z</time>
      </trkpt>
      <trkpt lat="44.40613" lon="4.39176">
        <ele>108.29</ele>
        <time>2014-03-23T12:55:37Z</time>
      </trkpt>
      <trkpt lat="44.40619" lon="4.39158">
        <ele>107.32</ele>
        <time>2014-03-23T12:55:39Z</time>
      </trkpt>
      <trkpt lat="44.40626" lon="4.39141">
        <ele>108.77</ele>
        <time>2014-03-23T12:55:41Z</time>
      </trkpt>
      <trkpt lat="44.40629" lon="4.39132">
        <ele>107.81</ele>
        <time>2014-03-23T12:55:42Z</time>
      </trkpt>
      <trkpt lat="44.40633" lon="4.39124">
        <ele>107.32</ele>
        <time>2014-03-23T12:55:43Z</time>
      </trkpt>
      <trkpt lat="44.40646" lon="4.39091">
        <ele>105.4</ele>
        <time>2014-03-23T12:55:47Z</time>
      </trkpt>
      <trkpt lat="44.40656" lon="4.39066">
        <ele>106.84</ele>
        <time>2014-03-23T12:55:50Z</time>
      </trkpt>
      <trkpt lat="44.4068" lon="4.39014">
        <ele>103.48</ele>
        <time>2014-03-23T12:55:56Z</time>
      </trkpt>
      <trkpt lat="44.40683" lon="4.39006">
        <ele>103.48</ele>
        <time>2014-03-23T12:55:57Z</time>
      </trkpt>
      <trkpt lat="44.40718" lon="4.38904">
        <ele>103.96</ele>
        <time>2014-03-23T12:56:10Z</time>
      </trkpt>
      <trkpt lat="44.4072" lon="4.38897">
        <ele>103.96</ele>
        <time>2014-03-23T12:56:11Z</time>
      </trkpt>
      <trkpt lat="44.40723" lon="4.3889">
        <ele>104.44</ele>
        <time>2014-03-23T12:56:12Z</time>
      </trkpt>
      <trkpt lat="44.40725" lon="4.38884">
        <ele>103.96</ele>
        <time>2014-03-23T12:56:13Z</time>
      </trkpt>
      <trkpt lat="44.40725" lon="4.38879">
        <ele>103.96</ele>
        <time>2014-03-23T12:56:14Z</time>
      </trkpt>
      <trkpt lat="44.40723" lon="4.38875">
        <ele>103.96</ele>
        <time>2014-03-23T12:56:15Z</time>
      </trkpt>
      <trkpt lat="44.40722" lon="4.38873">
        <ele>103.96</ele>
        <time>2014-03-23T12:56:16Z</time>
      </trkpt>
      <trkpt lat="44.40721" lon="4.38872">
        <ele>104.44</ele>
        <time>2014-03-23T12:56:25Z</time>
      </trkpt>
    </trkseg>
  </trk>
</gpx>